PWSweather.com
Personal Weather Stations
Station Observations
HVALPSUND
Hvalpsund, FarsoeDK 9640

HvalpsundFarsoeDK 9640

Lat: 56.705311, Lon: 9.203638

Elevation: 5

Station Type: Vantage Pro2

http://hvalpsundvejr.dk

High Low Average
Temperature 50.3°F10.2°F 39.2°F4.0°F 45.3°F7.4°F
Dew Point 45.1°F7.3°F 34.9°F1.6°F 41.1°F5.1°F
Winds 23.0 mph -37.0 mph - 3.0 mph 4.8 mph 12.2 mph 19.6 mph
Wind Gusts 28.0 mph45.1 mph 4.0 mph6.4 mph 14.7 mph23.7 mph
Humidity 94% 67% 85%
Pressure 30.33 in1027.10 in 30.14 in1020.70 in -
Precipitation 1.80 in45.70 in - -
Hour Temp Dew Point Humidity Winds Wind Gusts Pressure Precip Precip Rate Daily Precip Total
12:00 AM 39.4°F4.1°C 35.0°F1.7°C 84% 12.0 mph SSW19.3 kmh SSW 13.0 mph20.9 kmh 30.23 in1023.7 mb 0.00 in0.0 mm 0.00 in0.0 mm 0.00 in0.0 mm
12:01 AM 39.4°F4.1°C 35.0°F1.7°C 84% 12.0 mph SSW19.3 kmh SSW 16.0 mph25.7 kmh 30.23 in1023.7 mb 0.00 in0.0 mm 0.00 in0.0 mm 0.00 in0.0 mm
12:02 AM 39.4°F4.1°C 35.0°F1.7°C 84% 9.0 mph SSW14.5 kmh SSW 11.0 mph17.7 kmh 30.23 in1023.7 mb 0.00 in0.0 mm 0.00 in0.0 mm 0.00 in0.0 mm
12:03 AM 39.4°F4.1°C 35.0°F1.7°C 84% 8.0 mph SSW12.9 kmh SSW 11.0 mph17.7 kmh 30.23 in1023.7 mb 0.00 in0.0 mm 0.00 in0.0 mm 0.00 in0.0 mm
12:04 AM 39.4°F4.1°C 35.0°F1.7°C 84% 8.0 mph SSW12.9 kmh SSW 13.0 mph20.9 kmh 30.23 in1023.7 mb 0.00 in0.0 mm 0.00 in0.0 mm 0.00 in0.0 mm
12:05 AM 39.4°F4.1°C 35.0°F1.7°C 84% 10.0 mph SSW16.1 kmh SSW 13.0 mph20.9 kmh 30.23 in1023.7 mb 0.00 in0.0 mm 0.00 in0.0 mm 0.00 in0.0 mm
12:06 AM 39.4°F4.1°C 35.0°F1.7°C 84% 9.0 mph SSW14.5 kmh SSW 11.0 mph17.7 kmh 30.23 in1023.7 mb 0.00 in0.0 mm 0.00 in0.0 mm 0.00 in0.0 mm
12:07 AM 39.4°F4.1°C 35.0°F1.7°C 84% 10.0 mph SSW16.1 kmh SSW 14.0 mph22.5 kmh 30.23 in1023.7 mb 0.00 in0.0 mm 0.00 in0.0 mm 0.00 in0.0 mm
12:08 AM 39.4°F4.1°C 35.0°F1.7°C 84% 9.0 mph SSW14.5 kmh SSW 12.0 mph19.3 kmh 30.23 in1023.7 mb 0.00 in0.0 mm 0.00 in0.0 mm 0.00 in0.0 mm
12:09 AM 39.4°F4.1°C 35.0°F1.7°C 84% 9.0 mph SSW14.5 kmh SSW 13.0 mph20.9 kmh 30.23 in1023.7 mb 0.00 in0.0 mm 0.00 in0.0 mm 0.00 in0.0 mm
12:10 AM 39.4°F4.1°C 35.0°F1.7°C 84% 10.0 mph SSW16.1 kmh SSW 14.0 mph22.5 kmh 30.23 in1023.7 mb 0.00 in0.0 mm 0.00 in0.0 mm 0.00 in0.0 mm
12:11 AM 39.4°F4.1°C 35.0°F1.7°C 84% 8.0 mph SSW12.9 kmh SSW 11.0 mph17.7 kmh 30.23 in1023.7 mb 0.00 in0.0 mm 0.00 in0.0 mm 0.00 in0.0 mm
12:12 AM 39.4°F4.1°C 35.0°F1.7°C 84% 7.0 mph SSW11.3 kmh SSW 8.0 mph12.9 kmh 30.23 in1023.7 mb 0.00 in0.0 mm 0.00 in0.0 mm 0.00 in0.0 mm
12:13 AM 39.3°F4.1°C 34.9°F1.6°C 84% 6.0 mph SSW9.7 kmh SSW 8.0 mph12.9 kmh 30.23 in1023.7 mb 0.00 in0.0 mm 0.00 in0.0 mm 0.00 in0.0 mm
12:14 AM 39.3°F4.1°C 34.9°F1.6°C 84% 8.0 mph SSW12.9 kmh SSW 15.0 mph24.1 kmh 30.23 in1023.7 mb 0.00 in0.0 mm 0.00 in0.0 mm 0.00 in0.0 mm
12:15 AM 39.4°F4.1°C 35.0°F1.7°C 84% 9.0 mph SSW14.5 kmh SSW 13.0 mph20.9 kmh 30.23 in1023.7 mb 0.00 in0.0 mm 0.00 in0.0 mm 0.00 in0.0 mm
12:16 AM 39.3°F4.1°C 34.9°F1.6°C 84% 9.0 mph SSW14.5 kmh SSW 13.0 mph20.9 kmh 30.23 in1023.7 mb 0.00 in0.0 mm 0.00 in0.0 mm 0.00 in0.0 mm
12:17 AM 39.3°F4.1°C 34.9°F1.6°C 84% 8.0 mph SSW12.9 kmh SSW 11.0 mph17.7 kmh 30.23 in1023.7 mb 0.00 in0.0 mm 0.00 in0.0 mm 0.00 in0.0 mm
12:18 AM 39.3°F4.1°C 34.9°F1.6°C 84% 6.0 mph SSW9.7 kmh SSW 8.0 mph12.9 kmh 30.23 in1023.7 mb 0.00 in0.0 mm 0.00 in0.0 mm 0.00 in0.0 mm
12:19 AM 39.2°F4.0°C 35.1°F1.7°C 85% 10.0 mph SSW16.1 kmh SSW 15.0 mph24.1 kmh 30.23 in1023.7 mb 0.00 in0.0 mm 0.00 in0.0 mm 0.00 in0.0 mm
12:20 AM 39.2°F4.0°C 35.1°F1.7°C 85% 10.0 mph SSW16.1 kmh SSW 12.0 mph19.3 kmh 30.23 in1023.7 mb 0.00 in0.0 mm 0.00 in0.0 mm 0.00 in0.0 mm
12:21 AM 39.2°F4.0°C 35.1°F1.7°C 85% 11.0 mph SSW17.7 kmh SSW 14.0 mph22.5 kmh 30.23 in1023.7 mb 0.00 in0.0 mm 0.00 in0.0 mm 0.00 in0.0 mm
12:22 AM 39.2°F4.0°C 35.1°F1.7°C 85% 8.0 mph SSW12.9 kmh SSW 13.0 mph20.9 kmh 30.23 in1023.7 mb 0.00 in0.0 mm 0.00 in0.0 mm 0.00 in0.0 mm
12:23 AM 39.3°F4.1°C 35.2°F1.8°C 85% 10.0 mph SSW16.1 kmh SSW 12.0 mph19.3 kmh 30.23 in1023.7 mb 0.00 in0.0 mm 0.00 in0.0 mm 0.00 in0.0 mm
12:24 AM 39.3°F4.1°C 35.2°F1.8°C 85% 9.0 mph SSW14.5 kmh SSW 12.0 mph19.3 kmh 30.23 in1023.7 mb 0.00 in0.0 mm 0.00 in0.0 mm 0.00 in0.0 mm
12:25 AM 39.3°F4.1°C 35.2°F1.8°C 85% 12.0 mph SSW19.3 kmh SSW 15.0 mph24.1 kmh 30.23 in1023.7 mb 0.00 in0.0 mm 0.00 in0.0 mm 0.00 in0.0 mm
12:26 AM 39.3°F4.1°C 35.2°F1.8°C 85% 9.0 mph SSW14.5 kmh SSW 13.0 mph20.9 kmh 30.23 in1023.7 mb 0.00 in0.0 mm 0.00 in0.0 mm 0.00 in0.0 mm
12:27 AM 39.3°F4.1°C 35.2°F1.8°C 85% 10.0 mph SSW16.1 kmh SSW 12.0 mph19.3 kmh 30.23 in1023.7 mb 0.00 in0.0 mm 0.00 in0.0 mm 0.00 in0.0 mm
12:28 AM 39.4°F4.1°C 35.3°F1.8°C 85% 11.0 mph SSW17.7 kmh SSW 14.0 mph22.5 kmh 30.23 in1023.7 mb 0.00 in0.0 mm 0.00 in0.0 mm 0.00 in0.0 mm
12:29 AM 39.4°F4.1°C 35.3°F1.8°C 85% 9.0 mph SSW14.5 kmh SSW 14.0 mph22.5 kmh 30.23 in1023.7 mb 0.00 in0.0 mm 0.00 in0.0 mm 0.00 in0.0 mm
12:30 AM 39.4°F4.1°C 35.3°F1.8°C 85% 8.0 mph SSW12.9 kmh SSW 10.0 mph16.1 kmh 30.23 in1023.7 mb 0.00 in0.0 mm 0.00 in0.0 mm 0.00 in0.0 mm
12:31 AM 39.4°F4.1°C 35.3°F1.8°C 85% 9.0 mph SSW14.5 kmh SSW 12.0 mph19.3 kmh 30.23 in1023.7 mb 0.00 in0.0 mm 0.00 in0.0 mm 0.00 in0.0 mm
12:32 AM 39.4°F4.1°C 35.3°F1.8°C 85% 9.0 mph SSW14.5 kmh SSW 12.0 mph19.3 kmh 30.23 in1023.7 mb 0.00 in0.0 mm 0.00 in0.0 mm 0.00 in0.0 mm
12:33 AM 39.5°F4.2°C 35.4°F1.9°C 85% 9.0 mph SSW14.5 kmh SSW 12.0 mph19.3 kmh 30.23 in1023.7 mb 0.00 in0.0 mm 0.00 in0.0 mm 0.00 in0.0 mm
12:34 AM 39.4°F4.1°C 35.3°F1.8°C 85% 9.0 mph SSW14.5 kmh SSW 11.0 mph17.7 kmh 30.23 in1023.7 mb 0.00 in0.0 mm 0.00 in0.0 mm 0.00 in0.0 mm
12:35 AM 39.4°F4.1°C 35.3°F1.8°C 85% 11.0 mph SSW17.7 kmh SSW 14.0 mph22.5 kmh 30.23 in1023.7 mb 0.00 in0.0 mm 0.00 in0.0 mm 0.00 in0.0 mm
12:36 AM 39.4°F4.1°C 35.6°F2.0°C 86% 11.0 mph SSW17.7 kmh SSW 14.0 mph22.5 kmh 30.23 in1023.7 mb 0.00 in0.0 mm 0.00 in0.0 mm 0.00 in0.0 mm
12:37 AM 39.5°F4.2°C 35.4°F1.9°C 85% 8.0 mph SSW12.9 kmh SSW 10.0 mph16.1 kmh 30.23 in1023.7 mb 0.00 in0.0 mm 0.00 in0.0 mm 0.00 in0.0 mm
12:38 AM 39.5°F4.2°C 35.4°F1.9°C 85% 8.0 mph SSW12.9 kmh SSW 11.0 mph17.7 kmh 30.23 in1023.7 mb 0.00 in0.0 mm 0.00 in0.0 mm 0.00 in0.0 mm
12:39 AM 39.5°F4.2°C 35.7°F2.1°C 86% 11.0 mph SSW17.7 kmh SSW 15.0 mph24.1 kmh 30.23 in1023.7 mb 0.00 in0.0 mm 0.00 in0.0 mm 0.00 in0.0 mm
12:40 AM 39.5°F4.2°C 35.7°F2.1°C 86% 11.0 mph SSW17.7 kmh SSW 13.0 mph20.9 kmh 30.23 in1023.7 mb 0.00 in0.0 mm 0.00 in0.0 mm 0.00 in0.0 mm
12:41 AM 39.5°F4.2°C 35.4°F1.9°C 85% 8.0 mph S12.9 kmh S 11.0 mph17.7 kmh 30.23 in1023.7 mb 0.00 in0.0 mm 0.00 in0.0 mm 0.00 in0.0 mm
12:42 AM 39.5°F4.2°C 35.7°F2.1°C 86% 9.0 mph SSW14.5 kmh SSW 12.0 mph19.3 kmh 30.23 in1023.7 mb 0.00 in0.0 mm 0.00 in0.0 mm 0.00 in0.0 mm
12:43 AM 39.5°F4.2°C 35.4°F1.9°C 85% 8.0 mph SSW12.9 kmh SSW 14.0 mph22.5 kmh 30.23 in1023.7 mb 0.00 in0.0 mm 0.00 in0.0 mm 0.00 in0.0 mm
12:44 AM 39.6°F4.2°C 35.8°F2.1°C 86% 10.0 mph SSW16.1 kmh SSW 15.0 mph24.1 kmh 30.23 in1023.7 mb 0.00 in0.0 mm 0.00 in0.0 mm 0.00 in0.0 mm
12:45 AM 39.6°F4.2°C 35.8°F2.1°C 86% 12.0 mph SSW19.3 kmh SSW 16.0 mph25.7 kmh 30.23 in1023.7 mb 0.00 in0.0 mm 0.00 in0.0 mm 0.00 in0.0 mm
12:46 AM 39.5°F4.2°C 35.7°F2.1°C 86% 10.0 mph SSW16.1 kmh SSW 15.0 mph24.1 kmh 30.23 in1023.7 mb 0.00 in0.0 mm 0.00 in0.0 mm 0.00 in0.0 mm
12:47 AM 39.6°F4.2°C 35.8°F2.1°C 86% 7.0 mph SSW11.3 kmh SSW 11.0 mph17.7 kmh 30.23 in1023.7 mb 0.00 in0.0 mm 0.00 in0.0 mm 0.00 in0.0 mm
12:48 AM 39.6°F4.2°C 35.8°F2.1°C 86% 10.0 mph SSW16.1 kmh SSW 13.0 mph20.9 kmh 30.23 in1023.7 mb 0.00 in0.0 mm 0.00 in0.0 mm 0.00 in0.0 mm
12:49 AM 39.6°F4.2°C 35.8°F2.1°C 86% 9.0 mph SSW14.5 kmh SSW 12.0 mph19.3 kmh 30.23 in1023.7 mb 0.00 in0.0 mm 0.00 in0.0 mm 0.00 in0.0 mm
12:50 AM 39.6°F4.2°C 35.8°F2.1°C 86% 11.0 mph SSW17.7 kmh SSW 14.0 mph22.5 kmh 30.23 in1023.7 mb 0.00 in0.0 mm 0.00 in0.0 mm 0.00 in0.0 mm
12:51 AM 39.6°F4.2°C 35.8°F2.1°C 86% 11.0 mph SSW17.7 kmh SSW 15.0 mph24.1 kmh 30.23 in1023.7 mb 0.00 in0.0 mm 0.00 in0.0 mm 0.00 in0.0 mm
12:52 AM 39.6°F4.2°C 35.8°F2.1°C 86% 9.0 mph SSW14.5 kmh SSW 14.0 mph22.5 kmh 30.23 in1023.7 mb 0.00 in0.0 mm 0.00 in0.0 mm 0.00 in0.0 mm
12:53 AM 39.6°F4.2°C 35.8°F2.1°C 86% 10.0 mph SSW16.1 kmh SSW 14.0 mph22.5 kmh 30.23 in1023.7 mb 0.00 in0.0 mm 0.00 in0.0 mm 0.00 in0.0 mm
12:54 AM 39.5°F4.2°C 35.7°F2.1°C 86% 10.0 mph SSW16.1 kmh SSW 13.0 mph20.9 kmh 30.23 in1023.7 mb 0.00 in0.0 mm 0.00 in0.0 mm 0.00 in0.0 mm
12:55 AM 39.6°F4.2°C 35.8°F2.1°C 86% 9.0 mph SSW14.5 kmh SSW 11.0 mph17.7 kmh 30.23 in1023.7 mb 0.00 in0.0 mm 0.00 in0.0 mm 0.00 in0.0 mm
12:56 AM 39.6°F4.2°C 35.8°F2.1°C 86% 10.0 mph SSW16.1 kmh SSW 14.0 mph22.5 kmh 30.23 in1023.7 mb 0.00 in0.0 mm 0.00 in0.0 mm 0.00 in0.0 mm
12:57 AM 39.6°F4.2°C 35.8°F2.1°C 86% 9.0 mph SSW14.5 kmh SSW 11.0 mph17.7 kmh 30.23 in1023.7 mb 0.00 in0.0 mm 0.00 in0.0 mm 0.00 in0.0 mm
12:58 AM 39.6°F4.2°C 35.8°F2.1°C 86% 10.0 mph SSW16.1 kmh SSW 14.0 mph22.5 kmh 30.23 in1023.7 mb 0.00 in0.0 mm 0.00 in0.0 mm 0.00 in0.0 mm
12:59 AM 39.6°F4.2°C 35.8°F2.1°C 86% 9.0 mph SSW14.5 kmh SSW 12.0 mph19.3 kmh 30.23 in1023.7 mb 0.00 in0.0 mm 0.00 in0.0 mm 0.00 in0.0 mm
01:00 AM 39.5°F4.2°C 35.7°F2.1°C 86% 10.0 mph SSW16.1 kmh SSW 14.0 mph22.5 kmh 30.23 in1023.7 mb 0.00 in0.0 mm 0.00 in0.0 mm 0.00 in0.0 mm
01:01 AM 39.6°F4.2°C 35.8°F2.1°C 86% 11.0 mph SSW17.7 kmh SSW 13.0 mph20.9 kmh 30.23 in1023.7 mb 0.00 in0.0 mm 0.00 in0.0 mm 0.00 in0.0 mm
01:02 AM 39.6°F4.2°C 35.8°F2.1°C 86% 10.0 mph SSW16.1 kmh SSW 11.0 mph17.7 kmh 30.23 in1023.7 mb 0.00 in0.0 mm 0.00 in0.0 mm 0.00 in0.0 mm
01:03 AM 39.6°F4.2°C 35.8°F2.1°C 86% 9.0 mph SSW14.5 kmh SSW 12.0 mph19.3 kmh 30.23 in1023.7 mb 0.00 in0.0 mm 0.00 in0.0 mm 0.00 in0.0 mm
01:04 AM 39.7°F4.3°C 35.9°F2.2°C 86% 9.0 mph SSW14.5 kmh SSW 13.0 mph20.9 kmh 30.22 in1023.4 mb 0.00 in0.0 mm 0.00 in0.0 mm 0.00 in0.0 mm
01:05 AM 39.7°F4.3°C 35.9°F2.2°C 86% 11.0 mph SW17.7 kmh SW 16.0 mph25.7 kmh 30.22 in1023.4 mb 0.00 in0.0 mm 0.00 in0.0 mm 0.00 in0.0 mm
01:06 AM 39.7°F4.3°C 35.9°F2.2°C 86% 10.0 mph SSW16.1 kmh SSW 17.0 mph27.4 kmh 30.22 in1023.4 mb 0.00 in0.0 mm 0.00 in0.0 mm 0.00 in0.0 mm
01:07 AM 39.8°F4.3°C 36.0°F2.2°C 86% 8.0 mph SSW12.9 kmh SSW 10.0 mph16.1 kmh 30.22 in1023.4 mb 0.00 in0.0 mm 0.00 in0.0 mm 0.00 in0.0 mm
01:08 AM 39.8°F4.3°C 36.0°F2.2°C 86% 13.0 mph SSW20.9 kmh SSW 18.0 mph29.0 kmh 30.22 in1023.4 mb 0.00 in0.0 mm 0.00 in0.0 mm 0.00 in0.0 mm
01:09 AM 39.8°F4.3°C 36.0°F2.2°C 86% 11.0 mph SSW17.7 kmh SSW 15.0 mph24.1 kmh 30.22 in1023.4 mb 0.00 in0.0 mm 0.00 in0.0 mm 0.00 in0.0 mm
01:10 AM 39.8°F4.3°C 36.0°F2.2°C 86% 11.0 mph SSW17.7 kmh SSW 14.0 mph22.5 kmh 30.22 in1023.4 mb 0.00 in0.0 mm 0.00 in0.0 mm 0.00 in0.0 mm
01:11 AM 39.9°F4.4°C 36.1°F2.3°C 86% 11.0 mph SSW17.7 kmh SSW 16.0 mph25.7 kmh 30.22 in1023.4 mb 0.00 in0.0 mm 0.00 in0.0 mm 0.00 in0.0 mm
01:12 AM 39.9°F4.4°C 36.1°F2.3°C 86% 13.0 mph SSW20.9 kmh SSW 17.0 mph27.4 kmh 30.22 in1023.4 mb 0.00 in0.0 mm 0.00 in0.0 mm 0.00 in0.0 mm
01:13 AM 40.0°F4.4°C 36.2°F2.3°C 86% 11.0 mph SSW17.7 kmh SSW 14.0 mph22.5 kmh 30.22 in1023.4 mb 0.00 in0.0 mm 0.00 in0.0 mm 0.00 in0.0 mm
01:14 AM 40.0°F4.4°C 36.2°F2.3°C 86% 10.0 mph SSW16.1 kmh SSW 14.0 mph22.5 kmh 30.22 in1023.4 mb 0.00 in0.0 mm 0.00 in0.0 mm 0.00 in0.0 mm
01:15 AM 39.9°F4.4°C 36.1°F2.3°C 86% 11.0 mph SW17.7 kmh SW 13.0 mph20.9 kmh 30.22 in1023.4 mb 0.00 in0.0 mm 0.00 in0.0 mm 0.00 in0.0 mm
01:16 AM 40.0°F4.4°C 36.2°F2.3°C 86% 12.0 mph SSW19.3 kmh SSW 15.0 mph24.1 kmh 30.22 in1023.4 mb 0.00 in0.0 mm 0.00 in0.0 mm 0.00 in0.0 mm
01:17 AM 40.0°F4.4°C 36.2°F2.3°C 86% 12.0 mph SSW19.3 kmh SSW 15.0 mph24.1 kmh 30.22 in1023.4 mb 0.00 in0.0 mm 0.00 in0.0 mm 0.00 in0.0 mm
01:18 AM 40.0°F4.4°C 36.2°F2.3°C 86% 10.0 mph SSW16.1 kmh SSW 15.0 mph24.1 kmh 30.22 in1023.4 mb 0.00 in0.0 mm 0.00 in0.0 mm 0.00 in0.0 mm
01:19 AM 40.0°F4.4°C 36.2°F2.3°C 86% 10.0 mph SSW16.1 kmh SSW 12.0 mph19.3 kmh 30.22 in1023.4 mb 0.00 in0.0 mm 0.00 in0.0 mm 0.00 in0.0 mm
01:20 AM 40.0°F4.4°C 36.2°F2.3°C 86% 9.0 mph SSW14.5 kmh SSW 12.0 mph19.3 kmh 30.21 in1023.0 mb 0.00 in0.0 mm 0.00 in0.0 mm 0.00 in0.0 mm
01:21 AM 40.1°F4.5°C 36.3°F2.4°C 86% 12.0 mph SSW19.3 kmh SSW 14.0 mph22.5 kmh 30.21 in1023.0 mb 0.00 in0.0 mm 0.00 in0.0 mm 0.00 in0.0 mm
01:22 AM 40.1°F4.5°C 36.3°F2.4°C 86% 9.0 mph S14.5 kmh S 12.0 mph19.3 kmh 30.21 in1023.0 mb 0.00 in0.0 mm 0.00 in0.0 mm 0.00 in0.0 mm
01:23 AM 40.1°F4.5°C 36.3°F2.4°C 86% 11.0 mph SSW17.7 kmh SSW 13.0 mph20.9 kmh 30.22 in1023.4 mb 0.00 in0.0 mm 0.00 in0.0 mm 0.00 in0.0 mm
01:24 AM 40.1°F4.5°C 36.3°F2.4°C 86% 9.0 mph SSW14.5 kmh SSW 10.0 mph16.1 kmh 30.21 in1023.0 mb 0.00 in0.0 mm 0.00 in0.0 mm 0.00 in0.0 mm
01:25 AM 40.1°F4.5°C 36.3°F2.4°C 86% 9.0 mph SSW14.5 kmh SSW 11.0 mph17.7 kmh 30.21 in1023.0 mb 0.00 in0.0 mm 0.00 in0.0 mm 0.00 in0.0 mm
01:26 AM 40.1°F4.5°C 36.3°F2.4°C 86% 10.0 mph SSW16.1 kmh SSW 13.0 mph20.9 kmh 30.22 in1023.4 mb 0.00 in0.0 mm 0.00 in0.0 mm 0.00 in0.0 mm
01:27 AM 40.2°F4.6°C 36.4°F2.4°C 86% 9.0 mph SSW14.5 kmh SSW 12.0 mph19.3 kmh 30.21 in1023.0 mb 0.00 in0.0 mm 0.00 in0.0 mm 0.00 in0.0 mm
01:28 AM 40.2°F4.6°C 36.4°F2.4°C 86% 10.0 mph SSW16.1 kmh SSW 13.0 mph20.9 kmh 30.21 in1023.0 mb 0.00 in0.0 mm 0.00 in0.0 mm 0.00 in0.0 mm
01:29 AM 40.2°F4.6°C 36.4°F2.4°C 86% 12.0 mph SSW19.3 kmh SSW 16.0 mph25.7 kmh 30.21 in1023.0 mb 0.00 in0.0 mm 0.00 in0.0 mm 0.00 in0.0 mm
01:30 AM 40.2°F4.6°C 36.4°F2.4°C 86% 11.0 mph SSW17.7 kmh SSW 14.0 mph22.5 kmh 30.21 in1023.0 mb 0.00 in0.0 mm 0.00 in0.0 mm 0.00 in0.0 mm
01:31 AM 40.2°F4.6°C 36.4°F2.4°C 86% 8.0 mph SSW12.9 kmh SSW 11.0 mph17.7 kmh 30.21 in1023.0 mb 0.00 in0.0 mm 0.00 in0.0 mm 0.00 in0.0 mm
01:32 AM 40.2°F4.6°C 36.4°F2.4°C 86% 7.0 mph SSW11.3 kmh SSW 9.0 mph14.5 kmh 30.21 in1023.0 mb 0.00 in0.0 mm 0.00 in0.0 mm 0.00 in0.0 mm
01:33 AM 40.3°F4.6°C 36.5°F2.5°C 86% 9.0 mph SSW14.5 kmh SSW 10.0 mph16.1 kmh 30.21 in1023.0 mb 0.00 in0.0 mm 0.00 in0.0 mm 0.00 in0.0 mm
01:34 AM 40.2°F4.6°C 36.4°F2.4°C 86% 10.0 mph SW16.1 kmh SW 13.0 mph20.9 kmh 30.21 in1023.0 mb 0.00 in0.0 mm 0.00 in0.0 mm 0.00 in0.0 mm
01:35 AM 40.2°F4.6°C 36.4°F2.4°C 86% 9.0 mph SSW14.5 kmh SSW 15.0 mph24.1 kmh 30.21 in1023.0 mb 0.00 in0.0 mm 0.00 in0.0 mm 0.00 in0.0 mm
01:36 AM 40.2°F4.6°C 36.4°F2.4°C 86% 9.0 mph SSW14.5 kmh SSW 13.0 mph20.9 kmh 30.21 in1023.0 mb 0.00 in0.0 mm 0.00 in0.0 mm 0.00 in0.0 mm
01:37 AM 40.3°F4.6°C 36.5°F2.5°C 86% 9.0 mph SSW14.5 kmh SSW 11.0 mph17.7 kmh 30.21 in1023.0 mb 0.00 in0.0 mm 0.00 in0.0 mm 0.00 in0.0 mm
01:38 AM 40.3°F4.6°C 36.5°F2.5°C 86% 11.0 mph SSW17.7 kmh SSW 17.0 mph27.4 kmh 30.21 in1023.0 mb 0.00 in0.0 mm 0.00 in0.0 mm 0.00 in0.0 mm
01:39 AM 40.3°F4.6°C 36.5°F2.5°C 86% 9.0 mph SSW14.5 kmh SSW 12.0 mph19.3 kmh 30.21 in1023.0 mb 0.00 in0.0 mm 0.00 in0.0 mm 0.00 in0.0 mm
01:40 AM 40.4°F4.7°C 36.5°F2.5°C 86% 9.0 mph SSW14.5 kmh SSW 17.0 mph27.4 kmh 30.21 in1023.0 mb 0.00 in0.0 mm 0.00 in0.0 mm 0.00 in0.0 mm
01:41 AM 40.4°F4.7°C 36.8°F2.7°C 87% 10.0 mph SSW16.1 kmh SSW 15.0 mph24.1 kmh 30.21 in1023.0 mb 0.00 in0.0 mm 0.00 in0.0 mm 0.00 in0.0 mm
01:42 AM 40.4°F4.7°C 36.5°F2.5°C 86% 9.0 mph SSW14.5 kmh SSW 12.0 mph19.3 kmh 30.21 in1023.0 mb 0.00 in0.0 mm 0.00 in0.0 mm 0.00 in0.0 mm
01:43 AM 40.4°F4.7°C 36.5°F2.5°C 86% 10.0 mph SSW16.1 kmh SSW 16.0 mph25.7 kmh 30.21 in1023.0 mb 0.00 in0.0 mm 0.00 in0.0 mm 0.00 in0.0 mm
01:44 AM 40.4°F4.7°C 36.8°F2.7°C 87% 10.0 mph SW16.1 kmh SW 12.0 mph19.3 kmh 30.21 in1023.0 mb 0.00 in0.0 mm 0.00 in0.0 mm 0.00 in0.0 mm
01:45 AM 40.4°F4.7°C 36.5°F2.5°C 86% 9.0 mph SSW14.5 kmh SSW 10.0 mph16.1 kmh 30.21 in1023.0 mb 0.00 in0.0 mm 0.00 in0.0 mm 0.00 in0.0 mm
01:46 AM 40.5°F4.7°C 36.9°F2.7°C 87% 11.0 mph SSW17.7 kmh SSW 18.0 mph29.0 kmh 30.21 in1023.0 mb 0.00 in0.0 mm 0.00 in0.0 mm 0.00 in0.0 mm
01:47 AM 40.5°F4.7°C 36.9°F2.7°C 87% 11.0 mph SSW17.7 kmh SSW 13.0 mph20.9 kmh 30.21 in1023.0 mb 0.00 in0.0 mm 0.00 in0.0 mm 0.00 in0.0 mm
01:48 AM 40.5°F4.7°C 36.9°F2.7°C 87% 10.0 mph SSW16.1 kmh SSW 18.0 mph29.0 kmh 30.21 in1023.0 mb 0.00 in0.0 mm 0.00 in0.0 mm 0.00 in0.0 mm
01:49 AM 40.5°F4.7°C 36.9°F2.7°C 87% 11.0 mph SSW17.7 kmh SSW 15.0 mph24.1 kmh 30.21 in1023.0 mb 0.00 in0.0 mm 0.00 in0.0 mm 0.00 in0.0 mm
01:50 AM 40.6°F4.8°C 37.0°F2.8°C 87% 13.0 mph SSW20.9 kmh SSW 15.0 mph24.1 kmh 30.21 in1023.0 mb 0.00 in0.0 mm 0.00 in0.0 mm 0.00 in0.0 mm
01:51 AM 40.6°F4.8°C 37.0°F2.8°C 87% 11.0 mph SSW17.7 kmh SSW 14.0 mph22.5 kmh 30.21 in1023.0 mb 0.00 in0.0 mm 0.00 in0.0 mm 0.00 in0.0 mm
01:52 AM 40.6°F4.8°C 37.0°F2.8°C 87% 9.0 mph SW14.5 kmh SW 14.0 mph22.5 kmh 30.21 in1023.0 mb 0.00 in0.0 mm 0.00 in0.0 mm 0.00 in0.0 mm
01:53 AM 40.6°F4.8°C 37.0°F2.8°C 87% 10.0 mph SSW16.1 kmh SSW 15.0 mph24.1 kmh 30.21 in1023.0 mb 0.00 in0.0 mm 0.00 in0.0 mm 0.00 in0.0 mm
01:54 AM 40.6°F4.8°C 37.0°F2.8°C 87% 12.0 mph SSW19.3 kmh SSW 15.0 mph24.1 kmh 30.21 in1023.0 mb 0.00 in0.0 mm 0.00 in0.0 mm 0.00 in0.0 mm
01:55 AM 40.7°F4.8°C 37.1°F2.8°C 87% 8.0 mph SSW12.9 kmh SSW 12.0 mph19.3 kmh 30.21 in1023.0 mb 0.00 in0.0 mm 0.00 in0.0 mm 0.00 in0.0 mm
01:56 AM 40.7°F4.8°C 37.1°F2.8°C 87% 9.0 mph SSW14.5 kmh SSW 13.0 mph20.9 kmh 30.21 in1023.0 mb 0.00 in0.0 mm 0.00 in0.0 mm 0.00 in0.0 mm
01:57 AM 40.7°F4.8°C 37.1°F2.8°C 87% 10.0 mph SSW16.1 kmh SSW 12.0 mph19.3 kmh 30.21 in1023.0 mb 0.00 in0.0 mm 0.00 in0.0 mm 0.00 in0.0 mm
01:58 AM 40.7°F4.8°C 37.1°F2.8°C 87% 12.0 mph SW19.3 kmh SW 16.0 mph25.7 kmh 30.21 in1023.0 mb 0.00 in0.0 mm 0.00 in0.0 mm 0.00 in0.0 mm
01:59 AM 40.7°F4.8°C 37.1°F2.8°C 87% 8.0 mph SSW12.9 kmh SSW 10.0 mph16.1 kmh 30.21 in1023.0 mb 0.00 in0.0 mm 0.00 in0.0 mm 0.00 in0.0 mm
02:00 AM 40.7°F4.8°C 37.1°F2.8°C 87% 8.0 mph SSW12.9 kmh SSW 10.0 mph16.1 kmh 30.21 in1023.0 mb 0.00 in0.0 mm 0.00 in0.0 mm 0.00 in0.0 mm
02:01 AM 40.8°F4.9°C 37.2°F2.9°C 87% 9.0 mph SSW14.5 kmh SSW 12.0 mph19.3 kmh 30.21 in1023.0 mb 0.00 in0.0 mm 0.00 in0.0 mm 0.00 in0.0 mm
02:02 AM 40.8°F4.9°C 37.2°F2.9°C 87% 12.0 mph SW19.3 kmh SW 16.0 mph25.7 kmh 30.21 in1023.0 mb 0.00 in0.0 mm 0.00 in0.0 mm 0.00 in0.0 mm
02:03 AM 40.8°F4.9°C 37.2°F2.9°C 87% 11.0 mph SSW17.7 kmh SSW 14.0 mph22.5 kmh 30.21 in1023.0 mb 0.00 in0.0 mm 0.00 in0.0 mm 0.00 in0.0 mm
02:04 AM 40.8°F4.9°C 37.2°F2.9°C 87% 10.0 mph SSW16.1 kmh SSW 13.0 mph20.9 kmh 30.21 in1023.0 mb 0.00 in0.0 mm 0.00 in0.0 mm 0.00 in0.0 mm
02:05 AM 40.8°F4.9°C 37.2°F2.9°C 87% 8.0 mph SSW12.9 kmh SSW 14.0 mph22.5 kmh 30.21 in1023.0 mb 0.00 in0.0 mm 0.00 in0.0 mm 0.00 in0.0 mm
02:06 AM 40.8°F4.9°C 37.2°F2.9°C 87% 10.0 mph SSW16.1 kmh SSW 13.0 mph20.9 kmh 30.21 in1023.0 mb 0.00 in0.0 mm 0.00 in0.0 mm 0.00 in0.0 mm
02:07 AM 40.8°F4.9°C 37.2°F2.9°C 87% 10.0 mph SSW16.1 kmh SSW 12.0 mph19.3 kmh 30.21 in1023.0 mb 0.00 in0.0 mm 0.00 in0.0 mm 0.00 in0.0 mm
02:08 AM 40.9°F4.9°C 37.3°F2.9°C 87% 9.0 mph SSW14.5 kmh SSW 12.0 mph19.3 kmh 30.21 in1023.0 mb 0.00 in0.0 mm 0.00 in0.0 mm 0.00 in0.0 mm
02:09 AM 40.9°F4.9°C 37.3°F2.9°C 87% 11.0 mph SW17.7 kmh SW 14.0 mph22.5 kmh 30.21 in1023.0 mb 0.00 in0.0 mm 0.00 in0.0 mm 0.00 in0.0 mm
02:10 AM 40.9°F4.9°C 37.3°F2.9°C 87% 10.0 mph SSW16.1 kmh SSW 14.0 mph22.5 kmh 30.21 in1023.0 mb 0.00 in0.0 mm 0.00 in0.0 mm 0.00 in0.0 mm
02:11 AM 40.9°F4.9°C 37.3°F2.9°C 87% 9.0 mph SW14.5 kmh SW 14.0 mph22.5 kmh 30.20 in1022.7 mb 0.00 in0.0 mm 0.00 in0.0 mm 0.00 in0.0 mm
02:12 AM 40.9°F4.9°C 37.3°F2.9°C 87% 9.0 mph SW14.5 kmh SW 12.0 mph19.3 kmh 30.20 in1022.7 mb 0.00 in0.0 mm 0.00 in0.0 mm 0.00 in0.0 mm
02:13 AM 41.0°F5.0°C 37.4°F3.0°C 87% 9.0 mph SSW14.5 kmh SSW 14.0 mph22.5 kmh 30.21 in1023.0 mb 0.00 in0.0 mm 0.00 in0.0 mm 0.00 in0.0 mm
02:14 AM 41.0°F5.0°C 37.4°F3.0°C 87% 11.0 mph SW17.7 kmh SW 13.0 mph20.9 kmh 30.21 in1023.0 mb 0.00 in0.0 mm 0.00 in0.0 mm 0.00 in0.0 mm
02:15 AM 41.0°F5.0°C 37.4°F3.0°C 87% 10.0 mph SSW16.1 kmh SSW 14.0 mph22.5 kmh 30.21 in1023.0 mb 0.00 in0.0 mm 0.00 in0.0 mm 0.00 in0.0 mm
02:16 AM 41.1°F5.1°C 37.5°F3.1°C 87% 12.0 mph SSW19.3 kmh SSW 17.0 mph27.4 kmh 30.20 in1022.7 mb 0.00 in0.0 mm 0.00 in0.0 mm 0.00 in0.0 mm
02:17 AM 41.1°F5.1°C 37.5°F3.1°C 87% 10.0 mph SSW16.1 kmh SSW 14.0 mph22.5 kmh 30.20 in1022.7 mb 0.00 in0.0 mm 0.00 in0.0 mm 0.00 in0.0 mm
02:18 AM 41.1°F5.1°C 37.5°F3.1°C 87% 9.0 mph SSW14.5 kmh SSW 13.0 mph20.9 kmh 30.20 in1022.7 mb 0.00 in0.0 mm 0.00 in0.0 mm 0.00 in0.0 mm
02:19 AM 41.2°F5.1°C 37.6°F3.1°C 87% 10.0 mph SSW16.1 kmh SSW 13.0 mph20.9 kmh 30.20 in1022.7 mb 0.00 in0.0 mm 0.00 in0.0 mm 0.00 in0.0 mm
02:20 AM 41.2°F5.1°C 37.6°F3.1°C 87% 12.0 mph SW19.3 kmh SW 16.0 mph25.7 kmh 30.20 in1022.7 mb 0.00 in0.0 mm 0.00 in0.0 mm 0.00 in0.0 mm
02:21 AM 41.3°F5.2°C 37.7°F3.2°C 87% 11.0 mph SSW17.7 kmh SSW 16.0 mph25.7 kmh 30.20 in1022.7 mb 0.00 in0.0 mm 0.00 in0.0 mm 0.00 in0.0 mm
02:22 AM 41.3°F5.2°C 37.7°F3.2°C 87% 9.0 mph SSW14.5 kmh SSW 13.0 mph20.9 kmh 30.20 in1022.7 mb 0.00 in0.0 mm 0.00 in0.0 mm 0.00 in0.0 mm
02:23 AM 41.3°F5.2°C 37.7°F3.2°C 87% 9.0 mph SSW14.5 kmh SSW 12.0 mph19.3 kmh 30.20 in1022.7 mb 0.00 in0.0 mm 0.00 in0.0 mm 0.00 in0.0 mm
02:24 AM 41.4°F5.2°C 37.8°F3.2°C 87% 12.0 mph SW19.3 kmh SW 17.0 mph27.4 kmh 30.20 in1022.7 mb 0.00 in0.0 mm 0.00 in0.0 mm 0.00 in0.0 mm
02:25 AM 41.4°F5.2°C 37.8°F3.2°C 87% 11.0 mph SSW17.7 kmh SSW 16.0 mph25.7 kmh 30.20 in1022.7 mb 0.00 in0.0 mm 0.00 in0.0 mm 0.00 in0.0 mm
02:26 AM 41.5°F5.3°C 37.9°F3.3°C 87% 11.0 mph SSW17.7 kmh SSW 16.0 mph25.7 kmh 30.20 in1022.7 mb 0.00 in0.0 mm 0.00 in0.0 mm 0.00 in0.0 mm
02:27 AM 41.5°F5.3°C 37.9°F3.3°C 87% 8.0 mph SW12.9 kmh SW 11.0 mph17.7 kmh 30.20 in1022.7 mb 0.00 in0.0 mm 0.00 in0.0 mm 0.00 in0.0 mm
02:28 AM 41.5°F5.3°C 37.9°F3.3°C 87% 12.0 mph SW19.3 kmh SW 17.0 mph27.4 kmh 30.20 in1022.7 mb 0.00 in0.0 mm 0.00 in0.0 mm 0.00 in0.0 mm
02:29 AM 41.5°F5.3°C 37.9°F3.3°C 87% 11.0 mph SW17.7 kmh SW 14.0 mph22.5 kmh 30.20 in1022.7 mb 0.00 in0.0 mm 0.00 in0.0 mm 0.00 in0.0 mm
02:30 AM 41.6°F5.3°C 38.0°F3.3°C 87% 14.0 mph SSW22.5 kmh SSW 17.0 mph27.4 kmh 30.20 in1022.7 mb 0.00 in0.0 mm 0.00 in0.0 mm 0.00 in0.0 mm
02:31 AM 41.6°F5.3°C 38.0°F3.3°C 87% 11.0 mph SW17.7 kmh SW 17.0 mph27.4 kmh 30.20 in1022.7 mb 0.00 in0.0 mm 0.00 in0.0 mm 0.00 in0.0 mm
02:32 AM 41.7°F5.4°C 38.1°F3.4°C 87% 12.0 mph SSW19.3 kmh SSW 18.0 mph29.0 kmh 30.20 in1022.7 mb 0.00 in0.0 mm 0.00 in0.0 mm 0.00 in0.0 mm
02:33 AM 41.7°F5.4°C 38.1°F3.4°C 87% 9.0 mph SW14.5 kmh SW 19.0 mph30.6 kmh 30.20 in1022.7 mb 0.00 in0.0 mm 0.00 in0.0 mm 0.00 in0.0 mm
02:34 AM 41.7°F5.4°C 38.1°F3.4°C 87% 12.0 mph SW19.3 kmh SW 16.0 mph25.7 kmh 30.20 in1022.7 mb 0.00 in0.0 mm 0.00 in0.0 mm 0.00 in0.0 mm
02:35 AM 41.7°F5.4°C 38.1°F3.4°C 87% 14.0 mph SW22.5 kmh SW 18.0 mph29.0 kmh 30.20 in1022.7 mb 0.00 in0.0 mm 0.00 in0.0 mm 0.00 in0.0 mm
02:36 AM 41.7°F5.4°C 38.1°F3.4°C 87% 10.0 mph SSW16.1 kmh SSW 12.0 mph19.3 kmh 30.20 in1022.7 mb 0.00 in0.0 mm 0.00 in0.0 mm 0.00 in0.0 mm
02:37 AM 41.8°F5.4°C 38.2°F3.4°C 87% 11.0 mph SW17.7 kmh SW 14.0 mph22.5 kmh 30.20 in1022.7 mb 0.00 in0.0 mm 0.00 in0.0 mm 0.00 in0.0 mm
02:38 AM 41.8°F5.4°C 38.2°F3.4°C 87% 10.0 mph SSW16.1 kmh SSW 14.0 mph22.5 kmh 30.20 in1022.7 mb 0.00 in0.0 mm 0.00 in0.0 mm 0.00 in0.0 mm
02:39 AM 41.8°F5.4°C 38.2°F3.4°C 87% 10.0 mph SSW16.1 kmh SSW 13.0 mph20.9 kmh 30.20 in1022.7 mb 0.00 in0.0 mm 0.00 in0.0 mm 0.00 in0.0 mm
02:40 AM 41.8°F5.4°C 38.2°F3.4°C 87% 9.0 mph SW14.5 kmh SW 13.0 mph20.9 kmh 30.20 in1022.7 mb 0.00 in0.0 mm 0.00 in0.0 mm 0.00 in0.0 mm
02:41 AM 41.8°F5.4°C 38.2°F3.4°C 87% 11.0 mph SW17.7 kmh SW 14.0 mph22.5 kmh 30.20 in1022.7 mb 0.00 in0.0 mm 0.00 in0.0 mm 0.00 in0.0 mm
02:42 AM 41.8°F5.4°C 38.2°F3.4°C 87% 13.0 mph SW20.9 kmh SW 16.0 mph25.7 kmh 30.20 in1022.7 mb 0.00 in0.0 mm 0.00 in0.0 mm 0.00 in0.0 mm
02:43 AM 41.9°F5.5°C 38.3°F3.5°C 87% 12.0 mph SSW19.3 kmh SSW 15.0 mph24.1 kmh 30.20 in1022.7 mb 0.00 in0.0 mm 0.00 in0.0 mm 0.00 in0.0 mm
02:44 AM 41.9°F5.5°C 38.3°F3.5°C 87% 12.0 mph SW19.3 kmh SW 16.0 mph25.7 kmh 30.20 in1022.7 mb 0.00 in0.0 mm 0.00 in0.0 mm 0.00 in0.0 mm
02:45 AM 41.9°F5.5°C 38.3°F3.5°C 87% 15.0 mph SW24.1 kmh SW 20.0 mph32.2 kmh 30.20 in1022.7 mb 0.00 in0.0 mm 0.00 in0.0 mm 0.00 in0.0 mm
02:46 AM 42.0°F5.6°C 38.4°F3.6°C 87% 11.0 mph SW17.7 kmh SW 21.0 mph33.8 kmh 30.19 in1022.4 mb 0.00 in0.0 mm 0.00 in0.0 mm 0.00 in0.0 mm
02:47 AM 42.0°F5.6°C 38.4°F3.6°C 87% 12.0 mph SW19.3 kmh SW 15.0 mph24.1 kmh 30.19 in1022.4 mb 0.00 in0.0 mm 0.00 in0.0 mm 0.00 in0.0 mm
02:48 AM 42.0°F5.6°C 38.4°F3.6°C 87% 11.0 mph SW17.7 kmh SW 15.0 mph24.1 kmh 30.19 in1022.4 mb 0.00 in0.0 mm 0.00 in0.0 mm 0.00 in0.0 mm
02:49 AM 42.0°F5.6°C 38.4°F3.6°C 87% 12.0 mph SSW19.3 kmh SSW 14.0 mph22.5 kmh 30.19 in1022.4 mb 0.00 in0.0 mm 0.00 in0.0 mm 0.00 in0.0 mm
02:50 AM 42.0°F5.6°C 38.4°F3.6°C 87% 13.0 mph SW20.9 kmh SW 19.0 mph30.6 kmh 30.19 in1022.4 mb 0.00 in0.0 mm 0.00 in0.0 mm 0.00 in0.0 mm
02:51 AM 42.0°F5.6°C 38.4°F3.6°C 87% 10.0 mph SW16.1 kmh SW 14.0 mph22.5 kmh 30.19 in1022.4 mb 0.00 in0.0 mm 0.00 in0.0 mm 0.00 in0.0 mm
02:52 AM 42.0°F5.6°C 38.4°F3.6°C 87% 11.0 mph SSW17.7 kmh SSW 14.0 mph22.5 kmh 30.19 in1022.4 mb 0.00 in0.0 mm 0.00 in0.0 mm 0.00 in0.0 mm
02:53 AM 42.0°F5.6°C 38.4°F3.6°C 87% 11.0 mph SSW17.7 kmh SSW 13.0 mph20.9 kmh 30.20 in1022.7 mb 0.00 in0.0 mm 0.00 in0.0 mm 0.00 in0.0 mm
02:54 AM 42.0°F5.6°C 38.4°F3.6°C 87% 12.0 mph SW19.3 kmh SW 15.0 mph24.1 kmh 30.19 in1022.4 mb 0.00 in0.0 mm 0.00 in0.0 mm 0.00 in0.0 mm
02:55 AM 42.1°F5.6°C 38.5°F3.6°C 87% 9.0 mph SSW14.5 kmh SSW 12.0 mph19.3 kmh 30.19 in1022.4 mb 0.00 in0.0 mm 0.00 in0.0 mm 0.00 in0.0 mm
02:56 AM 42.1°F5.6°C 38.5°F3.6°C 87% 10.0 mph SSW16.1 kmh SSW 13.0 mph20.9 kmh 30.19 in1022.4 mb 0.00 in0.0 mm 0.00 in0.0 mm 0.00 in0.0 mm
02:57 AM 42.1°F5.6°C 38.5°F3.6°C 87% 11.0 mph SSW17.7 kmh SSW 14.0 mph22.5 kmh 30.19 in1022.4 mb 0.00 in0.0 mm 0.00 in0.0 mm 0.00 in0.0 mm
02:58 AM 42.1°F5.6°C 38.5°F3.6°C 87% 8.0 mph SSW12.9 kmh SSW 11.0 mph17.7 kmh 30.19 in1022.4 mb 0.00 in0.0 mm 0.00 in0.0 mm 0.00 in0.0 mm
02:59 AM 42.2°F5.7°C 38.6°F3.7°C 87% 9.0 mph SW14.5 kmh SW 13.0 mph20.9 kmh 30.19 in1022.4 mb 0.00 in0.0 mm 0.00 in0.0 mm 0.00 in0.0 mm
03:00 AM 42.2°F5.7°C 38.6°F3.7°C 87% 12.0 mph SSW19.3 kmh SSW 14.0 mph22.5 kmh 30.19 in1022.4 mb 0.00 in0.0 mm 0.00 in0.0 mm 0.00 in0.0 mm
03:01 AM 42.2°F5.7°C 38.6°F3.7°C 87% 11.0 mph SSW17.7 kmh SSW 14.0 mph22.5 kmh 30.19 in1022.4 mb 0.00 in0.0 mm 0.00 in0.0 mm 0.00 in0.0 mm
03:02 AM 42.2°F5.7°C 38.6°F3.7°C 87% 10.0 mph SSW16.1 kmh SSW 13.0 mph20.9 kmh 30.19 in1022.4 mb 0.00 in0.0 mm 0.00 in0.0 mm 0.00 in0.0 mm
03:03 AM 42.2°F5.7°C 38.6°F3.7°C 87% 9.0 mph SSW14.5 kmh SSW 11.0 mph17.7 kmh 30.19 in1022.4 mb 0.00 in0.0 mm 0.00 in0.0 mm 0.00 in0.0 mm
03:04 AM 42.2°F5.7°C 38.6°F3.7°C 87% 8.0 mph SW12.9 kmh SW 10.0 mph16.1 kmh 30.19 in1022.4 mb 0.00 in0.0 mm 0.00 in0.0 mm 0.00 in0.0 mm
03:05 AM 42.2°F5.7°C 38.6°F3.7°C 87% 10.0 mph SW16.1 kmh SW 13.0 mph20.9 kmh 30.19 in1022.4 mb 0.00 in0.0 mm 0.00 in0.0 mm 0.00 in0.0 mm
03:06 AM 42.2°F5.7°C 38.6°F3.7°C 87% 11.0 mph SSW17.7 kmh SSW 14.0 mph22.5 kmh 30.19 in1022.4 mb 0.00 in0.0 mm 0.00 in0.0 mm 0.00 in0.0 mm
03:07 AM 42.2°F5.7°C 38.9°F3.8°C 88% 10.0 mph SSW16.1 kmh SSW 12.0 mph19.3 kmh 30.19 in1022.4 mb 0.00 in0.0 mm 0.00 in0.0 mm 0.00 in0.0 mm
03:08 AM 42.3°F5.7°C 39.0°F3.9°C 88% 10.0 mph SSW16.1 kmh SSW 14.0 mph22.5 kmh 30.19 in1022.4 mb 0.00 in0.0 mm 0.00 in0.0 mm 0.00 in0.0 mm
03:09 AM 42.3°F5.7°C 39.0°F3.9°C 88% 11.0 mph SSW17.7 kmh SSW 14.0 mph22.5 kmh 30.19 in1022.4 mb 0.00 in0.0 mm 0.00 in0.0 mm 0.00 in0.0 mm
03:10 AM 42.2°F5.7°C 38.9°F3.8°C 88% 11.0 mph SSW17.7 kmh SSW 15.0 mph24.1 kmh 30.19 in1022.4 mb 0.00 in0.0 mm 0.00 in0.0 mm 0.00 in0.0 mm
03:11 AM 42.4°F5.8°C 39.1°F3.9°C 88% 10.0 mph SSW16.1 kmh SSW 13.0 mph20.9 kmh 30.19 in1022.4 mb 0.00 in0.0 mm 0.00 in0.0 mm 0.00 in0.0 mm
03:12 AM 42.3°F5.7°C 39.0°F3.9°C 88% 11.0 mph SSW17.7 kmh SSW 16.0 mph25.7 kmh 30.18 in1022.0 mb 0.00 in0.0 mm 0.00 in0.0 mm 0.00 in0.0 mm
03:13 AM 42.4°F5.8°C 39.1°F3.9°C 88% 9.0 mph SSW14.5 kmh SSW 13.0 mph20.9 kmh 30.18 in1022.0 mb 0.00 in0.0 mm 0.00 in0.0 mm 0.00 in0.0 mm
03:14 AM 42.3°F5.7°C 39.0°F3.9°C 88% 11.0 mph SSW17.7 kmh SSW 16.0 mph25.7 kmh 30.19 in1022.4 mb 0.00 in0.0 mm 0.00 in0.0 mm 0.00 in0.0 mm
03:15 AM 42.4°F5.8°C 39.1°F3.9°C 88% 11.0 mph SW17.7 kmh SW 14.0 mph22.5 kmh 30.19 in1022.4 mb 0.00 in0.0 mm 0.00 in0.0 mm 0.00 in0.0 mm
03:16 AM 42.4°F5.8°C 39.1°F3.9°C 88% 13.0 mph SW20.9 kmh SW 18.0 mph29.0 kmh 30.19 in1022.4 mb 0.00 in0.0 mm 0.00 in0.0 mm 0.00 in0.0 mm
03:17 AM 42.4°F5.8°C 39.1°F3.9°C 88% 9.0 mph SSW14.5 kmh SSW 11.0 mph17.7 kmh 30.18 in1022.0 mb 0.00 in0.0 mm 0.00 in0.0 mm 0.00 in0.0 mm
03:18 AM 42.4°F5.8°C 39.1°F3.9°C 88% 10.0 mph SW16.1 kmh SW 14.0 mph22.5 kmh 30.18 in1022.0 mb 0.00 in0.0 mm 0.00 in0.0 mm 0.00 in0.0 mm
03:19 AM 42.5°F5.8°C 39.2°F4.0°C 88% 10.0 mph SSW16.1 kmh SSW 13.0 mph20.9 kmh 30.18 in1022.0 mb 0.00 in0.0 mm 0.00 in0.0 mm 0.00 in0.0 mm
03:20 AM 42.4°F5.8°C 39.1°F3.9°C 88% 9.0 mph SSW14.5 kmh SSW 11.0 mph17.7 kmh 30.18 in1022.0 mb 0.00 in0.0 mm 0.00 in0.0 mm 0.00 in0.0 mm
03:21 AM 42.4°F5.8°C 39.1°F3.9°C 88% 11.0 mph SSW17.7 kmh SSW 17.0 mph27.4 kmh 30.18 in1022.0 mb 0.00 in0.0 mm 0.00 in0.0 mm 0.00 in0.0 mm
03:22 AM 42.5°F5.8°C 39.2°F4.0°C 88% 12.0 mph SW19.3 kmh SW 16.0 mph25.7 kmh 30.18 in1022.0 mb 0.00 in0.0 mm 0.00 in0.0 mm 0.00 in0.0 mm
03:23 AM 42.5°F5.8°C 39.2°F4.0°C 88% 12.0 mph SW19.3 kmh SW 15.0 mph24.1 kmh 30.18 in1022.0 mb 0.00 in0.0 mm 0.00 in0.0 mm 0.00 in0.0 mm
03:24 AM 42.6°F5.9°C 39.3°F4.1°C 88% 13.0 mph SW20.9 kmh SW 15.0 mph24.1 kmh 30.18 in1022.0 mb 0.00 in0.0 mm 0.00 in0.0 mm 0.00 in0.0 mm
03:25 AM 42.5°F5.8°C 39.2°F4.0°C 88% 11.0 mph SSW17.7 kmh SSW 15.0 mph24.1 kmh 30.18 in1022.0 mb 0.00 in0.0 mm 0.00 in0.0 mm 0.00 in0.0 mm
03:26 AM 42.5°F5.8°C 39.2°F4.0°C 88% 10.0 mph SW16.1 kmh SW 15.0 mph24.1 kmh 30.18 in1022.0 mb 0.00 in0.0 mm 0.00 in0.0 mm 0.00 in0.0 mm
03:27 AM 42.6°F5.9°C 39.3°F4.1°C 88% 10.0 mph SW16.1 kmh SW 14.0 mph22.5 kmh 30.18 in1022.0 mb 0.00 in0.0 mm 0.00 in0.0 mm 0.00 in0.0 mm
03:28 AM 42.6°F5.9°C 39.3°F4.1°C 88% 10.0 mph SSW16.1 kmh SSW 15.0 mph24.1 kmh 30.18 in1022.0 mb 0.00 in0.0 mm 0.00 in0.0 mm 0.00 in0.0 mm
03:29 AM 42.6°F5.9°C 39.3°F4.1°C 88% 11.0 mph SW17.7 kmh SW 15.0 mph24.1 kmh 30.18 in1022.0 mb 0.00 in0.0 mm 0.00 in0.0 mm 0.00 in0.0 mm
03:30 AM 42.6°F5.9°C 39.3°F4.1°C 88% 10.0 mph SSW16.1 kmh SSW 12.0 mph19.3 kmh 30.18 in1022.0 mb 0.00 in0.0 mm 0.00 in0.0 mm 0.00 in0.0 mm
03:31 AM 42.6°F5.9°C 39.3°F4.1°C 88% 11.0 mph SW17.7 kmh SW 15.0 mph24.1 kmh 30.18 in1022.0 mb 0.00 in0.0 mm 0.00 in0.0 mm 0.00 in0.0 mm
03:32 AM 42.6°F5.9°C 39.3°F4.1°C 88% 12.0 mph SW19.3 kmh SW 17.0 mph27.4 kmh 30.18 in1022.0 mb 0.00 in0.0 mm 0.00 in0.0 mm 0.00 in0.0 mm
03:33 AM 42.6°F5.9°C 39.3°F4.1°C 88% 11.0 mph SSW17.7 kmh SSW 14.0 mph22.5 kmh 30.18 in1022.0 mb 0.00 in0.0 mm 0.00 in0.0 mm 0.00 in0.0 mm
03:34 AM 42.6°F5.9°C 39.3°F4.1°C 88% 9.0 mph SW14.5 kmh SW 12.0 mph19.3 kmh 30.18 in1022.0 mb 0.00 in0.0 mm 0.00 in0.0 mm 0.00 in0.0 mm
03:35 AM 42.7°F5.9°C 39.4°F4.1°C 88% 11.0 mph SW17.7 kmh SW 16.0 mph25.7 kmh 30.18 in1022.0 mb 0.00 in0.0 mm 0.00 in0.0 mm 0.00 in0.0 mm
03:36 AM 42.7°F5.9°C 39.4°F4.1°C 88% 10.0 mph SW16.1 kmh SW 13.0 mph20.9 kmh 30.18 in1022.0 mb 0.00 in0.0 mm 0.00 in0.0 mm 0.00 in0.0 mm
03:37 AM 42.7°F5.9°C 39.4°F4.1°C 88% 8.0 mph SW12.9 kmh SW 12.0 mph19.3 kmh 30.18 in1022.0 mb 0.00 in0.0 mm 0.00 in0.0 mm 0.00 in0.0 mm
03:38 AM 42.7°F5.9°C 39.4°F4.1°C 88% 12.0 mph SW19.3 kmh SW 15.0 mph24.1 kmh 30.18 in1022.0 mb 0.00 in0.0 mm 0.00 in0.0 mm 0.00 in0.0 mm
03:39 AM 42.6°F5.9°C 39.3°F4.1°C 88% 9.0 mph SSW14.5 kmh SSW 12.0 mph19.3 kmh 30.18 in1022.0 mb 0.00 in0.0 mm 0.00 in0.0 mm 0.00 in0.0 mm
03:40 AM 42.7°F5.9°C 39.4°F4.1°C 88% 11.0 mph SSW17.7 kmh SSW 14.0 mph22.5 kmh 30.18 in1022.0 mb 0.00 in0.0 mm 0.00 in0.0 mm 0.00 in0.0 mm
03:41 AM 42.7°F5.9°C 39.7°F4.3°C 89% 10.0 mph SSW16.1 kmh SSW 15.0 mph24.1 kmh 30.18 in1022.0 mb 0.00 in0.0 mm 0.00 in0.0 mm 0.00 in0.0 mm
03:42 AM 42.7°F5.9°C 39.7°F4.3°C 89% 11.0 mph SW17.7 kmh SW 15.0 mph24.1 kmh 30.18 in1022.0 mb 0.00 in0.0 mm 0.00 in0.0 mm 0.00 in0.0 mm
03:43 AM 42.7°F5.9°C 39.7°F4.3°C 89% 12.0 mph SSW19.3 kmh SSW 15.0 mph24.1 kmh 30.18 in1022.0 mb 0.00 in0.0 mm 0.00 in0.0 mm 0.00 in0.0 mm
03:44 AM 42.7°F5.9°C 39.7°F4.3°C 89% 10.0 mph SW16.1 kmh SW 13.0 mph20.9 kmh 30.18 in1022.0 mb 0.00 in0.0 mm 0.00 in0.0 mm 0.00 in0.0 mm
03:45 AM 42.7°F5.9°C 39.7°F4.3°C 89% 9.0 mph SSW14.5 kmh SSW 11.0 mph17.7 kmh 30.17 in1021.7 mb 0.00 in0.0 mm 0.00 in0.0 mm 0.00 in0.0 mm
03:46 AM 42.7°F5.9°C 39.7°F4.3°C 89% 11.0 mph SW17.7 kmh SW 15.0 mph24.1 kmh 30.17 in1021.7 mb 0.00 in0.0 mm 0.00 in0.0 mm 0.00 in0.0 mm
03:47 AM 42.7°F5.9°C 39.7°F4.3°C 89% 10.0 mph SSW16.1 kmh SSW 13.0 mph20.9 kmh 30.17 in1021.7 mb 0.00 in0.0 mm 0.00 in0.0 mm 0.00 in0.0 mm
03:48 AM 42.6°F5.9°C 39.6°F4.2°C 89% 9.0 mph SW14.5 kmh SW 14.0 mph22.5 kmh 30.17 in1021.7 mb 0.00 in0.0 mm 0.00 in0.0 mm 0.00 in0.0 mm
03:49 AM 42.6°F5.9°C 39.6°F4.2°C 89% 10.0 mph SW16.1 kmh SW 12.0 mph19.3 kmh 30.17 in1021.7 mb 0.00 in0.0 mm 0.00 in0.0 mm 0.00 in0.0 mm
03:50 AM 42.7°F5.9°C 39.7°F4.3°C 89% 10.0 mph SSW16.1 kmh SSW 11.0 mph17.7 kmh 30.17 in1021.7 mb 0.00 in0.0 mm 0.00 in0.0 mm 0.00 in0.0 mm
03:51 AM 42.6°F5.9°C 39.6°F4.2°C 89% 8.0 mph SW12.9 kmh SW 10.0 mph16.1 kmh 30.17 in1021.7 mb 0.00 in0.0 mm 0.00 in0.0 mm 0.00 in0.0 mm
03:52 AM 42.7°F5.9°C 39.7°F4.3°C 89% 9.0 mph SSW14.5 kmh SSW 16.0 mph25.7 kmh 30.17 in1021.7 mb 0.00 in0.0 mm 0.00 in0.0 mm 0.00 in0.0 mm
03:53 AM 42.6°F5.9°C 39.6°F4.2°C 89% 12.0 mph SSW19.3 kmh SSW 17.0 mph27.4 kmh 30.17 in1021.7 mb 0.00 in0.0 mm 0.00 in0.0 mm 0.00 in0.0 mm
03:54 AM 42.7°F5.9°C 39.7°F4.3°C 89% 11.0 mph SW17.7 kmh SW 15.0 mph24.1 kmh 30.17 in1021.7 mb 0.00 in0.0 mm 0.00 in0.0 mm 0.00 in0.0 mm
03:55 AM 42.7°F5.9°C 39.7°F4.3°C 89% 10.0 mph SW16.1 kmh SW 14.0 mph22.5 kmh 30.17 in1021.7 mb 0.00 in0.0 mm 0.00 in0.0 mm 0.00 in0.0 mm
03:56 AM 42.7°F5.9°C 39.7°F4.3°C 89% 10.0 mph SSW16.1 kmh SSW 14.0 mph22.5 kmh 30.17 in1021.7 mb 0.00 in0.0 mm 0.00 in0.0 mm 0.00 in0.0 mm
03:57 AM 42.7°F5.9°C 39.7°F4.3°C 89% 14.0 mph SSW22.5 kmh SSW 19.0 mph30.6 kmh 30.17 in1021.7 mb 0.00 in0.0 mm 0.00 in0.0 mm 0.00 in0.0 mm
03:58 AM 42.7°F5.9°C 40.0°F4.4°C 90% 10.0 mph SW16.1 kmh SW 15.0 mph24.1 kmh 30.17 in1021.7 mb 0.00 in0.0 mm 0.00 in0.0 mm 0.00 in0.0 mm
03:59 AM 42.7°F5.9°C 40.0°F4.4°C 90% 10.0 mph SW16.1 kmh SW 15.0 mph24.1 kmh 30.17 in1021.7 mb 0.00 in0.0 mm 0.00 in0.0 mm 0.00 in0.0 mm
04:00 AM 42.7°F5.9°C 40.0°F4.4°C 90% 11.0 mph SSW17.7 kmh SSW 13.0 mph20.9 kmh 30.17 in1021.7 mb 0.00 in0.0 mm 0.00 in0.0 mm 0.00 in0.0 mm
04:01 AM 42.7°F5.9°C 40.0°F4.4°C 90% 10.0 mph SSW16.1 kmh SSW 14.0 mph22.5 kmh 30.17 in1021.7 mb 0.00 in0.0 mm 0.00 in0.0 mm 0.00 in0.0 mm
04:02 AM 42.7°F5.9°C 40.0°F4.4°C 90% 12.0 mph SW19.3 kmh SW 15.0 mph24.1 kmh 30.16 in1021.3 mb 0.00 in0.0 mm 0.00 in0.0 mm 0.00 in0.0 mm
04:03 AM 42.7°F5.9°C 40.0°F4.4°C 90% 12.0 mph SSW19.3 kmh SSW 15.0 mph24.1 kmh 30.16 in1021.3 mb 0.00 in0.0 mm 0.00 in0.0 mm 0.00 in0.0 mm
04:04 AM 42.7°F5.9°C 40.0°F4.4°C 90% 11.0 mph SSW17.7 kmh SSW 13.0 mph20.9 kmh 30.16 in1021.3 mb 0.00 in0.0 mm 0.00 in0.0 mm 0.00 in0.0 mm
04:05 AM 42.6°F5.9°C 39.9°F4.4°C 90% 11.0 mph SSW17.7 kmh SSW 14.0 mph22.5 kmh 30.16 in1021.3 mb 0.00 in0.0 mm 0.00 in0.0 mm 0.00 in0.0 mm
04:06 AM 42.7°F5.9°C 40.0°F4.4°C 90% 14.0 mph SW22.5 kmh SW 19.0 mph30.6 kmh 30.16 in1021.3 mb 0.00 in0.0 mm 0.00 in0.0 mm 0.00 in0.0 mm
04:07 AM 42.7°F5.9°C 40.0°F4.4°C 90% 11.0 mph SSW17.7 kmh SSW 14.0 mph22.5 kmh 30.16 in1021.3 mb 0.00 in0.0 mm 0.00 in0.0 mm 0.00 in0.0 mm
04:08 AM 42.7°F5.9°C 40.0°F4.4°C 90% 11.0 mph SW17.7 kmh SW 14.0 mph22.5 kmh 30.16 in1021.3 mb 0.00 in0.0 mm 0.00 in0.0 mm 0.00 in0.0 mm
04:09 AM 42.7°F5.9°C 40.0°F4.4°C 90% 11.0 mph SW17.7 kmh SW 14.0 mph22.5 kmh 30.16 in1021.3 mb 0.00 in0.0 mm 0.00 in0.0 mm 0.00 in0.0 mm
04:10 AM 42.7°F5.9°C 40.0°F4.4°C 90% 11.0 mph SW17.7 kmh SW 13.0 mph20.9 kmh 30.16 in1021.3 mb 0.00 in0.0 mm 0.00 in0.0 mm 0.00 in0.0 mm
04:11 AM 42.8°F6.0°C 40.1°F4.5°C 90% 10.0 mph SW16.1 kmh SW 14.0 mph22.5 kmh 30.16 in1021.3 mb 0.00 in0.0 mm 0.00 in0.0 mm 0.00 in0.0 mm
04:12 AM 42.7°F5.9°C 40.0°F4.4°C 90% 13.0 mph SW20.9 kmh SW 17.0 mph27.4 kmh 30.16 in1021.3 mb 0.00 in0.0 mm 0.00 in0.0 mm 0.00 in0.0 mm
04:13 AM 42.7°F5.9°C 40.0°F4.4°C 90% 11.0 mph SW17.7 kmh SW 14.0 mph22.5 kmh 30.16 in1021.3 mb 0.00 in0.0 mm 0.00 in0.0 mm 0.00 in0.0 mm
04:14 AM 42.7°F5.9°C 40.0°F4.4°C 90% 9.0 mph SSW14.5 kmh SSW 10.0 mph16.1 kmh 30.16 in1021.3 mb 0.00 in0.0 mm 0.00 in0.0 mm 0.00 in0.0 mm
04:15 AM 42.7°F5.9°C 40.0°F4.4°C 90% 9.0 mph SW14.5 kmh SW 11.0 mph17.7 kmh 30.16 in1021.3 mb 0.00 in0.0 mm 0.00 in0.0 mm 0.00 in0.0 mm
04:16 AM 42.7°F5.9°C 40.0°F4.4°C 90% 12.0 mph SW19.3 kmh SW 18.0 mph29.0 kmh 30.16 in1021.3 mb 0.00 in0.0 mm 0.00 in0.0 mm 0.00 in0.0 mm
04:17 AM 42.7°F5.9°C 40.0°F4.4°C 90% 11.0 mph SW17.7 kmh SW 15.0 mph24.1 kmh 30.16 in1021.3 mb 0.00 in0.0 mm 0.00 in0.0 mm 0.00 in0.0 mm
04:18 AM 42.7°F5.9°C 40.0°F4.4°C 90% 12.0 mph SW19.3 kmh SW 15.0 mph24.1 kmh 30.16 in1021.3 mb 0.00 in0.0 mm 0.00 in0.0 mm 0.00 in0.0 mm
04:19 AM 42.7°F5.9°C 40.0°F4.4°C 90% 11.0 mph SW17.7 kmh SW 16.0 mph25.7 kmh 30.16 in1021.3 mb 0.00 in0.0 mm 0.00 in0.0 mm 0.00 in0.0 mm
04:20 AM 42.8°F6.0°C 40.4°F4.7°C 91% 11.0 mph SW17.7 kmh SW 17.0 mph27.4 kmh 30.16 in1021.3 mb 0.00 in0.0 mm 0.00 in0.0 mm 0.00 in0.0 mm
04:21 AM 42.7°F5.9°C 40.3°F4.6°C 91% 15.0 mph SW24.1 kmh SW 18.0 mph29.0 kmh 30.16 in1021.3 mb 0.00 in0.0 mm 0.00 in0.0 mm 0.00 in0.0 mm
04:22 AM 42.8°F6.0°C 40.4°F4.7°C 91% 12.0 mph SW19.3 kmh SW 15.0 mph24.1 kmh 30.16 in1021.3 mb 0.00 in0.0 mm 0.00 in0.0 mm 0.00 in0.0 mm
04:23 AM 42.8°F6.0°C 40.4°F4.7°C 91% 15.0 mph SW24.1 kmh SW 19.0 mph30.6 kmh 30.16 in1021.3 mb 0.00 in0.0 mm 0.00 in0.0 mm 0.00 in0.0 mm
04:24 AM 42.7°F5.9°C 40.3°F4.6°C 91% 13.0 mph SW20.9 kmh SW 17.0 mph27.4 kmh 30.16 in1021.3 mb 0.00 in0.0 mm 0.00 in0.0 mm 0.00 in0.0 mm
04:25 AM 42.8°F6.0°C 40.4°F4.7°C 91% 11.0 mph SSW17.7 kmh SSW 15.0 mph24.1 kmh 30.16 in1021.3 mb 0.00 in0.0 mm 0.00 in0.0 mm 0.00 in0.0 mm
04:26 AM 42.7°F5.9°C 40.3°F4.6°C 91% 12.0 mph SW19.3 kmh SW 17.0 mph27.4 kmh 30.16 in1021.3 mb 0.00 in0.0 mm 0.00 in0.0 mm 0.00 in0.0 mm
04:27 AM 42.8°F6.0°C 40.4°F4.7°C 91% 13.0 mph SW20.9 kmh SW 18.0 mph29.0 kmh 30.16 in1021.3 mb 0.00 in0.0 mm 0.00 in0.0 mm 0.00 in0.0 mm
04:28 AM 42.8°F6.0°C 40.4°F4.7°C 91% 16.0 mph SW25.7 kmh SW 20.0 mph32.2 kmh 30.16 in1021.3 mb 0.00 in0.0 mm 0.00 in0.0 mm 0.00 in0.0 mm
04:29 AM 42.8°F6.0°C 40.4°F4.7°C 91% 14.0 mph SW22.5 kmh SW 18.0 mph29.0 kmh 30.16 in1021.3 mb 0.00 in0.0 mm 0.00 in0.0 mm 0.00 in0.0 mm
04:30 AM 42.8°F6.0°C 40.4°F4.7°C 91% 11.0 mph SSW17.7 kmh SSW 15.0 mph24.1 kmh 30.16 in1021.3 mb 0.00 in0.0 mm 0.00 in0.0 mm 0.00 in0.0 mm
04:31 AM 42.8°F6.0°C 40.4°F4.7°C 91% 9.0 mph SW14.5 kmh SW 12.0 mph19.3 kmh 30.16 in1021.3 mb 0.00 in0.0 mm 0.00 in0.0 mm 0.00 in0.0 mm
04:32 AM 42.8°F6.0°C 40.4°F4.7°C 91% 12.0 mph SW19.3 kmh SW 16.0 mph25.7 kmh 30.16 in1021.3 mb 0.00 in0.0 mm 0.00 in0.0 mm 0.00 in0.0 mm
04:33 AM 42.8°F6.0°C 40.4°F4.7°C 91% 11.0 mph SW17.7 kmh SW 14.0 mph22.5 kmh 30.16 in1021.3 mb 0.00 in0.0 mm 0.00 in0.0 mm 0.00 in0.0 mm
04:34 AM 42.8°F6.0°C 40.4°F4.7°C 91% 12.0 mph SW19.3 kmh SW 16.0 mph25.7 kmh 30.16 in1021.3 mb 0.00 in0.0 mm 0.00 in0.0 mm 0.00 in0.0 mm
04:35 AM 42.8°F6.0°C 40.4°F4.7°C 91% 15.0 mph SW24.1 kmh SW 20.0 mph32.2 kmh 30.16 in1021.3 mb 0.00 in0.0 mm 0.00 in0.0 mm 0.00 in0.0 mm
04:36 AM 42.8°F6.0°C 40.4°F4.7°C 91% 16.0 mph SW25.7 kmh SW 20.0 mph32.2 kmh 30.16 in1021.3 mb 0.00 in0.0 mm 0.00 in0.0 mm 0.00 in0.0 mm
04:37 AM 42.8°F6.0°C 40.4°F4.7°C 91% 16.0 mph SW25.7 kmh SW 20.0 mph32.2 kmh 30.16 in1021.3 mb 0.00 in0.0 mm 0.00 in0.0 mm 0.00 in0.0 mm
04:38 AM 42.8°F6.0°C 40.4°F4.7°C 91% 14.0 mph SW22.5 kmh SW 20.0 mph32.2 kmh 30.16 in1021.3 mb 0.00 in0.0 mm 0.00 in0.0 mm 0.00 in0.0 mm
04:39 AM 42.9°F6.1°C 40.5°F4.7°C 91% 15.0 mph SW24.1 kmh SW 19.0 mph30.6 kmh 30.16 in1021.3 mb 0.00 in0.0 mm 0.00 in0.0 mm 0.00 in0.0 mm
04:40 AM 42.8°F6.0°C 40.4°F4.7°C 91% 13.0 mph SW20.9 kmh SW 17.0 mph27.4 kmh 30.16 in1021.3 mb 0.00 in0.0 mm 0.00 in0.0 mm 0.00 in0.0 mm
04:41 AM 42.8°F6.0°C 40.4°F4.7°C 91% 13.0 mph SW20.9 kmh SW 16.0 mph25.7 kmh 30.16 in1021.3 mb 0.00 in0.0 mm 0.00 in0.0 mm 0.00 in0.0 mm
04:42 AM 42.9°F6.1°C 40.5°F4.7°C 91% 14.0 mph SW22.5 kmh SW 17.0 mph27.4 kmh 30.16 in1021.3 mb 0.00 in0.0 mm 0.00 in0.0 mm 0.00 in0.0 mm
04:43 AM 42.9°F6.1°C 40.5°F4.7°C 91% 13.0 mph SW20.9 kmh SW 18.0 mph29.0 kmh 30.16 in1021.3 mb 0.00 in0.0 mm 0.00 in0.0 mm 0.00 in0.0 mm
04:44 AM 42.9°F6.1°C 40.5°F4.7°C 91% 12.0 mph SW19.3 kmh SW 18.0 mph29.0 kmh 30.16 in1021.3 mb 0.00 in0.0 mm 0.00 in0.0 mm 0.00 in0.0 mm
04:45 AM 42.9°F6.1°C 40.5°F4.7°C 91% 16.0 mph SW25.7 kmh SW 20.0 mph32.2 kmh 30.16 in1021.3 mb 0.00 in0.0 mm 0.00 in0.0 mm 0.00 in0.0 mm
04:46 AM 42.9°F6.1°C 40.5°F4.7°C 91% 13.0 mph SW20.9 kmh SW 15.0 mph24.1 kmh 30.16 in1021.3 mb 0.00 in0.0 mm 0.00 in0.0 mm 0.00 in0.0 mm
04:47 AM 42.9°F6.1°C 40.5°F4.7°C 91% 15.0 mph SW24.1 kmh SW 19.0 mph30.6 kmh 30.16 in1021.3 mb 0.00 in0.0 mm 0.00 in0.0 mm 0.00 in0.0 mm
04:48 AM 42.9°F6.1°C 40.5°F4.7°C 91% 10.0 mph SSW16.1 kmh SSW 13.0 mph20.9 kmh 30.16 in1021.3 mb 0.00 in0.0 mm 0.00 in0.0 mm 0.00 in0.0 mm
04:49 AM 43.0°F6.1°C 40.6°F4.8°C 91% 13.0 mph SW20.9 kmh SW 18.0 mph29.0 kmh 30.16 in1021.3 mb 0.00 in0.0 mm 0.00 in0.0 mm 0.00 in0.0 mm
04:50 AM 42.9°F6.1°C 40.5°F4.7°C 91% 12.0 mph SW19.3 kmh SW 15.0 mph24.1 kmh 30.16 in1021.3 mb 0.00 in0.0 mm 0.00 in0.0 mm 0.00 in0.0 mm
04:51 AM 43.0°F6.1°C 40.6°F4.8°C 91% 11.0 mph SW17.7 kmh SW 16.0 mph25.7 kmh 30.16 in1021.3 mb 0.00 in0.0 mm 0.00 in0.0 mm 0.00 in0.0 mm
04:52 AM 43.0°F6.1°C 40.6°F4.8°C 91% 12.0 mph SW19.3 kmh SW 15.0 mph24.1 kmh 30.16 in1021.3 mb 0.00 in0.0 mm 0.00 in0.0 mm 0.00 in0.0 mm
04:53 AM 42.9°F6.1°C 40.5°F4.7°C 91% 11.0 mph SW17.7 kmh SW 15.0 mph24.1 kmh 30.16 in1021.3 mb 0.00 in0.0 mm 0.00 in0.0 mm 0.00 in0.0 mm
04:54 AM 43.0°F6.1°C 40.6°F4.8°C 91% 11.0 mph SW17.7 kmh SW 13.0 mph20.9 kmh 30.16 in1021.3 mb 0.00 in0.0 mm 0.00 in0.0 mm 0.00 in0.0 mm
04:55 AM 43.1°F6.2°C 40.7°F4.8°C 91% 15.0 mph SW24.1 kmh SW 19.0 mph30.6 kmh 30.15 in1021.0 mb 0.00 in0.0 mm 0.00 in0.0 mm 0.00 in0.0 mm
04:56 AM 43.0°F6.1°C 40.6°F4.8°C 91% 12.0 mph SW19.3 kmh SW 17.0 mph27.4 kmh 30.15 in1021.0 mb 0.00 in0.0 mm 0.00 in0.0 mm 0.00 in0.0 mm
04:57 AM 43.1°F6.2°C 40.7°F4.8°C 91% 14.0 mph SW22.5 kmh SW 19.0 mph30.6 kmh 30.15 in1021.0 mb 0.00 in0.0 mm 0.00 in0.0 mm 0.00 in0.0 mm
04:58 AM 43.0°F6.1°C 40.8°F4.9°C 92% 15.0 mph SW24.1 kmh SW 20.0 mph32.2 kmh 30.15 in1021.0 mb 0.00 in0.0 mm 0.00 in0.0 mm 0.00 in0.0 mm
04:59 AM 43.1°F6.2°C 40.9°F4.9°C 92% 14.0 mph SW22.5 kmh SW 18.0 mph29.0 kmh 30.15 in1021.0 mb 0.00 in0.0 mm 0.00 in0.0 mm 0.00 in0.0 mm
05:00 AM 43.1°F6.2°C 40.9°F4.9°C 92% 15.0 mph SW24.1 kmh SW 17.0 mph27.4 kmh 30.15 in1021.0 mb 0.00 in0.0 mm 0.00 in0.0 mm 0.00 in0.0 mm
05:01 AM 43.1°F6.2°C 40.9°F4.9°C 92% 13.0 mph SW20.9 kmh SW 15.0 mph24.1 kmh 30.15 in1021.0 mb 0.00 in0.0 mm 0.00 in0.0 mm 0.00 in0.0 mm
05:02 AM 43.1°F6.2°C 40.9°F4.9°C 92% 13.0 mph SW20.9 kmh SW 17.0 mph27.4 kmh 30.15 in1021.0 mb 0.00 in0.0 mm 0.00 in0.0 mm 0.00 in0.0 mm
05:03 AM 43.1°F6.2°C 40.9°F4.9°C 92% 12.0 mph SW19.3 kmh SW 16.0 mph25.7 kmh 30.15 in1021.0 mb 0.00 in0.0 mm 0.00 in0.0 mm 0.00 in0.0 mm
05:04 AM 43.1°F6.2°C 40.9°F4.9°C 92% 12.0 mph SW19.3 kmh SW 16.0 mph25.7 kmh 30.15 in1021.0 mb 0.00 in0.0 mm 0.00 in0.0 mm 0.00 in0.0 mm
05:05 AM 43.1°F6.2°C 40.9°F4.9°C 92% 13.0 mph SW20.9 kmh SW 17.0 mph27.4 kmh 30.15 in1021.0 mb 0.00 in0.0 mm 0.00 in0.0 mm 0.00 in0.0 mm
05:06 AM 43.1°F6.2°C 40.9°F4.9°C 92% 12.0 mph SW19.3 kmh SW 16.0 mph25.7 kmh 30.15 in1021.0 mb 0.00 in0.0 mm 0.00 in0.0 mm 0.00 in0.0 mm
05:07 AM 43.1°F6.2°C 40.9°F4.9°C 92% 14.0 mph SW22.5 kmh SW 20.0 mph32.2 kmh 30.15 in1021.0 mb 0.00 in0.0 mm 0.00 in0.0 mm 0.00 in0.0 mm
05:08 AM 43.1°F6.2°C 40.9°F4.9°C 92% 15.0 mph SW24.1 kmh SW 19.0 mph30.6 kmh 30.15 in1021.0 mb 0.00 in0.0 mm 0.00 in0.0 mm 0.00 in0.0 mm
05:09 AM 43.2°F6.2°C 41.0°F5.0°C 92% 14.0 mph SW22.5 kmh SW 18.0 mph29.0 kmh 30.15 in1021.0 mb 0.00 in0.0 mm 0.00 in0.0 mm 0.00 in0.0 mm
05:10 AM 43.2°F6.2°C 41.0°F5.0°C 92% 12.0 mph SW19.3 kmh SW 17.0 mph27.4 kmh 30.15 in1021.0 mb 0.00 in0.0 mm 0.00 in0.0 mm 0.00 in0.0 mm
05:11 AM 43.2°F6.2°C 41.0°F5.0°C 92% 12.0 mph SW19.3 kmh SW 16.0 mph25.7 kmh 30.15 in1021.0 mb 0.00 in0.0 mm 0.00 in0.0 mm 0.00 in0.0 mm
05:12 AM 43.3°F6.3°C 41.1°F5.1°C 92% 14.0 mph SW22.5 kmh SW 18.0 mph29.0 kmh 30.15 in1021.0 mb 0.00 in0.0 mm 0.00 in0.0 mm 0.00 in0.0 mm
05:13 AM 43.3°F6.3°C 41.1°F5.1°C 92% 14.0 mph SW22.5 kmh SW 19.0 mph30.6 kmh 30.15 in1021.0 mb 0.00 in0.0 mm 0.00 in0.0 mm 0.00 in0.0 mm
05:14 AM 43.2°F6.2°C 41.0°F5.0°C 92% 13.0 mph SW20.9 kmh SW 15.0 mph24.1 kmh 30.15 in1021.0 mb 0.00 in0.0 mm 0.00 in0.0 mm 0.00 in0.0 mm
05:15 AM 43.2°F6.2°C 41.0°F5.0°C 92% 13.0 mph SW20.9 kmh SW 16.0 mph25.7 kmh 30.15 in1021.0 mb 0.00 in0.0 mm 0.00 in0.0 mm 0.00 in0.0 mm
05:16 AM 43.3°F6.3°C 41.1°F5.1°C 92% 11.0 mph SW17.7 kmh SW 15.0 mph24.1 kmh 30.15 in1021.0 mb 0.00 in0.0 mm 0.00 in0.0 mm 0.00 in0.0 mm
05:17 AM 43.2°F6.2°C 41.0°F5.0°C 92% 11.0 mph SW17.7 kmh SW 14.0 mph22.5 kmh 30.15 in1021.0 mb 0.00 in0.0 mm 0.00 in0.0 mm 0.00 in0.0 mm
05:18 AM 43.2°F6.2°C 41.0°F5.0°C 92% 14.0 mph SW22.5 kmh SW 18.0 mph29.0 kmh 30.15 in1021.0 mb 0.00 in0.0 mm 0.00 in0.0 mm 0.00 in0.0 mm
05:19 AM 43.3°F6.3°C 41.1°F5.1°C 92% 12.0 mph SW19.3 kmh SW 15.0 mph24.1 kmh 30.15 in1021.0 mb 0.00 in0.0 mm 0.00 in0.0 mm 0.00 in0.0 mm
05:20 AM 43.3°F6.3°C 41.1°F5.1°C 92% 15.0 mph SW24.1 kmh SW 17.0 mph27.4 kmh 30.15 in1021.0 mb 0.00 in0.0 mm 0.00 in0.0 mm 0.00 in0.0 mm
05:21 AM 43.3°F6.3°C 41.1°F5.1°C 92% 14.0 mph SW22.5 kmh SW 19.0 mph30.6 kmh 30.15 in1021.0 mb 0.00 in0.0 mm 0.00 in0.0 mm 0.00 in0.0 mm
05:22 AM 43.3°F6.3°C 41.1°F5.1°C 92% 13.0 mph SW20.9 kmh SW 16.0 mph25.7 kmh 30.15 in1021.0 mb 0.00 in0.0 mm 0.00 in0.0 mm 0.00 in0.0 mm
05:23 AM 43.3°F6.3°C 41.1°F5.1°C 92% 12.0 mph SW19.3 kmh SW 16.0 mph25.7 kmh 30.15 in1021.0 mb 0.00 in0.0 mm 0.00 in0.0 mm 0.00 in0.0 mm
05:24 AM 43.3°F6.3°C 41.1°F5.1°C 92% 14.0 mph SW22.5 kmh SW 17.0 mph27.4 kmh 30.15 in1021.0 mb 0.00 in0.0 mm 0.00 in0.0 mm 0.00 in0.0 mm
05:25 AM 43.3°F6.3°C 41.1°F5.1°C 92% 15.0 mph SW24.1 kmh SW 17.0 mph27.4 kmh 30.15 in1021.0 mb 0.00 in0.0 mm 0.00 in0.0 mm 0.00 in0.0 mm
05:26 AM 43.3°F6.3°C 41.1°F5.1°C 92% 14.0 mph SW22.5 kmh SW 16.0 mph25.7 kmh 30.15 in1021.0 mb 0.00 in0.0 mm 0.00 in0.0 mm 0.00 in0.0 mm
05:27 AM 43.3°F6.3°C 41.1°F5.1°C 92% 13.0 mph SW20.9 kmh SW 17.0 mph27.4 kmh 30.15 in1021.0 mb 0.00 in0.0 mm 0.00 in0.0 mm 0.00 in0.0 mm
05:28 AM 43.3°F6.3°C 41.1°F5.1°C 92% 13.0 mph SW20.9 kmh SW 16.0 mph25.7 kmh 30.15 in1021.0 mb 0.00 in0.0 mm 0.00 in0.0 mm 0.00 in0.0 mm
05:29 AM 43.3°F6.3°C 41.1°F5.1°C 92% 12.0 mph SW19.3 kmh SW 17.0 mph27.4 kmh 30.15 in1021.0 mb 0.00 in0.0 mm 0.00 in0.0 mm 0.00 in0.0 mm
05:30 AM 43.4°F6.3°C 41.2°F5.1°C 92% 12.0 mph SW19.3 kmh SW 14.0 mph22.5 kmh 30.15 in1021.0 mb 0.00 in0.0 mm 0.00 in0.0 mm 0.00 in0.0 mm
05:31 AM 43.3°F6.3°C 41.1°F5.1°C 92% 13.0 mph SW20.9 kmh SW 17.0 mph27.4 kmh 30.15 in1021.0 mb 0.00 in0.0 mm 0.00 in0.0 mm 0.00 in0.0 mm
05:32 AM 43.3°F6.3°C 41.1°F5.1°C 92% 13.0 mph SW20.9 kmh SW 18.0 mph29.0 kmh 30.15 in1021.0 mb 0.00 in0.0 mm 0.00 in0.0 mm 0.00 in0.0 mm
05:33 AM 43.4°F6.3°C 41.2°F5.1°C 92% 12.0 mph SW19.3 kmh SW 18.0 mph29.0 kmh 30.15 in1021.0 mb 0.00 in0.0 mm 0.00 in0.0 mm 0.00 in0.0 mm
05:34 AM 43.3°F6.3°C 41.1°F5.1°C 92% 11.0 mph SW17.7 kmh SW 14.0 mph22.5 kmh 30.15 in1021.0 mb 0.00 in0.0 mm 0.00 in0.0 mm 0.00 in0.0 mm
05:35 AM 43.4°F6.3°C 41.2°F5.1°C 92% 13.0 mph SW20.9 kmh SW 16.0 mph25.7 kmh 30.15 in1021.0 mb 0.00 in0.0 mm 0.00 in0.0 mm 0.00 in0.0 mm
05:36 AM 43.4°F6.3°C 41.2°F5.1°C 92% 15.0 mph SW24.1 kmh SW 17.0 mph27.4 kmh 30.15 in1021.0 mb 0.00 in0.0 mm 0.00 in0.0 mm 0.00 in0.0 mm
05:37 AM 43.4°F6.3°C 41.2°F5.1°C 92% 12.0 mph SW19.3 kmh SW 14.0 mph22.5 kmh 30.15 in1021.0 mb 0.00 in0.0 mm 0.00 in0.0 mm 0.00 in0.0 mm
05:38 AM 43.4°F6.3°C 41.2°F5.1°C 92% 12.0 mph SW19.3 kmh SW 15.0 mph24.1 kmh 30.15 in1021.0 mb 0.00 in0.0 mm 0.00 in0.0 mm 0.00 in0.0 mm
05:39 AM 43.4°F6.3°C 41.2°F5.1°C 92% 13.0 mph SW20.9 kmh SW 16.0 mph25.7 kmh 30.15 in1021.0 mb 0.01 in0.3 mm 0.60 in15.2 mm 0.01 in0.3 mm
05:40 AM 43.4°F6.3°C 41.2°F5.1°C 92% 14.0 mph SW22.5 kmh SW 18.0 mph29.0 kmh 30.15 in1021.0 mb 0.01 in0.3 mm 0.00 in0.0 mm 0.01 in0.3 mm
05:41 AM 43.4°F6.3°C 41.2°F5.1°C 92% 15.0 mph SW24.1 kmh SW 18.0 mph29.0 kmh 30.15 in1021.0 mb 0.01 in0.3 mm 0.00 in0.0 mm 0.01 in0.3 mm
05:42 AM 43.4°F6.3°C 41.2°F5.1°C 92% 15.0 mph SW24.1 kmh SW 18.0 mph29.0 kmh 30.15 in1021.0 mb 0.01 in0.3 mm 0.00 in0.0 mm 0.01 in0.3 mm
05:43 AM 43.5°F6.4°C 41.3°F5.2°C 92% 17.0 mph SW27.4 kmh SW 21.0 mph33.8 kmh 30.15 in1021.0 mb 0.01 in0.3 mm 0.00 in0.0 mm 0.01 in0.3 mm
05:44 AM 43.5°F6.4°C 41.6°F5.3°C 93% 14.0 mph SW22.5 kmh SW 17.0 mph27.4 kmh 30.15 in1021.0 mb 0.01 in0.3 mm 0.00 in0.0 mm 0.01 in0.3 mm
05:45 AM 43.5°F6.4°C 41.3°F5.2°C 92% 15.0 mph SW24.1 kmh SW 18.0 mph29.0 kmh 30.15 in1021.0 mb 0.01 in0.3 mm 0.00 in0.0 mm 0.01 in0.3 mm
05:46 AM 43.5°F6.4°C 41.6°F5.3°C 93% 14.0 mph SW22.5 kmh SW 17.0 mph27.4 kmh 30.15 in1021.0 mb 0.01 in0.3 mm 0.00 in0.0 mm 0.01 in0.3 mm
05:47 AM 43.6°F6.4°C 41.7°F5.4°C 93% 14.0 mph SW22.5 kmh SW 17.0 mph27.4 kmh 30.15 in1021.0 mb 0.01 in0.3 mm 0.00 in0.0 mm 0.01 in0.3 mm
05:48 AM 43.6°F6.4°C 41.7°F5.4°C 93% 14.0 mph SW22.5 kmh SW 18.0 mph29.0 kmh 30.15 in1021.0 mb 0.01 in0.3 mm 0.00 in0.0 mm 0.01 in0.3 mm
05:49 AM 43.6°F6.4°C 41.7°F5.4°C 93% 15.0 mph SW24.1 kmh SW 18.0 mph29.0 kmh 30.15 in1021.0 mb 0.01 in0.3 mm 0.00 in0.0 mm 0.01 in0.3 mm
05:50 AM 43.6°F6.4°C 41.7°F5.4°C 93% 15.0 mph SW24.1 kmh SW 18.0 mph29.0 kmh 30.15 in1021.0 mb 0.01 in0.3 mm 0.00 in0.0 mm 0.01 in0.3 mm
05:51 AM 43.6°F6.4°C 41.7°F5.4°C 93% 15.0 mph SW24.1 kmh SW 19.0 mph30.6 kmh 30.15 in1021.0 mb 0.01 in0.3 mm 0.00 in0.0 mm 0.01 in0.3 mm
05:52 AM 43.7°F6.5°C 41.8°F5.4°C 93% 18.0 mph SW29.0 kmh SW 22.0 mph35.4 kmh 30.15 in1021.0 mb 0.01 in0.3 mm 0.00 in0.0 mm 0.01 in0.3 mm
05:53 AM 43.7°F6.5°C 41.8°F5.4°C 93% 17.0 mph SW27.4 kmh SW 22.0 mph35.4 kmh 30.15 in1021.0 mb 0.01 in0.3 mm 0.00 in0.0 mm 0.01 in0.3 mm
05:54 AM 43.8°F6.6°C 41.9°F5.5°C 93% 17.0 mph SW27.4 kmh SW 21.0 mph33.8 kmh 30.15 in1021.0 mb 0.01 in0.3 mm 0.00 in0.0 mm 0.01 in0.3 mm
05:55 AM 43.8°F6.6°C 41.9°F5.5°C 93% 17.0 mph SW27.4 kmh SW 21.0 mph33.8 kmh 30.15 in1021.0 mb 0.01 in0.3 mm 0.00 in0.0 mm 0.01 in0.3 mm
05:56 AM 43.8°F6.6°C 41.9°F5.5°C 93% 15.0 mph SW24.1 kmh SW 18.0 mph29.0 kmh 30.15 in1021.0 mb 0.01 in0.3 mm 0.00 in0.0 mm 0.01 in0.3 mm
05:57 AM 43.8°F6.6°C 41.9°F5.5°C 93% 17.0 mph SW27.4 kmh SW 22.0 mph35.4 kmh 30.15 in1021.0 mb 0.01 in0.3 mm 0.00 in0.0 mm 0.01 in0.3 mm
05:58 AM 43.8°F6.6°C 41.9°F5.5°C 93% 14.0 mph SW22.5 kmh SW 19.0 mph30.6 kmh 30.15 in1021.0 mb 0.01 in0.3 mm 0.00 in0.0 mm 0.01 in0.3 mm
05:59 AM 43.9°F6.6°C 42.0°F5.6°C 93% 15.0 mph SW24.1 kmh SW 18.0 mph29.0 kmh 30.15 in1021.0 mb 0.01 in0.3 mm 0.00 in0.0 mm 0.01 in0.3 mm
06:00 AM 43.8°F6.6°C 41.6°F5.3°C 92% 16.0 mph SW25.7 kmh SW 19.0 mph30.6 kmh 30.15 in1021.0 mb 0.01 in0.3 mm 0.00 in0.0 mm 0.01 in0.3 mm
06:01 AM 43.8°F6.6°C 41.9°F5.5°C 93% 16.0 mph SW25.7 kmh SW 20.0 mph32.2 kmh 30.15 in1021.0 mb 0.01 in0.3 mm 0.00 in0.0 mm 0.01 in0.3 mm
06:02 AM 43.8°F6.6°C 41.9°F5.5°C 93% 16.0 mph SW25.7 kmh SW 19.0 mph30.6 kmh 30.15 in1021.0 mb 0.01 in0.3 mm 0.00 in0.0 mm 0.01 in0.3 mm
06:03 AM 43.8°F6.6°C 41.9°F5.5°C 93% 16.0 mph SW25.7 kmh SW 19.0 mph30.6 kmh 30.15 in1021.0 mb 0.01 in0.3 mm 0.00 in0.0 mm 0.01 in0.3 mm
06:04 AM 43.8°F6.6°C 41.9°F5.5°C 93% 16.0 mph SW25.7 kmh SW 21.0 mph33.8 kmh 30.14 in1020.7 mb 0.01 in0.3 mm 0.00 in0.0 mm 0.01 in0.3 mm
06:05 AM 43.8°F6.6°C 41.9°F5.5°C 93% 16.0 mph SW25.7 kmh SW 20.0 mph32.2 kmh 30.14 in1020.7 mb 0.01 in0.3 mm 0.00 in0.0 mm 0.01 in0.3 mm
06:06 AM 43.8°F6.6°C 41.9°F5.5°C 93% 15.0 mph SW24.1 kmh SW 18.0 mph29.0 kmh 30.15 in1021.0 mb 0.01 in0.3 mm 0.00 in0.0 mm 0.01 in0.3 mm
06:07 AM 43.8°F6.6°C 41.9°F5.5°C 93% 13.0 mph SW20.9 kmh SW 16.0 mph25.7 kmh 30.14 in1020.7 mb 0.01 in0.3 mm 0.00 in0.0 mm 0.01 in0.3 mm
06:08 AM 43.8°F6.6°C 41.9°F5.5°C 93% 18.0 mph SW29.0 kmh SW 20.0 mph32.2 kmh 30.14 in1020.7 mb 0.01 in0.3 mm 0.00 in0.0 mm 0.01 in0.3 mm
06:09 AM 43.9°F6.6°C 42.0°F5.6°C 93% 15.0 mph SW24.1 kmh SW 18.0 mph29.0 kmh 30.14 in1020.7 mb 0.01 in0.3 mm 0.00 in0.0 mm 0.01 in0.3 mm
06:10 AM 43.9°F6.6°C 42.0°F5.6°C 93% 16.0 mph SW25.7 kmh SW 20.0 mph32.2 kmh 30.14 in1020.7 mb 0.01 in0.3 mm 0.00 in0.0 mm 0.01 in0.3 mm
06:11 AM 43.9°F6.6°C 42.0°F5.6°C 93% 15.0 mph SW24.1 kmh SW 19.0 mph30.6 kmh 30.14 in1020.7 mb 0.01 in0.3 mm 0.00 in0.0 mm 0.01 in0.3 mm
06:12 AM 44.0°F6.7°C 42.1°F5.6°C 93% 15.0 mph SW24.1 kmh SW 21.0 mph33.8 kmh 30.14 in1020.7 mb 0.01 in0.3 mm 0.00 in0.0 mm 0.01 in0.3 mm
06:13 AM 44.0°F6.7°C 42.1°F5.6°C 93% 16.0 mph SW25.7 kmh SW 22.0 mph35.4 kmh 30.14 in1020.7 mb 0.01 in0.3 mm 0.00 in0.0 mm 0.01 in0.3 mm
06:14 AM 44.0°F6.7°C 42.1°F5.6°C 93% 16.0 mph SW25.7 kmh SW 21.0 mph33.8 kmh 30.14 in1020.7 mb 0.01 in0.3 mm 0.00 in0.0 mm 0.01 in0.3 mm
06:15 AM 43.9°F6.6°C 42.0°F5.6°C 93% 16.0 mph SW25.7 kmh SW 20.0 mph32.2 kmh 30.14 in1020.7 mb 0.01 in0.3 mm 0.00 in0.0 mm 0.01 in0.3 mm
06:16 AM 43.9°F6.6°C 42.0°F5.6°C 93% 18.0 mph SW29.0 kmh SW 21.0 mph33.8 kmh 30.14 in1020.7 mb 0.01 in0.3 mm 0.00 in0.0 mm 0.01 in0.3 mm
06:17 AM 43.9°F6.6°C 42.0°F5.6°C 93% 16.0 mph SW25.7 kmh SW 19.0 mph30.6 kmh 30.14 in1020.7 mb 0.01 in0.3 mm 0.00 in0.0 mm 0.01 in0.3 mm
06:18 AM 43.9°F6.6°C 42.0°F5.6°C 93% 17.0 mph SW27.4 kmh SW 19.0 mph30.6 kmh 30.14 in1020.7 mb 0.01 in0.3 mm 0.00 in0.0 mm 0.01 in0.3 mm
06:19 AM 43.9°F6.6°C 42.0°F5.6°C 93% 16.0 mph SW25.7 kmh SW 19.0 mph30.6 kmh 30.14 in1020.7 mb 0.01 in0.3 mm 0.00 in0.0 mm 0.01 in0.3 mm
06:20 AM 43.9°F6.6°C 42.0°F5.6°C 93% 16.0 mph SW25.7 kmh SW 18.0 mph29.0 kmh 30.14 in1020.7 mb 0.01 in0.3 mm 0.00 in0.0 mm 0.01 in0.3 mm
06:21 AM 43.8°F6.6°C 41.9°F5.5°C 93% 17.0 mph SW27.4 kmh SW 22.0 mph35.4 kmh 30.14 in1020.7 mb 0.01 in0.3 mm 0.00 in0.0 mm 0.01 in0.3 mm
06:22 AM 43.9°F6.6°C 42.0°F5.6°C 93% 16.0 mph SW25.7 kmh SW 19.0 mph30.6 kmh 30.14 in1020.7 mb 0.01 in0.3 mm 0.00 in0.0 mm 0.01 in0.3 mm
06:23 AM 43.9°F6.6°C 42.0°F5.6°C 93% 15.0 mph SW24.1 kmh SW 19.0 mph30.6 kmh 30.14 in1020.7 mb 0.01 in0.3 mm 0.00 in0.0 mm 0.01 in0.3 mm
06:24 AM 43.8°F6.6°C 41.9°F5.5°C 93% 14.0 mph SW22.5 kmh SW 20.0 mph32.2 kmh 30.14 in1020.7 mb 0.01 in0.3 mm 0.00 in0.0 mm 0.01 in0.3 mm
06:25 AM 43.8°F6.6°C 41.9°F5.5°C 93% 16.0 mph SW25.7 kmh SW 20.0 mph32.2 kmh 30.14 in1020.7 mb 0.01 in0.3 mm 0.00 in0.0 mm 0.01 in0.3 mm
06:26 AM 43.9°F6.6°C 42.0°F5.6°C 93% 16.0 mph SW25.7 kmh SW 17.0 mph27.4 kmh 30.14 in1020.7 mb 0.01 in0.3 mm 0.00 in0.0 mm 0.01 in0.3 mm
06:27 AM 43.8°F6.6°C 41.9°F5.5°C 93% 17.0 mph SW27.4 kmh SW 20.0 mph32.2 kmh 30.14 in1020.7 mb 0.01 in0.3 mm 0.00 in0.0 mm 0.01 in0.3 mm
06:28 AM 43.9°F6.6°C 42.0°F5.6°C 93% 15.0 mph SW24.1 kmh SW 18.0 mph29.0 kmh 30.14 in1020.7 mb 0.01 in0.3 mm 0.00 in0.0 mm 0.01 in0.3 mm
06:29 AM 43.9°F6.6°C 42.0°F5.6°C 93% 16.0 mph WSW25.7 kmh WSW 19.0 mph30.6 kmh 30.14 in1020.7 mb 0.01 in0.3 mm 0.00 in0.0 mm 0.01 in0.3 mm
06:30 AM 43.9°F6.6°C 42.0°F5.6°C 93% 15.0 mph SW24.1 kmh SW 18.0 mph29.0 kmh 30.14 in1020.7 mb 0.01 in0.3 mm 0.00 in0.0 mm 0.01 in0.3 mm
06:31 AM 43.9°F6.6°C 42.0°F5.6°C 93% 16.0 mph SW25.7 kmh SW 18.0 mph29.0 kmh 30.14 in1020.7 mb 0.01 in0.3 mm 0.00 in0.0 mm 0.01 in0.3 mm
06:32 AM 43.9°F6.6°C 42.0°F5.6°C 93% 16.0 mph SW25.7 kmh SW 18.0 mph29.0 kmh 30.15 in1021.0 mb 0.01 in0.3 mm 0.00 in0.0 mm 0.01 in0.3 mm
06:33 AM 43.9°F6.6°C 42.0°F5.6°C 93% 16.0 mph SW25.7 kmh SW 18.0 mph29.0 kmh 30.14 in1020.7 mb 0.01 in0.3 mm 0.00 in0.0 mm 0.01 in0.3 mm
06:34 AM 43.9°F6.6°C 42.0°F5.6°C 93% 16.0 mph SW25.7 kmh SW 19.0 mph30.6 kmh 30.15 in1021.0 mb 0.01 in0.3 mm 0.00 in0.0 mm 0.01 in0.3 mm
06:35 AM 43.9°F6.6°C 42.0°F5.6°C 93% 17.0 mph SW27.4 kmh SW 19.0 mph30.6 kmh 30.15 in1021.0 mb 0.01 in0.3 mm 0.00 in0.0 mm 0.01 in0.3 mm
06:36 AM 43.9°F6.6°C 42.0°F5.6°C 93% 17.0 mph SW27.4 kmh SW 20.0 mph32.2 kmh 30.15 in1021.0 mb 0.01 in0.3 mm 0.00 in0.0 mm 0.01 in0.3 mm
06:37 AM 44.0°F6.7°C 42.1°F5.6°C 93% 17.0 mph SW27.4 kmh SW 19.0 mph30.6 kmh 30.15 in1021.0 mb 0.01 in0.3 mm 0.00 in0.0 mm 0.01 in0.3 mm
06:38 AM 44.0°F6.7°C 42.1°F5.6°C 93% 17.0 mph SW27.4 kmh SW 19.0 mph30.6 kmh 30.15 in1021.0 mb 0.01 in0.3 mm 0.00 in0.0 mm 0.01 in0.3 mm
06:39 AM 44.0°F6.7°C 42.1°F5.6°C 93% 16.0 mph SW25.7 kmh SW 19.0 mph30.6 kmh 30.15 in1021.0 mb 0.00 in0.0 mm 0.00 in0.0 mm 0.01 in0.3 mm
06:40 AM 44.0°F6.7°C 42.1°F5.6°C 93% 16.0 mph SW25.7 kmh SW 20.0 mph32.2 kmh 30.15 in1021.0 mb 0.00 in0.0 mm 0.00 in0.0 mm 0.01 in0.3 mm
06:41 AM 44.0°F6.7°C 42.1°F5.6°C 93% 17.0 mph SW27.4 kmh SW 20.0 mph32.2 kmh 30.15 in1021.0 mb 0.00 in0.0 mm 0.00 in0.0 mm 0.01 in0.3 mm
06:42 AM 44.0°F6.7°C 42.1°F5.6°C 93% 17.0 mph SW27.4 kmh SW 19.0 mph30.6 kmh 30.15 in1021.0 mb 0.00 in0.0 mm 0.00 in0.0 mm 0.01 in0.3 mm
06:43 AM 44.0°F6.7°C 42.1°F5.6°C 93% 18.0 mph SW29.0 kmh SW 22.0 mph35.4 kmh 30.15 in1021.0 mb 0.00 in0.0 mm 0.00 in0.0 mm 0.01 in0.3 mm
06:44 AM 44.1°F6.7°C 42.2°F5.7°C 93% 18.0 mph SW29.0 kmh SW 23.0 mph37.0 kmh 30.15 in1021.0 mb 0.00 in0.0 mm 0.00 in0.0 mm 0.01 in0.3 mm
06:45 AM 44.0°F6.7°C 42.1°F5.6°C 93% 16.0 mph SW25.7 kmh SW 23.0 mph37.0 kmh 30.15 in1021.0 mb 0.00 in0.0 mm 0.00 in0.0 mm 0.01 in0.3 mm
06:46 AM 44.1°F6.7°C 42.2°F5.7°C 93% 16.0 mph SW25.7 kmh SW 20.0 mph32.2 kmh 30.15 in1021.0 mb 0.00 in0.0 mm 0.00 in0.0 mm 0.01 in0.3 mm
06:47 AM 44.1°F6.7°C 42.2°F5.7°C 93% 16.0 mph WSW25.7 kmh WSW 19.0 mph30.6 kmh 30.15 in1021.0 mb 0.00 in0.0 mm 0.00 in0.0 mm 0.01 in0.3 mm
06:48 AM 44.0°F6.7°C 42.1°F5.6°C 93% 17.0 mph WSW27.4 kmh WSW 19.0 mph30.6 kmh 30.15 in1021.0 mb 0.00 in0.0 mm 0.00 in0.0 mm 0.01 in0.3 mm
06:49 AM 44.0°F6.7°C 42.1°F5.6°C 93% 17.0 mph WSW27.4 kmh WSW 19.0 mph30.6 kmh 30.15 in1021.0 mb 0.00 in0.0 mm 0.00 in0.0 mm 0.01 in0.3 mm
06:50 AM 44.0°F6.7°C 42.1°F5.6°C 93% 16.0 mph SW25.7 kmh SW 19.0 mph30.6 kmh 30.15 in1021.0 mb 0.00 in0.0 mm 0.00 in0.0 mm 0.01 in0.3 mm
06:51 AM 44.0°F6.7°C 42.1°F5.6°C 93% 16.0 mph WSW25.7 kmh WSW 19.0 mph30.6 kmh 30.15 in1021.0 mb 0.00 in0.0 mm 0.00 in0.0 mm 0.01 in0.3 mm
06:52 AM 44.0°F6.7°C 42.1°F5.6°C 93% 16.0 mph WSW25.7 kmh WSW 19.0 mph30.6 kmh 30.15 in1021.0 mb 0.00 in0.0 mm 0.00 in0.0 mm 0.01 in0.3 mm
06:53 AM 44.0°F6.7°C 42.1°F5.6°C 93% 16.0 mph WSW25.7 kmh WSW 18.0 mph29.0 kmh 30.15 in1021.0 mb 0.00 in0.0 mm 0.00 in0.0 mm 0.01 in0.3 mm
06:54 AM 44.0°F6.7°C 42.1°F5.6°C 93% 15.0 mph SW24.1 kmh SW 18.0 mph29.0 kmh 30.15 in1021.0 mb 0.00 in0.0 mm 0.00 in0.0 mm 0.01 in0.3 mm
06:55 AM 44.0°F6.7°C 42.1°F5.6°C 93% 15.0 mph SW24.1 kmh SW 20.0 mph32.2 kmh 30.15 in1021.0 mb 0.00 in0.0 mm 0.00 in0.0 mm 0.01 in0.3 mm
06:56 AM 44.1°F6.7°C 42.2°F5.7°C 93% 16.0 mph SW25.7 kmh SW 18.0 mph29.0 kmh 30.15 in1021.0 mb 0.00 in0.0 mm 0.00 in0.0 mm 0.01 in0.3 mm
06:57 AM 44.1°F6.7°C 42.2°F5.7°C 93% 15.0 mph SW24.1 kmh SW 18.0 mph29.0 kmh 30.15 in1021.0 mb 0.00 in0.0 mm 0.00 in0.0 mm 0.01 in0.3 mm
06:58 AM 44.1°F6.7°C 42.2°F5.7°C 93% 15.0 mph SW24.1 kmh SW 17.0 mph27.4 kmh 30.15 in1021.0 mb 0.00 in0.0 mm 0.00 in0.0 mm 0.01 in0.3 mm
06:59 AM 44.2°F6.8°C 42.3°F5.7°C 93% 14.0 mph SW22.5 kmh SW 17.0 mph27.4 kmh 30.15 in1021.0 mb 0.00 in0.0 mm 0.00 in0.0 mm 0.01 in0.3 mm
07:00 AM 44.1°F6.7°C 42.2°F5.7°C 93% 16.0 mph SW25.7 kmh SW 18.0 mph29.0 kmh 30.15 in1021.0 mb 0.00 in0.0 mm 0.00 in0.0 mm 0.01 in0.3 mm
07:01 AM 44.1°F6.7°C 42.2°F5.7°C 93% 15.0 mph SW24.1 kmh SW 17.0 mph27.4 kmh 30.15 in1021.0 mb 0.00 in0.0 mm 0.00 in0.0 mm 0.01 in0.3 mm
07:02 AM 44.1°F6.7°C 42.2°F5.7°C 93% 13.0 mph SW20.9 kmh SW 17.0 mph27.4 kmh 30.15 in1021.0 mb 0.00 in0.0 mm 0.00 in0.0 mm 0.01 in0.3 mm
07:03 AM 44.1°F6.7°C 42.2°F5.7°C 93% 15.0 mph SW24.1 kmh SW 17.0 mph27.4 kmh 30.15 in1021.0 mb 0.00 in0.0 mm 0.00 in0.0 mm 0.01 in0.3 mm
07:04 AM 44.1°F6.7°C 42.2°F5.7°C 93% 15.0 mph SW24.1 kmh SW 17.0 mph27.4 kmh 30.15 in1021.0 mb 0.00 in0.0 mm 0.00 in0.0 mm 0.01 in0.3 mm
07:05 AM 44.2°F6.8°C 42.3°F5.7°C 93% 12.0 mph SW19.3 kmh SW 15.0 mph24.1 kmh 30.15 in1021.0 mb 0.00 in0.0 mm 0.00 in0.0 mm 0.01 in0.3 mm
07:06 AM 44.1°F6.7°C 42.2°F5.7°C 93% 15.0 mph SW24.1 kmh SW 17.0 mph27.4 kmh 30.15 in1021.0 mb 0.00 in0.0 mm 0.00 in0.0 mm 0.01 in0.3 mm
07:07 AM 44.2°F6.8°C 42.3°F5.7°C 93% 15.0 mph SW24.1 kmh SW 19.0 mph30.6 kmh 30.15 in1021.0 mb 0.00 in0.0 mm 0.00 in0.0 mm 0.01 in0.3 mm
07:08 AM 44.2°F6.8°C 42.3°F5.7°C 93% 12.0 mph SW19.3 kmh SW 16.0 mph25.7 kmh 30.15 in1021.0 mb 0.00 in0.0 mm 0.00 in0.0 mm 0.01 in0.3 mm
07:09 AM 44.2°F6.8°C 42.3°F5.7°C 93% 15.0 mph WSW24.1 kmh WSW 21.0 mph33.8 kmh 30.15 in1021.0 mb 0.00 in0.0 mm 0.00 in0.0 mm 0.01 in0.3 mm
07:10 AM 44.1°F6.7°C 42.2°F5.7°C 93% 15.0 mph SW24.1 kmh SW 19.0 mph30.6 kmh 30.15 in1021.0 mb 0.00 in0.0 mm 0.00 in0.0 mm 0.01 in0.3 mm
07:11 AM 44.2°F6.8°C 42.3°F5.7°C 93% 16.0 mph SW25.7 kmh SW 20.0 mph32.2 kmh 30.15 in1021.0 mb 0.00 in0.0 mm 0.00 in0.0 mm 0.01 in0.3 mm
07:12 AM 44.2°F6.8°C 42.3°F5.7°C 93% 15.0 mph SW24.1 kmh SW 17.0 mph27.4 kmh 30.15 in1021.0 mb 0.00 in0.0 mm 0.00 in0.0 mm 0.01 in0.3 mm
07:13 AM 44.2°F6.8°C 42.3°F5.7°C 93% 14.0 mph SW22.5 kmh SW 17.0 mph27.4 kmh 30.15 in1021.0 mb 0.00 in0.0 mm 0.00 in0.0 mm 0.01 in0.3 mm
07:14 AM 44.1°F6.7°C 42.2°F5.7°C 93% 14.0 mph SW22.5 kmh SW 18.0 mph29.0 kmh 30.16 in1021.3 mb 0.00 in0.0 mm 0.00 in0.0 mm 0.01 in0.3 mm
07:15 AM 44.1°F6.7°C 42.2°F5.7°C 93% 14.0 mph WSW22.5 kmh WSW 17.0 mph27.4 kmh 30.16 in1021.3 mb 0.00 in0.0 mm 0.00 in0.0 mm 0.01 in0.3 mm
07:16 AM 44.1°F6.7°C 42.2°F5.7°C 93% 14.0 mph SW22.5 kmh SW 18.0 mph29.0 kmh 30.16 in1021.3 mb 0.00 in0.0 mm 0.00 in0.0 mm 0.01 in0.3 mm
07:17 AM 44.1°F6.7°C 42.2°F5.7°C 93% 15.0 mph SW24.1 kmh SW 17.0 mph27.4 kmh 30.16 in1021.3 mb 0.00 in0.0 mm 0.00 in0.0 mm 0.01 in0.3 mm
07:18 AM 44.1°F6.7°C 42.2°F5.7°C 93% 15.0 mph WSW24.1 kmh WSW 18.0 mph29.0 kmh 30.16 in1021.3 mb 0.00 in0.0 mm 0.00 in0.0 mm 0.01 in0.3 mm
07:19 AM 44.1°F6.7°C 42.2°F5.7°C 93% 14.0 mph SW22.5 kmh SW 16.0 mph25.7 kmh 30.16 in1021.3 mb 0.00 in0.0 mm 0.00 in0.0 mm 0.01 in0.3 mm
07:20 AM 44.1°F6.7°C 42.2°F5.7°C 93% 14.0 mph WSW22.5 kmh WSW 16.0 mph25.7 kmh 30.16 in1021.3 mb 0.00 in0.0 mm 0.00 in0.0 mm 0.01 in0.3 mm
07:21 AM 44.0°F6.7°C 42.1°F5.6°C 93% 13.0 mph SW20.9 kmh SW 16.0 mph25.7 kmh 30.16 in1021.3 mb 0.00 in0.0 mm 0.00 in0.0 mm 0.01 in0.3 mm
07:22 AM 44.1°F6.7°C 42.2°F5.7°C 93% 15.0 mph SW24.1 kmh SW 17.0 mph27.4 kmh 30.16 in1021.3 mb 0.00 in0.0 mm 0.00 in0.0 mm 0.01 in0.3 mm
07:23 AM 44.1°F6.7°C 42.2°F5.7°C 93% 14.0 mph WSW22.5 kmh WSW 17.0 mph27.4 kmh 30.16 in1021.3 mb 0.00 in0.0 mm 0.00 in0.0 mm 0.01 in0.3 mm
07:24 AM 44.1°F6.7°C 42.2°F5.7°C 93% 14.0 mph WSW22.5 kmh WSW 16.0 mph25.7 kmh 30.16 in1021.3 mb 0.00 in0.0 mm 0.00 in0.0 mm 0.01 in0.3 mm
07:25 AM 44.1°F6.7°C 42.2°F5.7°C 93% 13.0 mph SW20.9 kmh SW 16.0 mph25.7 kmh 30.16 in1021.3 mb 0.00 in0.0 mm 0.00 in0.0 mm 0.01 in0.3 mm
07:26 AM 44.0°F6.7°C 42.1°F5.6°C 93% 13.0 mph WSW20.9 kmh WSW 16.0 mph25.7 kmh 30.16 in1021.3 mb 0.00 in0.0 mm 0.00 in0.0 mm 0.01 in0.3 mm
07:27 AM 44.0°F6.7°C 42.1°F5.6°C 93% 14.0 mph WSW22.5 kmh WSW 15.0 mph24.1 kmh 30.16 in1021.3 mb 0.00 in0.0 mm 0.00 in0.0 mm 0.01 in0.3 mm
07:28 AM 44.1°F6.7°C 42.2°F5.7°C 93% 14.0 mph WSW22.5 kmh WSW 16.0 mph25.7 kmh 30.16 in1021.3 mb 0.00 in0.0 mm 0.00 in0.0 mm 0.01 in0.3 mm
07:29 AM 44.0°F6.7°C 42.1°F5.6°C 93% 14.0 mph WSW22.5 kmh WSW 15.0 mph24.1 kmh 30.17 in1021.7 mb 0.00 in0.0 mm 0.00 in0.0 mm 0.01 in0.3 mm
07:30 AM 44.0°F6.7°C 42.1°F5.6°C 93% 14.0 mph WSW22.5 kmh WSW 16.0 mph25.7 kmh 30.17 in1021.7 mb 0.00 in0.0 mm 0.00 in0.0 mm 0.01 in0.3 mm
07:31 AM 44.0°F6.7°C 42.1°F5.6°C 93% 12.0 mph WSW19.3 kmh WSW 14.0 mph22.5 kmh 30.17 in1021.7 mb 0.00 in0.0 mm 0.00 in0.0 mm 0.01 in0.3 mm
07:32 AM 44.0°F6.7°C 42.1°F5.6°C 93% 13.0 mph WSW20.9 kmh WSW 16.0 mph25.7 kmh 30.17 in1021.7 mb 0.00 in0.0 mm 0.00 in0.0 mm 0.01 in0.3 mm
07:33 AM 44.0°F6.7°C 42.1°F5.6°C 93% 13.0 mph WSW20.9 kmh WSW 16.0 mph25.7 kmh 30.17 in1021.7 mb 0.00 in0.0 mm 0.00 in0.0 mm 0.01 in0.3 mm
07:34 AM 44.0°F6.7°C 42.1°F5.6°C 93% 13.0 mph WSW20.9 kmh WSW 16.0 mph25.7 kmh 30.17 in1021.7 mb 0.01 in0.3 mm 0.60 in15.2 mm 0.02 in0.5 mm
07:35 AM 44.1°F6.7°C 42.2°F5.7°C 93% 14.0 mph WSW22.5 kmh WSW 16.0 mph25.7 kmh 30.17 in1021.7 mb 0.01 in0.3 mm 0.00 in0.0 mm 0.02 in0.5 mm
07:36 AM 44.0°F6.7°C 42.1°F5.6°C 93% 13.0 mph WSW20.9 kmh WSW 15.0 mph24.1 kmh 30.17 in1021.7 mb 0.01 in0.3 mm 0.00 in0.0 mm 0.02 in0.5 mm
07:37 AM 44.0°F6.7°C 42.1°F5.6°C 93% 14.0 mph WSW22.5 kmh WSW 16.0 mph25.7 kmh 30.17 in1021.7 mb 0.01 in0.3 mm 0.00 in0.0 mm 0.02 in0.5 mm
07:38 AM 44.0°F6.7°C 42.1°F5.6°C 93% 13.0 mph WSW20.9 kmh WSW 15.0 mph24.1 kmh 30.17 in1021.7 mb 0.01 in0.3 mm 0.00 in0.0 mm 0.02 in0.5 mm
07:39 AM 44.0°F6.7°C 42.1°F5.6°C 93% 13.0 mph WSW20.9 kmh WSW 14.0 mph22.5 kmh 30.17 in1021.7 mb 0.01 in0.3 mm 0.00 in0.0 mm 0.02 in0.5 mm
07:40 AM 44.0°F6.7°C 42.1°F5.6°C 93% 14.0 mph WSW22.5 kmh WSW 16.0 mph25.7 kmh 30.17 in1021.7 mb 0.01 in0.3 mm 0.00 in0.0 mm 0.02 in0.5 mm
07:41 AM 44.0°F6.7°C 42.1°F5.6°C 93% 13.0 mph WSW20.9 kmh WSW 14.0 mph22.5 kmh 30.17 in1021.7 mb 0.01 in0.3 mm 0.00 in0.0 mm 0.02 in0.5 mm
07:42 AM 43.9°F6.6°C 42.0°F5.6°C 93% 12.0 mph WSW19.3 kmh WSW 15.0 mph24.1 kmh 30.17 in1021.7 mb 0.01 in0.3 mm 0.00 in0.0 mm 0.02 in0.5 mm
07:43 AM 44.0°F6.7°C 42.1°F5.6°C 93% 13.0 mph WSW20.9 kmh WSW 14.0 mph22.5 kmh 30.17 in1021.7 mb 0.01 in0.3 mm 0.00 in0.0 mm 0.02 in0.5 mm
07:44 AM 43.9°F6.6°C 42.0°F5.6°C 93% 14.0 mph WSW22.5 kmh WSW 15.0 mph24.1 kmh 30.18 in1022.0 mb 0.01 in0.3 mm 0.00 in0.0 mm 0.02 in0.5 mm
07:45 AM 43.9°F6.6°C 42.0°F5.6°C 93% 12.0 mph WSW19.3 kmh WSW 14.0 mph22.5 kmh 30.18 in1022.0 mb 0.01 in0.3 mm 0.00 in0.0 mm 0.02 in0.5 mm
07:46 AM 43.9°F6.6°C 42.0°F5.6°C 93% 13.0 mph WSW20.9 kmh WSW 14.0 mph22.5 kmh 30.18 in1022.0 mb 0.01 in0.3 mm 0.00 in0.0 mm 0.02 in0.5 mm
07:47 AM 43.9°F6.6°C 42.0°F5.6°C 93% 13.0 mph WSW20.9 kmh WSW 15.0 mph24.1 kmh 30.18 in1022.0 mb 0.01 in0.3 mm 0.00 in0.0 mm 0.02 in0.5 mm
07:48 AM 44.0°F6.7°C 42.1°F5.6°C 93% 12.0 mph WSW19.3 kmh WSW 15.0 mph24.1 kmh 30.18 in1022.0 mb 0.01 in0.3 mm 0.00 in0.0 mm 0.02 in0.5 mm
07:49 AM 44.0°F6.7°C 42.1°F5.6°C 93% 12.0 mph WSW19.3 kmh WSW 14.0 mph22.5 kmh 30.18 in1022.0 mb 0.01 in0.3 mm 0.00 in0.0 mm 0.02 in0.5 mm
07:50 AM 44.0°F6.7°C 42.1°F5.6°C 93% 12.0 mph WSW19.3 kmh WSW 14.0 mph22.5 kmh 30.18 in1022.0 mb 0.01 in0.3 mm 0.00 in0.0 mm 0.02 in0.5 mm
07:51 AM 44.0°F6.7°C 42.1°F5.6°C 93% 12.0 mph WSW19.3 kmh WSW 14.0 mph22.5 kmh 30.18 in1022.0 mb 0.01 in0.3 mm 0.00 in0.0 mm 0.02 in0.5 mm
07:52 AM 44.0°F6.7°C 42.1°F5.6°C 93% 13.0 mph WSW20.9 kmh WSW 15.0 mph24.1 kmh 30.18 in1022.0 mb 0.01 in0.3 mm 0.00 in0.0 mm 0.02 in0.5 mm
07:53 AM 44.0°F6.7°C 42.1°F5.6°C 93% 14.0 mph WSW22.5 kmh WSW 17.0 mph27.4 kmh 30.18 in1022.0 mb 0.01 in0.3 mm 0.00 in0.0 mm 0.02 in0.5 mm
07:54 AM 44.0°F6.7°C 42.1°F5.6°C 93% 15.0 mph WSW24.1 kmh WSW 17.0 mph27.4 kmh 30.18 in1022.0 mb 0.01 in0.3 mm 0.00 in0.0 mm 0.02 in0.5 mm
07:55 AM 44.1°F6.7°C 42.2°F5.7°C 93% 13.0 mph SW20.9 kmh SW 16.0 mph25.7 kmh 30.18 in1022.0 mb 0.01 in0.3 mm 0.00 in0.0 mm 0.02 in0.5 mm
07:56 AM 44.2°F6.8°C 42.3°F5.7°C 93% 13.0 mph WSW20.9 kmh WSW 16.0 mph25.7 kmh 30.17 in1021.7 mb 0.01 in0.3 mm 0.00 in0.0 mm 0.02 in0.5 mm
07:57 AM 44.2°F6.8°C 42.3°F5.7°C 93% 14.0 mph WSW22.5 kmh WSW 17.0 mph27.4 kmh 30.18 in1022.0 mb 0.01 in0.3 mm 0.00 in0.0 mm 0.02 in0.5 mm
07:58 AM 44.2°F6.8°C 42.3°F5.7°C 93% 13.0 mph WSW20.9 kmh WSW 16.0 mph25.7 kmh 30.18 in1022.0 mb 0.01 in0.3 mm 0.00 in0.0 mm 0.02 in0.5 mm
07:59 AM 44.2°F6.8°C 42.3°F5.7°C 93% 13.0 mph WSW20.9 kmh WSW 15.0 mph24.1 kmh 30.18 in1022.0 mb 0.01 in0.3 mm 0.00 in0.0 mm 0.02 in0.5 mm
08:00 AM 44.2°F6.8°C 42.3°F5.7°C 93% 12.0 mph WSW19.3 kmh WSW 15.0 mph24.1 kmh 30.18 in1022.0 mb 0.01 in0.3 mm 0.00 in0.0 mm 0.02 in0.5 mm
08:01 AM 44.2°F6.8°C 42.3°F5.7°C 93% 15.0 mph WSW24.1 kmh WSW 19.0 mph30.6 kmh 30.18 in1022.0 mb 0.01 in0.3 mm 0.00 in0.0 mm 0.02 in0.5 mm
08:02 AM 44.2°F6.8°C 42.3°F5.7°C 93% 14.0 mph WSW22.5 kmh WSW 17.0 mph27.4 kmh 30.18 in1022.0 mb 0.01 in0.3 mm 0.00 in0.0 mm 0.02 in0.5 mm
08:03 AM 44.2°F6.8°C 42.3°F5.7°C 93% 14.0 mph WSW22.5 kmh WSW 17.0 mph27.4 kmh 30.18 in1022.0 mb 0.01 in0.3 mm 0.00 in0.0 mm 0.02 in0.5 mm
08:04 AM 44.2°F6.8°C 42.3°F5.7°C 93% 16.0 mph WSW25.7 kmh WSW 18.0 mph29.0 kmh 30.18 in1022.0 mb 0.01 in0.3 mm 0.00 in0.0 mm 0.02 in0.5 mm
08:05 AM 44.2°F6.8°C 42.3°F5.7°C 93% 13.0 mph WSW20.9 kmh WSW 14.0 mph22.5 kmh 30.18 in1022.0 mb 0.01 in0.3 mm 0.00 in0.0 mm 0.02 in0.5 mm
08:06 AM 44.2°F6.8°C 42.3°F5.7°C 93% 14.0 mph WSW22.5 kmh WSW 16.0 mph25.7 kmh 30.18 in1022.0 mb 0.01 in0.3 mm 0.00 in0.0 mm 0.02 in0.5 mm
08:07 AM 44.2°F6.8°C 42.3°F5.7°C 93% 14.0 mph WSW22.5 kmh WSW 16.0 mph25.7 kmh 30.18 in1022.0 mb 0.01 in0.3 mm 0.00 in0.0 mm 0.02 in0.5 mm
08:08 AM 44.1°F6.7°C 42.2°F5.7°C 93% 13.0 mph WSW20.9 kmh WSW 15.0 mph24.1 kmh 30.18 in1022.0 mb 0.01 in0.3 mm 0.00 in0.0 mm 0.02 in0.5 mm
08:09 AM 44.1°F6.7°C 42.2°F5.7°C 93% 16.0 mph WSW25.7 kmh WSW 18.0 mph29.0 kmh 30.18 in1022.0 mb 0.01 in0.3 mm 0.00 in0.0 mm 0.02 in0.5 mm
08:10 AM 44.2°F6.8°C 42.3°F5.7°C 93% 16.0 mph WSW25.7 kmh WSW 18.0 mph29.0 kmh 30.18 in1022.0 mb 0.01 in0.3 mm 0.00 in0.0 mm 0.02 in0.5 mm
08:11 AM 44.2°F6.8°C 42.3°F5.7°C 93% 14.0 mph WSW22.5 kmh WSW 17.0 mph27.4 kmh 30.18 in1022.0 mb 0.01 in0.3 mm 0.00 in0.0 mm 0.02 in0.5 mm
08:12 AM 44.2°F6.8°C 42.3°F5.7°C 93% 15.0 mph WSW24.1 kmh WSW 17.0 mph27.4 kmh 30.18 in1022.0 mb 0.01 in0.3 mm 0.00 in0.0 mm 0.02 in0.5 mm
08:13 AM 44.2°F6.8°C 42.3°F5.7°C 93% 15.0 mph WSW24.1 kmh WSW 17.0 mph27.4 kmh 30.18 in1022.0 mb 0.01 in0.3 mm 0.00 in0.0 mm 0.02 in0.5 mm
08:14 AM 44.2°F6.8°C 42.3°F5.7°C 93% 16.0 mph WSW25.7 kmh WSW 21.0 mph33.8 kmh 30.18 in1022.0 mb 0.01 in0.3 mm 0.00 in0.0 mm 0.02 in0.5 mm
08:15 AM 44.3°F6.8°C 42.4°F5.8°C 93% 15.0 mph WSW24.1 kmh WSW 19.0 mph30.6 kmh 30.18 in1022.0 mb 0.01 in0.3 mm 0.00 in0.0 mm 0.02 in0.5 mm
08:16 AM 44.3°F6.8°C 42.4°F5.8°C 93% 16.0 mph WSW25.7 kmh WSW 18.0 mph29.0 kmh 30.18 in1022.0 mb 0.01 in0.3 mm 0.00 in0.0 mm 0.02 in0.5 mm
08:17 AM 44.3°F6.8°C 42.4°F5.8°C 93% 17.0 mph WSW27.4 kmh WSW 19.0 mph30.6 kmh 30.18 in1022.0 mb 0.01 in0.3 mm 0.00 in0.0 mm 0.02 in0.5 mm
08:18 AM 44.4°F6.9°C 42.5°F5.8°C 93% 18.0 mph WSW29.0 kmh WSW 20.0 mph32.2 kmh 30.18 in1022.0 mb 0.01 in0.3 mm 0.00 in0.0 mm 0.02 in0.5 mm
08:19 AM 44.4°F6.9°C 42.5°F5.8°C 93% 17.0 mph W27.4 kmh W 18.0 mph29.0 kmh 30.18 in1022.0 mb 0.01 in0.3 mm 0.00 in0.0 mm 0.02 in0.5 mm
08:20 AM 44.5°F6.9°C 42.6°F5.9°C 93% 18.0 mph WSW29.0 kmh WSW 20.0 mph32.2 kmh 30.18 in1022.0 mb 0.01 in0.3 mm 0.00 in0.0 mm 0.02 in0.5 mm
08:21 AM 44.4°F6.9°C 42.8°F6.0°C 94% 15.0 mph WSW24.1 kmh WSW 17.0 mph27.4 kmh 30.18 in1022.0 mb 0.01 in0.3 mm 0.00 in0.0 mm 0.02 in0.5 mm
08:22 AM 44.4°F6.9°C 42.5°F5.8°C 93% 14.0 mph WSW22.5 kmh WSW 16.0 mph25.7 kmh 30.18 in1022.0 mb 0.01 in0.3 mm 0.00 in0.0 mm 0.02 in0.5 mm
08:23 AM 44.4°F6.9°C 42.5°F5.8°C 93% 16.0 mph WSW25.7 kmh WSW 18.0 mph29.0 kmh 30.18 in1022.0 mb 0.01 in0.3 mm 0.00 in0.0 mm 0.02 in0.5 mm
08:24 AM 44.3°F6.8°C 42.4°F5.8°C 93% 17.0 mph WSW27.4 kmh WSW 18.0 mph29.0 kmh 30.18 in1022.0 mb 0.01 in0.3 mm 0.00 in0.0 mm 0.02 in0.5 mm
08:25 AM 44.4°F6.9°C 42.5°F5.8°C 93% 16.0 mph WSW25.7 kmh WSW 18.0 mph29.0 kmh 30.18 in1022.0 mb 0.01 in0.3 mm 0.00 in0.0 mm 0.02 in0.5 mm
08:26 AM 44.4°F6.9°C 42.5°F5.8°C 93% 17.0 mph WSW27.4 kmh WSW 22.0 mph35.4 kmh 30.18 in1022.0 mb 0.01 in0.3 mm 0.00 in0.0 mm 0.02 in0.5 mm
08:27 AM 44.5°F6.9°C 42.6°F5.9°C 93% 19.0 mph WSW30.6 kmh WSW 20.0 mph32.2 kmh 30.18 in1022.0 mb 0.01 in0.3 mm 0.00 in0.0 mm 0.02 in0.5 mm
08:28 AM 44.5°F6.9°C 42.9°F6.1°C 94% 17.0 mph WSW27.4 kmh WSW 19.0 mph30.6 kmh 30.18 in1022.0 mb 0.01 in0.3 mm 0.00 in0.0 mm 0.02 in0.5 mm
08:29 AM 44.4°F6.9°C 42.8°F6.0°C 94% 16.0 mph WSW25.7 kmh WSW 18.0 mph29.0 kmh 30.18 in1022.0 mb 0.01 in0.3 mm 0.00 in0.0 mm 0.02 in0.5 mm
08:30 AM 44.4°F6.9°C 42.8°F6.0°C 94% 16.0 mph WSW25.7 kmh WSW 17.0 mph27.4 kmh 30.18 in1022.0 mb 0.01 in0.3 mm 0.00 in0.0 mm 0.02 in0.5 mm
08:31 AM 44.4°F6.9°C 42.5°F5.8°C 93% 15.0 mph WSW24.1 kmh WSW 18.0 mph29.0 kmh 30.18 in1022.0 mb 0.01 in0.3 mm 0.00 in0.0 mm 0.02 in0.5 mm
08:32 AM 44.4°F6.9°C 42.5°F5.8°C 93% 16.0 mph W25.7 kmh W 19.0 mph30.6 kmh 30.18 in1022.0 mb 0.01 in0.3 mm 0.00 in0.0 mm 0.02 in0.5 mm
08:33 AM 44.3°F6.8°C 42.4°F5.8°C 93% 15.0 mph WSW24.1 kmh WSW 18.0 mph29.0 kmh 30.18 in1022.0 mb 0.01 in0.3 mm 0.00 in0.0 mm 0.02 in0.5 mm
08:34 AM 44.3°F6.8°C 42.4°F5.8°C 93% 16.0 mph W25.7 kmh W 18.0 mph29.0 kmh 30.18 in1022.0 mb 0.00 in0.0 mm 0.00 in0.0 mm 0.02 in0.5 mm
08:35 AM 44.3°F6.8°C 42.4°F5.8°C 93% 14.0 mph WSW22.5 kmh WSW 17.0 mph27.4 kmh 30.18 in1022.0 mb 0.00 in0.0 mm 0.00 in0.0 mm 0.02 in0.5 mm
08:36 AM 44.3°F6.8°C 42.4°F5.8°C 93% 14.0 mph WSW22.5 kmh WSW 17.0 mph27.4 kmh 30.18 in1022.0 mb 0.00 in0.0 mm 0.00 in0.0 mm 0.02 in0.5 mm
08:37 AM 44.4°F6.9°C 42.5°F5.8°C 93% 14.0 mph WSW22.5 kmh WSW 15.0 mph24.1 kmh 30.18 in1022.0 mb 0.00 in0.0 mm 0.00 in0.0 mm 0.02 in0.5 mm
08:38 AM 44.3°F6.8°C 42.4°F5.8°C 93% 14.0 mph WSW22.5 kmh WSW 16.0 mph25.7 kmh 30.18 in1022.0 mb 0.00 in0.0 mm 0.00 in0.0 mm 0.02 in0.5 mm
08:39 AM 44.3°F6.8°C 42.4°F5.8°C 93% 16.0 mph WSW25.7 kmh WSW 17.0 mph27.4 kmh 30.18 in1022.0 mb 0.00 in0.0 mm 0.00 in0.0 mm 0.02 in0.5 mm
08:40 AM 44.3°F6.8°C 42.4°F5.8°C 93% 15.0 mph WSW24.1 kmh WSW 18.0 mph29.0 kmh 30.18 in1022.0 mb 0.00 in0.0 mm 0.00 in0.0 mm 0.02 in0.5 mm
08:41 AM 44.3°F6.8°C 42.4°F5.8°C 93% 17.0 mph WSW27.4 kmh WSW 20.0 mph32.2 kmh 30.18 in1022.0 mb 0.00 in0.0 mm 0.00 in0.0 mm 0.02 in0.5 mm
08:42 AM 44.4°F6.9°C 42.5°F5.8°C 93% 16.0 mph WSW25.7 kmh WSW 18.0 mph29.0 kmh 30.18 in1022.0 mb 0.00 in0.0 mm 0.00 in0.0 mm 0.02 in0.5 mm
08:43 AM 44.4°F6.9°C 42.5°F5.8°C 93% 16.0 mph WSW25.7 kmh WSW 17.0 mph27.4 kmh 30.18 in1022.0 mb 0.00 in0.0 mm 0.00 in0.0 mm 0.02 in0.5 mm
08:44 AM 44.4°F6.9°C 42.5°F5.8°C 93% 15.0 mph WSW24.1 kmh WSW 17.0 mph27.4 kmh 30.18 in1022.0 mb 0.00 in0.0 mm 0.00 in0.0 mm 0.02 in0.5 mm
08:45 AM 44.2°F6.8°C 42.3°F5.7°C 93% 14.0 mph W22.5 kmh W 16.0 mph25.7 kmh 30.18 in1022.0 mb 0.00 in0.0 mm 0.00 in0.0 mm 0.02 in0.5 mm
08:46 AM 44.2°F6.8°C 42.3°F5.7°C 93% 14.0 mph W22.5 kmh W 16.0 mph25.7 kmh 30.18 in1022.0 mb 0.00 in0.0 mm 0.00 in0.0 mm 0.02 in0.5 mm
08:47 AM 44.3°F6.8°C 42.4°F5.8°C 93% 15.0 mph W24.1 kmh W 17.0 mph27.4 kmh 30.18 in1022.0 mb 0.00 in0.0 mm 0.00 in0.0 mm 0.02 in0.5 mm
08:48 AM 44.4°F6.9°C 42.5°F5.8°C 93% 17.0 mph W27.4 kmh W 19.0 mph30.6 kmh 30.18 in1022.0 mb 0.00 in0.0 mm 0.00 in0.0 mm 0.02 in0.5 mm
08:49 AM 44.4°F6.9°C 42.5°F5.8°C 93% 16.0 mph W25.7 kmh W 18.0 mph29.0 kmh 30.19 in1022.4 mb 0.00 in0.0 mm 0.00 in0.0 mm 0.02 in0.5 mm
08:50 AM 44.4°F6.9°C 42.5°F5.8°C 93% 15.0 mph WSW24.1 kmh WSW 17.0 mph27.4 kmh 30.18 in1022.0 mb 0.00 in0.0 mm 0.00 in0.0 mm 0.02 in0.5 mm
08:51 AM 44.4°F6.9°C 42.5°F5.8°C 93% 14.0 mph WSW22.5 kmh WSW 18.0 mph29.0 kmh 30.19 in1022.4 mb 0.00 in0.0 mm 0.00 in0.0 mm 0.02 in0.5 mm
08:52 AM 44.4°F6.9°C 42.5°F5.8°C 93% 14.0 mph WSW22.5 kmh WSW 17.0 mph27.4 kmh 30.18 in1022.0 mb 0.00 in0.0 mm 0.00 in0.0 mm 0.02 in0.5 mm
08:53 AM 44.3°F6.8°C 42.4°F5.8°C 93% 17.0 mph W27.4 kmh W 19.0 mph30.6 kmh 30.18 in1022.0 mb 0.00 in0.0 mm 0.00 in0.0 mm 0.02 in0.5 mm
08:54 AM 44.4°F6.9°C 42.5°F5.8°C 93% 17.0 mph W27.4 kmh W 19.0 mph30.6 kmh 30.18 in1022.0 mb 0.00 in0.0 mm 0.00 in0.0 mm 0.02 in0.5 mm
08:55 AM 44.4°F6.9°C 42.5°F5.8°C 93% 16.0 mph WSW25.7 kmh WSW 19.0 mph30.6 kmh 30.18 in1022.0 mb 0.00 in0.0 mm 0.00 in0.0 mm 0.02 in0.5 mm
08:56 AM 44.4°F6.9°C 42.5°F5.8°C 93% 16.0 mph WSW25.7 kmh WSW 19.0 mph30.6 kmh 30.18 in1022.0 mb 0.00 in0.0 mm 0.00 in0.0 mm 0.02 in0.5 mm
08:57 AM 44.4°F6.9°C 42.5°F5.8°C 93% 16.0 mph WSW25.7 kmh WSW 18.0 mph29.0 kmh 30.18 in1022.0 mb 0.00 in0.0 mm 0.00 in0.0 mm 0.02 in0.5 mm
08:58 AM 44.4°F6.9°C 42.5°F5.8°C 93% 16.0 mph W25.7 kmh W 18.0 mph29.0 kmh 30.18 in1022.0 mb 0.00 in0.0 mm 0.00 in0.0 mm 0.02 in0.5 mm
08:59 AM 44.4°F6.9°C 42.5°F5.8°C 93% 15.0 mph WSW24.1 kmh WSW 17.0 mph27.4 kmh 30.18 in1022.0 mb 0.00 in0.0 mm 0.00 in0.0 mm 0.02 in0.5 mm
09:00 AM 44.4°F6.9°C 42.5°F5.8°C 93% 15.0 mph WSW24.1 kmh WSW 17.0 mph27.4 kmh 30.18 in1022.0 mb 0.00 in0.0 mm 0.00 in0.0 mm 0.02 in0.5 mm
09:01 AM 44.4°F6.9°C 42.5°F5.8°C 93% 16.0 mph WSW25.7 kmh WSW 18.0 mph29.0 kmh 30.18 in1022.0 mb 0.00 in0.0 mm 0.00 in0.0 mm 0.02 in0.5 mm
09:02 AM 44.4°F6.9°C 42.5°F5.8°C 93% 15.0 mph W24.1 kmh W 17.0 mph27.4 kmh 30.18 in1022.0 mb 0.00 in0.0 mm 0.00 in0.0 mm 0.02 in0.5 mm
09:03 AM 44.4°F6.9°C 42.5°F5.8°C 93% 14.0 mph WSW22.5 kmh WSW 17.0 mph27.4 kmh 30.19 in1022.4 mb 0.00 in0.0 mm 0.00 in0.0 mm 0.02 in0.5 mm
09:04 AM 44.4°F6.9°C 42.5°F5.8°C 93% 16.0 mph W25.7 kmh W 17.0 mph27.4 kmh 30.19 in1022.4 mb 0.00 in0.0 mm 0.00 in0.0 mm 0.02 in0.5 mm
09:05 AM 44.4°F6.9°C 42.5°F5.8°C 93% 14.0 mph WSW22.5 kmh WSW 18.0 mph29.0 kmh 30.19 in1022.4 mb 0.00 in0.0 mm 0.00 in0.0 mm 0.02 in0.5 mm
09:06 AM 44.4°F6.9°C 42.5°F5.8°C 93% 14.0 mph W22.5 kmh W 15.0 mph24.1 kmh 30.19 in1022.4 mb 0.00 in0.0 mm 0.00 in0.0 mm 0.02 in0.5 mm
09:07 AM 44.4°F6.9°C 42.5°F5.8°C 93% 16.0 mph WSW25.7 kmh WSW 20.0 mph32.2 kmh 30.19 in1022.4 mb 0.00 in0.0 mm 0.00 in0.0 mm 0.02 in0.5 mm
09:08 AM 44.5°F6.9°C 42.6°F5.9°C 93% 15.0 mph WSW24.1 kmh WSW 17.0 mph27.4 kmh 30.19 in1022.4 mb 0.00 in0.0 mm 0.00 in0.0 mm 0.02 in0.5 mm
09:09 AM 44.5°F6.9°C 42.9°F6.1°C 94% 16.0 mph WSW25.7 kmh WSW 18.0 mph29.0 kmh 30.18 in1022.0 mb 0.00 in0.0 mm 0.00 in0.0 mm 0.02 in0.5 mm
09:10 AM 44.5°F6.9°C 42.6°F5.9°C 93% 17.0 mph W27.4 kmh W 20.0 mph32.2 kmh 30.18 in1022.0 mb 0.00 in0.0 mm 0.00 in0.0 mm 0.02 in0.5 mm
09:11 AM 44.5°F6.9°C 42.9°F6.1°C 94% 14.0 mph WSW22.5 kmh WSW 16.0 mph25.7 kmh 30.18 in1022.0 mb 0.00 in0.0 mm 0.00 in0.0 mm 0.02 in0.5 mm
09:12 AM 44.4°F6.9°C 42.5°F5.8°C 93% 16.0 mph WSW25.7 kmh WSW 18.0 mph29.0 kmh 30.18 in1022.0 mb 0.00 in0.0 mm 0.00 in0.0 mm 0.02 in0.5 mm
09:13 AM 44.5°F6.9°C 42.6°F5.9°C 93% 15.0 mph W24.1 kmh W 16.0 mph25.7 kmh 30.18 in1022.0 mb 0.00 in0.0 mm 0.00 in0.0 mm 0.02 in0.5 mm
09:14 AM 44.4°F6.9°C 42.5°F5.8°C 93% 16.0 mph W25.7 kmh W 18.0 mph29.0 kmh 30.19 in1022.4 mb 0.00 in0.0 mm 0.00 in0.0 mm 0.02 in0.5 mm
09:15 AM 44.5°F6.9°C 42.6°F5.9°C 93% 15.0 mph W24.1 kmh W 18.0 mph29.0 kmh 30.19 in1022.4 mb 0.00 in0.0 mm 0.00 in0.0 mm 0.02 in0.5 mm
09:16 AM 44.5°F6.9°C 42.9°F6.1°C 94% 15.0 mph WSW24.1 kmh WSW 18.0 mph29.0 kmh 30.19 in1022.4 mb 0.00 in0.0 mm 0.00 in0.0 mm 0.02 in0.5 mm
09:17 AM 44.5°F6.9°C 42.9°F6.1°C 94% 14.0 mph W22.5 kmh W 16.0 mph25.7 kmh 30.19 in1022.4 mb 0.00 in0.0 mm 0.00 in0.0 mm 0.02 in0.5 mm
09:18 AM 44.5°F6.9°C 42.6°F5.9°C 93% 15.0 mph W24.1 kmh W 16.0 mph25.7 kmh 30.19 in1022.4 mb 0.00 in0.0 mm 0.00 in0.0 mm 0.02 in0.5 mm
09:19 AM 44.6°F7.0°C 43.0°F6.1°C 94% 14.0 mph W22.5 kmh W 16.0 mph25.7 kmh 30.19 in1022.4 mb 0.00 in0.0 mm 0.00 in0.0 mm 0.02 in0.5 mm
09:20 AM 44.5°F6.9°C 42.9°F6.1°C 94% 14.0 mph W22.5 kmh W 16.0 mph25.7 kmh 30.19 in1022.4 mb 0.00 in0.0 mm 0.00 in0.0 mm 0.02 in0.5 mm
09:21 AM 44.4°F6.9°C 42.5°F5.8°C 93% 14.0 mph WSW22.5 kmh WSW 15.0 mph24.1 kmh 30.19 in1022.4 mb 0.00 in0.0 mm 0.00 in0.0 mm 0.02 in0.5 mm
09:22 AM 44.5°F6.9°C 42.6°F5.9°C 93% 15.0 mph WSW24.1 kmh WSW 16.0 mph25.7 kmh 30.19 in1022.4 mb 0.00 in0.0 mm 0.00 in0.0 mm 0.02 in0.5 mm
09:23 AM 44.5°F6.9°C 42.9°F6.1°C 94% 14.0 mph WSW22.5 kmh WSW 16.0 mph25.7 kmh 30.19 in1022.4 mb 0.00 in0.0 mm 0.00 in0.0 mm 0.02 in0.5 mm
09:24 AM 44.5°F6.9°C 42.9°F6.1°C 94% 15.0 mph WSW24.1 kmh WSW 16.0 mph25.7 kmh 30.19 in1022.4 mb 0.00 in0.0 mm 0.00 in0.0 mm 0.02 in0.5 mm
09:25 AM 44.5°F6.9°C 42.9°F6.1°C 94% 14.0 mph WSW22.5 kmh WSW 16.0 mph25.7 kmh 30.19 in1022.4 mb 0.00 in0.0 mm 0.00 in0.0 mm 0.02 in0.5 mm
09:26 AM 44.6°F7.0°C 43.0°F6.1°C 94% 14.0 mph WSW22.5 kmh WSW 16.0 mph25.7 kmh 30.19 in1022.4 mb 0.00 in0.0 mm 0.00 in0.0 mm 0.02 in0.5 mm
09:27 AM 44.4°F6.9°C 42.8°F6.0°C 94% 14.0 mph WSW22.5 kmh WSW 16.0 mph25.7 kmh 30.19 in1022.4 mb 0.00 in0.0 mm 0.00 in0.0 mm 0.02 in0.5 mm
09:28 AM 44.5°F6.9°C 42.6°F5.9°C 93% 14.0 mph WSW22.5 kmh WSW 15.0 mph24.1 kmh 30.19 in1022.4 mb 0.00 in0.0 mm 0.00 in0.0 mm 0.02 in0.5 mm
09:29 AM 44.5°F6.9°C 42.9°F6.1°C 94% 14.0 mph WSW22.5 kmh WSW 17.0 mph27.4 kmh 30.19 in1022.4 mb 0.00 in0.0 mm 0.00 in0.0 mm 0.02 in0.5 mm
09:30 AM 44.5°F6.9°C 42.9°F6.1°C 94% 13.0 mph WSW20.9 kmh WSW 15.0 mph24.1 kmh 30.19 in1022.4 mb 0.00 in0.0 mm 0.00 in0.0 mm 0.02 in0.5 mm
09:31 AM 44.5°F6.9°C 42.9°F6.1°C 94% 12.0 mph WSW19.3 kmh WSW 14.0 mph22.5 kmh 30.19 in1022.4 mb 0.00 in0.0 mm 0.00 in0.0 mm 0.02 in0.5 mm
09:32 AM 44.5°F6.9°C 42.6°F5.9°C 93% 11.0 mph WSW17.7 kmh WSW 13.0 mph20.9 kmh 30.19 in1022.4 mb 0.00 in0.0 mm 0.00 in0.0 mm 0.02 in0.5 mm
09:33 AM 44.4°F6.9°C 42.5°F5.8°C 93% 11.0 mph WSW17.7 kmh WSW 12.0 mph19.3 kmh 30.19 in1022.4 mb 0.00 in0.0 mm 0.00 in0.0 mm 0.02 in0.5 mm
09:34 AM 44.4°F6.9°C 42.5°F5.8°C 93% 12.0 mph WSW19.3 kmh WSW 14.0 mph22.5 kmh 30.19 in1022.4 mb 0.00 in0.0 mm 0.00 in0.0 mm 0.02 in0.5 mm
09:35 AM 44.4°F6.9°C 42.5°F5.8°C 93% 11.0 mph WSW17.7 kmh WSW 12.0 mph19.3 kmh 30.19 in1022.4 mb 0.00 in0.0 mm 0.00 in0.0 mm 0.02 in0.5 mm
09:36 AM 44.4°F6.9°C 42.5°F5.8°C 93% 12.0 mph WSW19.3 kmh WSW 14.0 mph22.5 kmh 30.19 in1022.4 mb 0.00 in0.0 mm 0.00 in0.0 mm 0.02 in0.5 mm
09:37 AM 44.4°F6.9°C 42.5°F5.8°C 93% 12.0 mph WSW19.3 kmh WSW 14.0 mph22.5 kmh 30.19 in1022.4 mb 0.00 in0.0 mm 0.00 in0.0 mm 0.02 in0.5 mm
09:38 AM 44.5°F6.9°C 42.6°F5.9°C 93% 12.0 mph WSW19.3 kmh WSW 14.0 mph22.5 kmh 30.19 in1022.4 mb 0.00 in0.0 mm 0.00 in0.0 mm 0.02 in0.5 mm
09:39 AM 44.4°F6.9°C 42.5°F5.8°C 93% 12.0 mph WSW19.3 kmh WSW 14.0 mph22.5 kmh 30.19 in1022.4 mb 0.00 in0.0 mm 0.00 in0.0 mm 0.02 in0.5 mm
09:40 AM 44.5°F6.9°C 42.6°F5.9°C 93% 13.0 mph WSW20.9 kmh WSW 15.0 mph24.1 kmh 30.19 in1022.4 mb 0.00 in0.0 mm 0.00 in0.0 mm 0.02 in0.5 mm
09:41 AM 44.5°F6.9°C 42.9°F6.1°C 94% 13.0 mph WSW20.9 kmh WSW 14.0 mph22.5 kmh 30.19 in1022.4 mb 0.00 in0.0 mm 0.00 in0.0 mm 0.02 in0.5 mm
09:42 AM 44.5°F6.9°C 42.9°F6.1°C 94% 12.0 mph WSW19.3 kmh WSW 14.0 mph22.5 kmh 30.20 in1022.7 mb 0.00 in0.0 mm 0.00 in0.0 mm 0.02 in0.5 mm
09:43 AM 44.4°F6.9°C 42.5°F5.8°C 93% 13.0 mph WSW20.9 kmh WSW 15.0 mph24.1 kmh 30.20 in1022.7 mb 0.00 in0.0 mm 0.00 in0.0 mm 0.02 in0.5 mm
09:44 AM 44.4°F6.9°C 42.5°F5.8°C 93% 14.0 mph WSW22.5 kmh WSW 15.0 mph24.1 kmh 30.20 in1022.7 mb 0.00 in0.0 mm 0.00 in0.0 mm 0.02 in0.5 mm
09:45 AM 44.4°F6.9°C 42.5°F5.8°C 93% 13.0 mph WSW20.9 kmh WSW 15.0 mph24.1 kmh 30.20 in1022.7 mb 0.00 in0.0 mm 0.00 in0.0 mm 0.02 in0.5 mm
09:46 AM 44.4°F6.9°C 42.5°F5.8°C 93% 14.0 mph WSW22.5 kmh WSW 15.0 mph24.1 kmh 30.20 in1022.7 mb 0.00 in0.0 mm 0.00 in0.0 mm 0.02 in0.5 mm
09:47 AM 44.4°F6.9°C 42.5°F5.8°C 93% 14.0 mph WSW22.5 kmh WSW 15.0 mph24.1 kmh 30.20 in1022.7 mb 0.00 in0.0 mm 0.00 in0.0 mm 0.02 in0.5 mm
09:48 AM 44.4°F6.9°C 42.5°F5.8°C 93% 13.0 mph WSW20.9 kmh WSW 15.0 mph24.1 kmh 30.20 in1022.7 mb 0.00 in0.0 mm 0.00 in0.0 mm 0.02 in0.5 mm
09:49 AM 44.5°F6.9°C 42.6°F5.9°C 93% 14.0 mph WSW22.5 kmh WSW 16.0 mph25.7 kmh 30.20 in1022.7 mb 0.00 in0.0 mm 0.00 in0.0 mm 0.02 in0.5 mm
09:50 AM 44.6°F7.0°C 43.0°F6.1°C 94% 13.0 mph WSW20.9 kmh WSW 15.0 mph24.1 kmh 30.20 in1022.7 mb 0.00 in0.0 mm 0.00 in0.0 mm 0.02 in0.5 mm
09:51 AM 44.5°F6.9°C 42.9°F6.1°C 94% 13.0 mph WSW20.9 kmh WSW 14.0 mph22.5 kmh 30.20 in1022.7 mb 0.00 in0.0 mm 0.00 in0.0 mm 0.02 in0.5 mm
09:52 AM 44.6°F7.0°C 43.0°F6.1°C 94% 14.0 mph W22.5 kmh W 16.0 mph25.7 kmh 30.20 in1022.7 mb 0.00 in0.0 mm 0.00 in0.0 mm 0.02 in0.5 mm
09:53 AM 44.7°F7.1°C 43.1°F6.2°C 94% 14.0 mph W22.5 kmh W 16.0 mph25.7 kmh 30.20 in1022.7 mb 0.00 in0.0 mm 0.00 in0.0 mm 0.02 in0.5 mm
09:54 AM 44.7°F7.1°C 43.1°F6.2°C 94% 12.0 mph W19.3 kmh W 14.0 mph22.5 kmh 30.20 in1022.7 mb 0.00 in0.0 mm 0.00 in0.0 mm 0.02 in0.5 mm
09:55 AM 44.6°F7.0°C 43.0°F6.1°C 94% 12.0 mph W19.3 kmh W 15.0 mph24.1 kmh 30.20 in1022.7 mb 0.00 in0.0 mm 0.00 in0.0 mm 0.02 in0.5 mm
09:56 AM 44.6°F7.0°C 42.7°F5.9°C 93% 13.0 mph W20.9 kmh W 15.0 mph24.1 kmh 30.20 in1022.7 mb 0.00 in0.0 mm 0.00 in0.0 mm 0.02 in0.5 mm
09:57 AM 44.7°F7.1°C 42.8°F6.0°C 93% 15.0 mph W24.1 kmh W 16.0 mph25.7 kmh 30.20 in1022.7 mb 0.00 in0.0 mm 0.00 in0.0 mm 0.02 in0.5 mm
09:58 AM 44.8°F7.1°C 43.2°F6.2°C 94% 13.0 mph W20.9 kmh W 15.0 mph24.1 kmh 30.20 in1022.7 mb 0.00 in0.0 mm 0.00 in0.0 mm 0.02 in0.5 mm
09:59 AM 44.8°F7.1°C 43.2°F6.2°C 94% 14.0 mph W22.5 kmh W 16.0 mph25.7 kmh 30.21 in1023.0 mb 0.00 in0.0 mm 0.00 in0.0 mm 0.02 in0.5 mm
10:00 AM 44.8°F7.1°C 42.9°F6.1°C 93% 14.0 mph W22.5 kmh W 15.0 mph24.1 kmh 30.21 in1023.0 mb 0.00 in0.0 mm 0.00 in0.0 mm 0.02 in0.5 mm
10:01 AM 44.8°F7.1°C 42.9°F6.1°C 93% 17.0 mph W27.4 kmh W 20.0 mph32.2 kmh 30.21 in1023.0 mb 0.00 in0.0 mm 0.00 in0.0 mm 0.02 in0.5 mm
10:02 AM 44.9°F7.2°C 43.0°F6.1°C 93% 18.0 mph W29.0 kmh W 19.0 mph30.6 kmh 30.21 in1023.0 mb 0.00 in0.0 mm 0.00 in0.0 mm 0.02 in0.5 mm
10:03 AM 45.0°F7.2°C 43.1°F6.2°C 93% 14.0 mph W22.5 kmh W 17.0 mph27.4 kmh 30.21 in1023.0 mb 0.00 in0.0 mm 0.00 in0.0 mm 0.02 in0.5 mm
10:04 AM 44.9°F7.2°C 43.0°F6.1°C 93% 15.0 mph W24.1 kmh W 18.0 mph29.0 kmh 30.21 in1023.0 mb 0.00 in0.0 mm 0.00 in0.0 mm 0.02 in0.5 mm
10:05 AM 44.9°F7.2°C 43.0°F6.1°C 93% 16.0 mph W25.7 kmh W 17.0 mph27.4 kmh 30.21 in1023.0 mb 0.00 in0.0 mm 0.00 in0.0 mm 0.02 in0.5 mm
10:06 AM 44.9°F7.2°C 43.0°F6.1°C 93% 17.0 mph W27.4 kmh W 18.0 mph29.0 kmh 30.21 in1023.0 mb 0.00 in0.0 mm 0.00 in0.0 mm 0.02 in0.5 mm
10:07 AM 44.9°F7.2°C 43.0°F6.1°C 93% 16.0 mph W25.7 kmh W 17.0 mph27.4 kmh 30.21 in1023.0 mb 0.00 in0.0 mm 0.00 in0.0 mm 0.02 in0.5 mm
10:08 AM 44.9°F7.2°C 43.0°F6.1°C 93% 14.0 mph W22.5 kmh W 17.0 mph27.4 kmh 30.21 in1023.0 mb 0.00 in0.0 mm 0.00 in0.0 mm 0.02 in0.5 mm
10:09 AM 44.9°F7.2°C 43.0°F6.1°C 93% 14.0 mph W22.5 kmh W 16.0 mph25.7 kmh 30.21 in1023.0 mb 0.00 in0.0 mm 0.00 in0.0 mm 0.02 in0.5 mm
10:10 AM 44.9°F7.2°C 43.0°F6.1°C 93% 15.0 mph W24.1 kmh W 17.0 mph27.4 kmh 30.21 in1023.0 mb 0.00 in0.0 mm 0.00 in0.0 mm 0.02 in0.5 mm
10:11 AM 44.9°F7.2°C 43.0°F6.1°C 93% 15.0 mph W24.1 kmh W 17.0 mph27.4 kmh 30.21 in1023.0 mb 0.00 in0.0 mm 0.00 in0.0 mm 0.02 in0.5 mm
10:12 AM 44.9°F7.2°C 43.0°F6.1°C 93% 16.0 mph W25.7 kmh W 17.0 mph27.4 kmh 30.21 in1023.0 mb 0.00 in0.0 mm 0.00 in0.0 mm 0.02 in0.5 mm
10:13 AM 45.0°F7.2°C 43.1°F6.2°C 93% 16.0 mph W25.7 kmh W 18.0 mph29.0 kmh 30.22 in1023.4 mb 0.00 in0.0 mm 0.00 in0.0 mm 0.02 in0.5 mm
10:14 AM 45.0°F7.2°C 43.1°F6.2°C 93% 14.0 mph W22.5 kmh W 15.0 mph24.1 kmh 30.22 in1023.4 mb 0.00 in0.0 mm 0.00 in0.0 mm 0.02 in0.5 mm
10:15 AM 44.9°F7.2°C 43.0°F6.1°C 93% 15.0 mph W24.1 kmh W 16.0 mph25.7 kmh 30.22 in1023.4 mb 0.00 in0.0 mm 0.00 in0.0 mm 0.02 in0.5 mm
10:16 AM 45.0°F7.2°C 43.1°F6.2°C 93% 14.0 mph W22.5 kmh W 15.0 mph24.1 kmh 30.22 in1023.4 mb 0.00 in0.0 mm 0.00 in0.0 mm 0.02 in0.5 mm
10:17 AM 44.9°F7.2°C 43.0°F6.1°C 93% 14.0 mph W22.5 kmh W 16.0 mph25.7 kmh 30.22 in1023.4 mb 0.00 in0.0 mm 0.00 in0.0 mm 0.02 in0.5 mm
10:18 AM 45.0°F7.2°C 43.1°F6.2°C 93% 13.0 mph W20.9 kmh W 15.0 mph24.1 kmh 30.22 in1023.4 mb 0.00 in0.0 mm 0.00 in0.0 mm 0.02 in0.5 mm
10:19 AM 45.0°F7.2°C 43.1°F6.2°C 93% 14.0 mph W22.5 kmh W 16.0 mph25.7 kmh 30.22 in1023.4 mb 0.00 in0.0 mm 0.00 in0.0 mm 0.02 in0.5 mm
10:20 AM 44.9°F7.2°C 43.0°F6.1°C 93% 14.0 mph W22.5 kmh W 16.0 mph25.7 kmh 30.22 in1023.4 mb 0.00 in0.0 mm 0.00 in0.0 mm 0.02 in0.5 mm
10:21 AM 44.9°F7.2°C 43.0°F6.1°C 93% 14.0 mph W22.5 kmh W 15.0 mph24.1 kmh 30.22 in1023.4 mb 0.00 in0.0 mm 0.00 in0.0 mm 0.02 in0.5 mm
10:22 AM 45.0°F7.2°C 43.1°F6.2°C 93% 13.0 mph W20.9 kmh W 16.0 mph25.7 kmh 30.22 in1023.4 mb 0.00 in0.0 mm 0.00 in0.0 mm 0.02 in0.5 mm
10:23 AM 44.9°F7.2°C 43.0°F6.1°C 93% 12.0 mph W19.3 kmh W 14.0 mph22.5 kmh 30.22 in1023.4 mb 0.00 in0.0 mm 0.00 in0.0 mm 0.02 in0.5 mm
10:24 AM 45.0°F7.2°C 43.1°F6.2°C 93% 13.0 mph W20.9 kmh W 14.0 mph22.5 kmh 30.22 in1023.4 mb 0.00 in0.0 mm 0.00 in0.0 mm 0.02 in0.5 mm
10:25 AM 45.0°F7.2°C 43.1°F6.2°C 93% 12.0 mph W19.3 kmh W 14.0 mph22.5 kmh 30.22 in1023.4 mb 0.00 in0.0 mm 0.00 in0.0 mm 0.02 in0.5 mm
10:26 AM 45.0°F7.2°C 43.1°F6.2°C 93% 11.0 mph W17.7 kmh W 13.0 mph20.9 kmh 30.22 in1023.4 mb 0.00 in0.0 mm 0.00 in0.0 mm 0.02 in0.5 mm
10:27 AM 45.0°F7.2°C 43.1°F6.2°C 93% 10.0 mph W16.1 kmh W 12.0 mph19.3 kmh 30.22 in1023.4 mb 0.00 in0.0 mm 0.00 in0.0 mm 0.02 in0.5 mm
10:28 AM 45.0°F7.2°C 43.1°F6.2°C 93% 12.0 mph W19.3 kmh W 14.0 mph22.5 kmh 30.22 in1023.4 mb 0.00 in0.0 mm 0.00 in0.0 mm 0.02 in0.5 mm
10:29 AM 45.0°F7.2°C 43.1°F6.2°C 93% 11.0 mph W17.7 kmh W 12.0 mph19.3 kmh 30.22 in1023.4 mb 0.00 in0.0 mm 0.00 in0.0 mm 0.02 in0.5 mm
10:30 AM 45.0°F7.2°C 43.1°F6.2°C 93% 11.0 mph W17.7 kmh W 13.0 mph20.9 kmh 30.22 in1023.4 mb 0.00 in0.0 mm 0.00 in0.0 mm 0.02 in0.5 mm
10:31 AM 45.0°F7.2°C 43.1°F6.2°C 93% 12.0 mph W19.3 kmh W 14.0 mph22.5 kmh 30.23 in1023.7 mb 0.00 in0.0 mm 0.00 in0.0 mm 0.02 in0.5 mm
10:32 AM 45.1°F7.3°C 43.2°F6.2°C 93% 13.0 mph W20.9 kmh W 15.0 mph24.1 kmh 30.22 in1023.4 mb 0.00 in0.0 mm 0.00 in0.0 mm 0.02 in0.5 mm
10:33 AM 45.2°F7.3°C 43.3°F6.3°C 93% 12.0 mph W19.3 kmh W 15.0 mph24.1 kmh 30.22 in1023.4 mb 0.00 in0.0 mm 0.00 in0.0 mm 0.02 in0.5 mm
10:34 AM 45.2°F7.3°C 43.6°F6.4°C 94% 13.0 mph W20.9 kmh W 14.0 mph22.5 kmh 30.22 in1023.4 mb 0.00 in0.0 mm 0.00 in0.0 mm 0.02 in0.5 mm
10:35 AM 45.2°F7.3°C 43.3°F6.3°C 93% 11.0 mph W17.7 kmh W 12.0 mph19.3 kmh 30.22 in1023.4 mb 0.00 in0.0 mm 0.00 in0.0 mm 0.02 in0.5 mm
10:36 AM 45.2°F7.3°C 43.3°F6.3°C 93% 11.0 mph W17.7 kmh W 13.0 mph20.9 kmh 30.22 in1023.4 mb 0.00 in0.0 mm 0.00 in0.0 mm 0.02 in0.5 mm
10:37 AM 45.2°F7.3°C 43.3°F6.3°C 93% 11.0 mph W17.7 kmh W 12.0 mph19.3 kmh 30.22 in1023.4 mb 0.00 in0.0 mm 0.00 in0.0 mm 0.02 in0.5 mm
10:38 AM 45.2°F7.3°C 43.3°F6.3°C 93% 11.0 mph W17.7 kmh W 14.0 mph22.5 kmh 30.22 in1023.4 mb 0.00 in0.0 mm 0.00 in0.0 mm 0.02 in0.5 mm
10:39 AM 45.2°F7.3°C 43.3°F6.3°C 93% 11.0 mph W17.7 kmh W 13.0 mph20.9 kmh 30.22 in1023.4 mb 0.00 in0.0 mm 0.00 in0.0 mm 0.02 in0.5 mm
10:40 AM 45.2°F7.3°C 43.3°F6.3°C 93% 10.0 mph W16.1 kmh W 12.0 mph19.3 kmh 30.22 in1023.4 mb 0.00 in0.0 mm 0.00 in0.0 mm 0.02 in0.5 mm
10:41 AM 45.4°F7.4°C 43.5°F6.4°C 93% 11.0 mph W17.7 kmh W 13.0 mph20.9 kmh 30.22 in1023.4 mb 0.00 in0.0 mm 0.00 in0.0 mm 0.02 in0.5 mm
10:42 AM 45.3°F7.4°C 43.4°F6.3°C 93% 10.0 mph W16.1 kmh W 12.0 mph19.3 kmh 30.22 in1023.4 mb 0.00 in0.0 mm 0.00 in0.0 mm 0.02 in0.5 mm
10:43 AM 45.3°F7.4°C 43.4°F6.3°C 93% 11.0 mph W17.7 kmh W 12.0 mph19.3 kmh 30.22 in1023.4 mb 0.00 in0.0 mm 0.00 in0.0 mm 0.02 in0.5 mm
10:44 AM 45.3°F7.4°C 43.4°F6.3°C 93% 12.0 mph W19.3 kmh W 14.0 mph22.5 kmh 30.22 in1023.4 mb 0.00 in0.0 mm 0.00 in0.0 mm 0.02 in0.5 mm
10:45 AM 45.3°F7.4°C 43.4°F6.3°C 93% 11.0 mph W17.7 kmh W 13.0 mph20.9 kmh 30.23 in1023.7 mb 0.00 in0.0 mm 0.00 in0.0 mm 0.02 in0.5 mm
10:46 AM 45.3°F7.4°C 43.4°F6.3°C 93% 11.0 mph WNW17.7 kmh WNW 15.0 mph24.1 kmh 30.23 in1023.7 mb 0.00 in0.0 mm 0.00 in0.0 mm 0.02 in0.5 mm
10:47 AM 45.4°F7.4°C 43.5°F6.4°C 93% 13.0 mph WNW20.9 kmh WNW 15.0 mph24.1 kmh 30.23 in1023.7 mb 0.00 in0.0 mm 0.00 in0.0 mm 0.02 in0.5 mm
10:48 AM 45.4°F7.4°C 43.5°F6.4°C 93% 13.0 mph WNW20.9 kmh WNW 15.0 mph24.1 kmh 30.23 in1023.7 mb 0.00 in0.0 mm 0.00 in0.0 mm 0.02 in0.5 mm
10:49 AM 45.4°F7.4°C 43.5°F6.4°C 93% 14.0 mph WNW22.5 kmh WNW 16.0 mph25.7 kmh 30.23 in1023.7 mb 0.00 in0.0 mm 0.00 in0.0 mm 0.02 in0.5 mm
10:50 AM 45.4°F7.4°C 43.5°F6.4°C 93% 14.0 mph WNW22.5 kmh WNW 15.0 mph24.1 kmh 30.23 in1023.7 mb 0.00 in0.0 mm 0.00 in0.0 mm 0.02 in0.5 mm
10:51 AM 45.4°F7.4°C 43.5°F6.4°C 93% 12.0 mph WNW19.3 kmh WNW 15.0 mph24.1 kmh 30.23 in1023.7 mb 0.00 in0.0 mm 0.00 in0.0 mm 0.02 in0.5 mm
10:52 AM 45.5°F7.5°C 43.6°F6.4°C 93% 10.0 mph WNW16.1 kmh WNW 13.0 mph20.9 kmh 30.23 in1023.7 mb 0.00 in0.0 mm 0.00 in0.0 mm 0.02 in0.5 mm
10:53 AM 45.5°F7.5°C 43.6°F6.4°C 93% 12.0 mph WNW19.3 kmh WNW 13.0 mph20.9 kmh 30.23 in1023.7 mb 0.00 in0.0 mm 0.00 in0.0 mm 0.02 in0.5 mm
10:54 AM 45.5°F7.5°C 43.6°F6.4°C 93% 12.0 mph WNW19.3 kmh WNW 14.0 mph22.5 kmh 30.23 in1023.7 mb 0.00 in0.0 mm 0.00 in0.0 mm 0.02 in0.5 mm
10:55 AM 45.6°F7.6°C 43.7°F6.5°C 93% 13.0 mph WNW20.9 kmh WNW 16.0 mph25.7 kmh 30.23 in1023.7 mb 0.00 in0.0 mm 0.00 in0.0 mm 0.02 in0.5 mm
10:56 AM 45.7°F7.6°C 43.8°F6.6°C 93% 14.0 mph WNW22.5 kmh WNW 17.0 mph27.4 kmh 30.23 in1023.7 mb 0.00 in0.0 mm 0.00 in0.0 mm 0.02 in0.5 mm
10:57 AM 45.7°F7.6°C 43.8°F6.6°C 93% 14.0 mph W22.5 kmh W 17.0 mph27.4 kmh 30.23 in1023.7 mb 0.00 in0.0 mm 0.00 in0.0 mm 0.02 in0.5 mm
10:58 AM 45.7°F7.6°C 43.8°F6.6°C 93% 14.0 mph W22.5 kmh W 15.0 mph24.1 kmh 30.23 in1023.7 mb 0.00 in0.0 mm 0.00 in0.0 mm 0.02 in0.5 mm
10:59 AM 45.7°F7.6°C 43.8°F6.6°C 93% 14.0 mph W22.5 kmh W 14.0 mph22.5 kmh 30.23 in1023.7 mb 0.00 in0.0 mm 0.00 in0.0 mm 0.02 in0.5 mm
11:00 AM 45.7°F7.6°C 43.8°F6.6°C 93% 13.0 mph W20.9 kmh W 15.0 mph24.1 kmh 30.23 in1023.7 mb 0.00 in0.0 mm 0.00 in0.0 mm 0.02 in0.5 mm
11:01 AM 45.7°F7.6°C 43.8°F6.6°C 93% 12.0 mph W19.3 kmh W 14.0 mph22.5 kmh 30.23 in1023.7 mb 0.00 in0.0 mm 0.00 in0.0 mm 0.02 in0.5 mm
11:02 AM 45.8°F7.7°C 43.9°F6.6°C 93% 13.0 mph W20.9 kmh W 14.0 mph22.5 kmh 30.23 in1023.7 mb 0.00 in0.0 mm 0.00 in0.0 mm 0.02 in0.5 mm
11:03 AM 45.8°F7.7°C 43.9°F6.6°C 93% 12.0 mph W19.3 kmh W 14.0 mph22.5 kmh 30.23 in1023.7 mb 0.00 in0.0 mm 0.00 in0.0 mm 0.02 in0.5 mm
11:04 AM 45.9°F7.7°C 44.0°F6.7°C 93% 11.0 mph W17.7 kmh W 12.0 mph19.3 kmh 30.23 in1023.7 mb 0.00 in0.0 mm 0.00 in0.0 mm 0.02 in0.5 mm
11:05 AM 45.8°F7.7°C 43.9°F6.6°C 93% 11.0 mph W17.7 kmh W 13.0 mph20.9 kmh 30.23 in1023.7 mb 0.00 in0.0 mm 0.00 in0.0 mm 0.02 in0.5 mm
11:06 AM 45.8°F7.7°C 43.9°F6.6°C 93% 12.0 mph W19.3 kmh W 14.0 mph22.5 kmh 30.23 in1023.7 mb 0.00 in0.0 mm 0.00 in0.0 mm 0.02 in0.5 mm
11:07 AM 45.9°F7.7°C 44.0°F6.7°C 93% 13.0 mph W20.9 kmh W 14.0 mph22.5 kmh 30.23 in1023.7 mb 0.00 in0.0 mm 0.00 in0.0 mm 0.02 in0.5 mm
11:08 AM 45.9°F7.7°C 44.0°F6.7°C 93% 11.0 mph W17.7 kmh W 12.0 mph19.3 kmh 30.23 in1023.7 mb 0.00 in0.0 mm 0.00 in0.0 mm 0.02 in0.5 mm
11:09 AM 45.9°F7.7°C 44.0°F6.7°C 93% 11.0 mph W17.7 kmh W 13.0 mph20.9 kmh 30.23 in1023.7 mb 0.00 in0.0 mm 0.00 in0.0 mm 0.02 in0.5 mm
11:10 AM 46.0°F7.8°C 44.1°F6.7°C 93% 10.0 mph W16.1 kmh W 11.0 mph17.7 kmh 30.23 in1023.7 mb 0.00 in0.0 mm 0.00 in0.0 mm 0.02 in0.5 mm
11:11 AM 45.9°F7.7°C 44.0°F6.7°C 93% 11.0 mph W17.7 kmh W 12.0 mph19.3 kmh 30.23 in1023.7 mb 0.00 in0.0 mm 0.00 in0.0 mm 0.02 in0.5 mm
11:12 AM 46.0°F7.8°C 44.1°F6.7°C 93% 11.0 mph W17.7 kmh W 13.0 mph20.9 kmh 30.23 in1023.7 mb 0.00 in0.0 mm 0.00 in0.0 mm 0.02 in0.5 mm
11:13 AM 46.0°F7.8°C 44.1°F6.7°C 93% 11.0 mph W17.7 kmh W 11.0 mph17.7 kmh 30.23 in1023.7 mb 0.00 in0.0 mm 0.00 in0.0 mm 0.02 in0.5 mm
11:14 AM 45.9°F7.7°C 44.0°F6.7°C 93% 11.0 mph W17.7 kmh W 13.0 mph20.9 kmh 30.23 in1023.7 mb 0.00 in0.0 mm 0.00 in0.0 mm 0.02 in0.5 mm
11:15 AM 45.9°F7.7°C 43.7°F6.5°C 92% 13.0 mph W20.9 kmh W 14.0 mph22.5 kmh 30.23 in1023.7 mb 0.00 in0.0 mm 0.00 in0.0 mm 0.02 in0.5 mm
11:16 AM 46.1°F7.8°C 44.2°F6.8°C 93% 12.0 mph W19.3 kmh W 14.0 mph22.5 kmh 30.23 in1023.7 mb 0.00 in0.0 mm 0.00 in0.0 mm 0.02 in0.5 mm
11:17 AM 46.1°F7.8°C 44.2°F6.8°C 93% 12.0 mph W19.3 kmh W 14.0 mph22.5 kmh 30.23 in1023.7 mb 0.00 in0.0 mm 0.00 in0.0 mm 0.02 in0.5 mm
11:18 AM 46.2°F7.9°C 44.3°F6.8°C 93% 12.0 mph W19.3 kmh W 13.0 mph20.9 kmh 30.23 in1023.7 mb 0.00 in0.0 mm 0.00 in0.0 mm 0.02 in0.5 mm
11:19 AM 46.3°F7.9°C 44.4°F6.9°C 93% 11.0 mph W17.7 kmh W 12.0 mph19.3 kmh 30.23 in1023.7 mb 0.00 in0.0 mm 0.00 in0.0 mm 0.02 in0.5 mm
11:20 AM 46.4°F8.0°C 44.2°F6.8°C 92% 11.0 mph W17.7 kmh W 13.0 mph20.9 kmh 30.23 in1023.7 mb 0.00 in0.0 mm 0.00 in0.0 mm 0.02 in0.5 mm
11:21 AM 46.4°F8.0°C 44.2°F6.8°C 92% 11.0 mph W17.7 kmh W 13.0 mph20.9 kmh 30.23 in1023.7 mb 0.00 in0.0 mm 0.00 in0.0 mm 0.02 in0.5 mm
11:22 AM 46.5°F8.1°C 44.3°F6.8°C 92% 12.0 mph W19.3 kmh W 13.0 mph20.9 kmh 30.23 in1023.7 mb 0.00 in0.0 mm 0.00 in0.0 mm 0.02 in0.5 mm
11:23 AM 46.5°F8.1°C 44.3°F6.8°C 92% 12.0 mph W19.3 kmh W 14.0 mph22.5 kmh 30.23 in1023.7 mb 0.00 in0.0 mm 0.00 in0.0 mm 0.02 in0.5 mm
11:24 AM 46.5°F8.1°C 44.3°F6.8°C 92% 12.0 mph W19.3 kmh W 14.0 mph22.5 kmh 30.23 in1023.7 mb 0.00 in0.0 mm 0.00 in0.0 mm 0.02 in0.5 mm
11:25 AM 46.6°F8.1°C 44.4°F6.9°C 92% 10.0 mph W16.1 kmh W 13.0 mph20.9 kmh 30.23 in1023.7 mb 0.00 in0.0 mm 0.00 in0.0 mm 0.02 in0.5 mm
11:26 AM 46.7°F8.2°C 44.5°F6.9°C 92% 10.0 mph W16.1 kmh W 12.0 mph19.3 kmh 30.23 in1023.7 mb 0.00 in0.0 mm 0.00 in0.0 mm 0.02 in0.5 mm
11:27 AM 46.7°F8.2°C 44.5°F6.9°C 92% 11.0 mph W17.7 kmh W 12.0 mph19.3 kmh 30.24 in1024.0 mb 0.00 in0.0 mm 0.00 in0.0 mm 0.02 in0.5 mm
11:28 AM 46.8°F8.2°C 44.6°F7.0°C 92% 10.0 mph W16.1 kmh W 11.0 mph17.7 kmh 30.24 in1024.0 mb 0.00 in0.0 mm 0.00 in0.0 mm 0.02 in0.5 mm
11:29 AM 46.7°F8.2°C 44.5°F6.9°C 92% 12.0 mph W19.3 kmh W 15.0 mph24.1 kmh 30.24 in1024.0 mb 0.00 in0.0 mm 0.00 in0.0 mm 0.02 in0.5 mm
11:30 AM 46.8°F8.2°C 44.6°F7.0°C 92% 13.0 mph W20.9 kmh W 15.0 mph24.1 kmh 30.24 in1024.0 mb 0.00 in0.0 mm 0.00 in0.0 mm 0.02 in0.5 mm
11:31 AM 46.9°F8.3°C 44.7°F7.1°C 92% 13.0 mph W20.9 kmh W 15.0 mph24.1 kmh 30.24 in1024.0 mb 0.00 in0.0 mm 0.00 in0.0 mm 0.02 in0.5 mm
11:32 AM 47.0°F8.3°C 44.8°F7.1°C 92% 15.0 mph W24.1 kmh W 17.0 mph27.4 kmh 30.24 in1024.0 mb 0.00 in0.0 mm 0.00 in0.0 mm 0.02 in0.5 mm
11:33 AM 47.1°F8.4°C 44.9°F7.2°C 92% 13.0 mph W20.9 kmh W 16.0 mph25.7 kmh 30.24 in1024.0 mb 0.00 in0.0 mm 0.00 in0.0 mm 0.02 in0.5 mm
11:34 AM 47.2°F8.4°C 45.0°F7.2°C 92% 10.0 mph W16.1 kmh W 11.0 mph17.7 kmh 30.24 in1024.0 mb 0.00 in0.0 mm 0.00 in0.0 mm 0.02 in0.5 mm
11:35 AM 47.2°F8.4°C 45.0°F7.2°C 92% 11.0 mph W17.7 kmh W 13.0 mph20.9 kmh 30.24 in1024.0 mb 0.00 in0.0 mm 0.00 in0.0 mm 0.02 in0.5 mm
11:36 AM 47.3°F8.5°C 44.8°F7.1°C 91% 11.0 mph W17.7 kmh W 12.0 mph19.3 kmh 30.23 in1023.7 mb 0.00 in0.0 mm 0.00 in0.0 mm 0.02 in0.5 mm
11:37 AM 47.4°F8.6°C 44.9°F7.2°C 91% 12.0 mph W19.3 kmh W 14.0 mph22.5 kmh 30.23 in1023.7 mb 0.00 in0.0 mm 0.00 in0.0 mm 0.02 in0.5 mm
11:38 AM 47.5°F8.6°C 45.0°F7.2°C 91% 11.0 mph W17.7 kmh W 12.0 mph19.3 kmh 30.23 in1023.7 mb 0.00 in0.0 mm 0.00 in0.0 mm 0.02 in0.5 mm
11:39 AM 47.4°F8.6°C 44.9°F7.2°C 91% 12.0 mph W19.3 kmh W 14.0 mph22.5 kmh 30.23 in1023.7 mb 0.00 in0.0 mm 0.00 in0.0 mm 0.02 in0.5 mm
11:40 AM 47.5°F8.6°C 45.0°F7.2°C 91% 13.0 mph W20.9 kmh W 14.0 mph22.5 kmh 30.23 in1023.7 mb 0.00 in0.0 mm 0.00 in0.0 mm 0.02 in0.5 mm
11:41 AM 47.6°F8.7°C 45.1°F7.3°C 91% 12.0 mph W19.3 kmh W 15.0 mph24.1 kmh 30.23 in1023.7 mb 0.00 in0.0 mm 0.00 in0.0 mm 0.02 in0.5 mm
11:42 AM 47.6°F8.7°C 45.1°F7.3°C 91% 12.0 mph WNW19.3 kmh WNW 15.0 mph24.1 kmh 30.23 in1023.7 mb 0.00 in0.0 mm 0.00 in0.0 mm 0.02 in0.5 mm
11:43 AM 47.5°F8.6°C 44.7°F7.1°C 90% 13.0 mph W20.9 kmh W 14.0 mph22.5 kmh 30.23 in1023.7 mb 0.00 in0.0 mm 0.00 in0.0 mm 0.02 in0.5 mm
11:44 AM 47.5°F8.6°C 44.7°F7.1°C 90% 13.0 mph W20.9 kmh W 15.0 mph24.1 kmh 30.23 in1023.7 mb 0.00 in0.0 mm 0.00 in0.0 mm 0.02 in0.5 mm
11:45 AM 47.6°F8.7°C 44.8°F7.1°C 90% 14.0 mph WNW22.5 kmh WNW 16.0 mph25.7 kmh 30.24 in1024.0 mb 0.00 in0.0 mm 0.00 in0.0 mm 0.02 in0.5 mm
11:46 AM 47.7°F8.7°C 44.9°F7.2°C 90% 13.0 mph WNW20.9 kmh WNW 16.0 mph25.7 kmh 30.24 in1024.0 mb 0.00 in0.0 mm 0.00 in0.0 mm 0.02 in0.5 mm
11:47 AM 47.8°F8.8°C 45.0°F7.2°C 90% 13.0 mph WNW20.9 kmh WNW 15.0 mph24.1 kmh 30.24 in1024.0 mb 0.00 in0.0 mm 0.00 in0.0 mm 0.02 in0.5 mm
11:48 AM 47.9°F8.8°C 44.8°F7.1°C 89% 12.0 mph WNW19.3 kmh WNW 15.0 mph24.1 kmh 30.23 in1023.7 mb 0.00 in0.0 mm 0.00 in0.0 mm 0.02 in0.5 mm
11:49 AM 47.9°F8.8°C 44.8°F7.1°C 89% 12.0 mph W19.3 kmh W 13.0 mph20.9 kmh 30.23 in1023.7 mb 0.00 in0.0 mm 0.00 in0.0 mm 0.02 in0.5 mm
11:50 AM 47.8°F8.8°C 44.7°F7.1°C 89% 11.0 mph WNW17.7 kmh WNW 12.0 mph19.3 kmh 30.23 in1023.7 mb 0.00 in0.0 mm 0.00 in0.0 mm 0.02 in0.5 mm
11:51 AM 47.8°F8.8°C 44.7°F7.1°C 89% 13.0 mph WNW20.9 kmh WNW 15.0 mph24.1 kmh 30.23 in1023.7 mb 0.00 in0.0 mm 0.00 in0.0 mm 0.02 in0.5 mm
11:52 AM 47.8°F8.8°C 44.7°F7.1°C 89% 14.0 mph W22.5 kmh W 16.0 mph25.7 kmh 30.23 in1023.7 mb 0.00 in0.0 mm 0.00 in0.0 mm 0.02 in0.5 mm
11:53 AM 47.8°F8.8°C 44.7°F7.1°C 89% 11.0 mph W17.7 kmh W 12.0 mph19.3 kmh 30.23 in1023.7 mb 0.00 in0.0 mm 0.00 in0.0 mm 0.02 in0.5 mm
11:54 AM 47.9°F8.8°C 44.8°F7.1°C 89% 11.0 mph WNW17.7 kmh WNW 13.0 mph20.9 kmh 30.23 in1023.7 mb 0.00 in0.0 mm 0.00 in0.0 mm 0.02 in0.5 mm
11:55 AM 47.8°F8.8°C 44.7°F7.1°C 89% 12.0 mph W19.3 kmh W 13.0 mph20.9 kmh 30.23 in1023.7 mb 0.00 in0.0 mm 0.00 in0.0 mm 0.02 in0.5 mm
11:56 AM 47.8°F8.8°C 44.7°F7.1°C 89% 12.0 mph W19.3 kmh W 14.0 mph22.5 kmh 30.23 in1023.7 mb 0.00 in0.0 mm 0.00 in0.0 mm 0.02 in0.5 mm
11:57 AM 47.8°F8.8°C 44.7°F7.1°C 89% 12.0 mph W19.3 kmh W 15.0 mph24.1 kmh 30.23 in1023.7 mb 0.00 in0.0 mm 0.00 in0.0 mm 0.02 in0.5 mm
11:58 AM 47.9°F8.8°C 44.8°F7.1°C 89% 13.0 mph W20.9 kmh W 16.0 mph25.7 kmh 30.23 in1023.7 mb 0.00 in0.0 mm 0.00 in0.0 mm 0.02 in0.5 mm
11:59 AM 48.0°F8.9°C 44.9°F7.2°C 89% 12.0 mph W19.3 kmh W 14.0 mph22.5 kmh 30.23 in1023.7 mb 0.00 in0.0 mm 0.00 in0.0 mm 0.02 in0.5 mm
12:00 PM 48.1°F8.9°C 45.0°F7.2°C 89% 12.0 mph W19.3 kmh W 13.0 mph20.9 kmh 30.23 in1023.7 mb 0.00 in0.0 mm 0.00 in0.0 mm 0.02 in0.5 mm
12:01 PM 48.2°F9.0°C 45.1°F7.3°C 89% 12.0 mph W19.3 kmh W 13.0 mph20.9 kmh 30.23 in1023.7 mb 0.00 in0.0 mm 0.00 in0.0 mm 0.02 in0.5 mm
12:02 PM 48.1°F8.9°C 44.7°F7.1°C 88% 11.0 mph W17.7 kmh W 13.0 mph20.9 kmh 30.23 in1023.7 mb 0.00 in0.0 mm 0.00 in0.0 mm 0.02 in0.5 mm
12:03 PM 48.1°F8.9°C 44.7°F7.1°C 88% 11.0 mph W17.7 kmh W 12.0 mph19.3 kmh 30.23 in1023.7 mb 0.00 in0.0 mm 0.00 in0.0 mm 0.02 in0.5 mm
12:04 PM 48.1°F8.9°C 44.7°F7.1°C 88% 10.0 mph W16.1 kmh W 12.0 mph19.3 kmh 30.23 in1023.7 mb 0.00 in0.0 mm 0.00 in0.0 mm 0.02 in0.5 mm
12:05 PM 47.9°F8.8°C 44.5°F6.9°C 88% 13.0 mph W20.9 kmh W 16.0 mph25.7 kmh 30.23 in1023.7 mb 0.00 in0.0 mm 0.00 in0.0 mm 0.02 in0.5 mm
12:06 PM 48.0°F8.9°C 44.6°F7.0°C 88% 13.0 mph W20.9 kmh W 15.0 mph24.1 kmh 30.23 in1023.7 mb 0.00 in0.0 mm 0.00 in0.0 mm 0.02 in0.5 mm
12:07 PM 48.1°F8.9°C 44.7°F7.1°C 88% 12.0 mph WSW19.3 kmh WSW 13.0 mph20.9 kmh 30.23 in1023.7 mb 0.00 in0.0 mm 0.00 in0.0 mm 0.02 in0.5 mm
12:08 PM 48.1°F8.9°C 44.7°F7.1°C 88% 11.0 mph WSW17.7 kmh WSW 12.0 mph19.3 kmh 30.23 in1023.7 mb 0.00 in0.0 mm 0.00 in0.0 mm 0.02 in0.5 mm
12:09 PM 48.0°F8.9°C 44.6°F7.0°C 88% 12.0 mph W19.3 kmh W 14.0 mph22.5 kmh 30.24 in1024.0 mb 0.00 in0.0 mm 0.00 in0.0 mm 0.02 in0.5 mm
12:10 PM 48.0°F8.9°C 44.6°F7.0°C 88% 15.0 mph W24.1 kmh W 18.0 mph29.0 kmh 30.24 in1024.0 mb 0.00 in0.0 mm 0.00 in0.0 mm 0.02 in0.5 mm
12:11 PM 48.1°F8.9°C 44.7°F7.1°C 88% 17.0 mph WNW27.4 kmh WNW 19.0 mph30.6 kmh 30.24 in1024.0 mb 0.00 in0.0 mm 0.00 in0.0 mm 0.02 in0.5 mm
12:12 PM 48.3°F9.1°C 44.9°F7.2°C 88% 12.0 mph W19.3 kmh W 18.0 mph29.0 kmh 30.24 in1024.0 mb 0.00 in0.0 mm 0.00 in0.0 mm 0.02 in0.5 mm
12:13 PM 48.3°F9.1°C 44.9°F7.2°C 88% 9.0 mph W14.5 kmh W 11.0 mph17.7 kmh 30.24 in1024.0 mb 0.00 in0.0 mm 0.00 in0.0 mm 0.02 in0.5 mm
12:14 PM 48.3°F9.1°C 44.6°F7.0°C 87% 10.0 mph W16.1 kmh W 12.0 mph19.3 kmh 30.24 in1024.0 mb 0.00 in0.0 mm 0.00 in0.0 mm 0.02 in0.5 mm
12:15 PM 48.2°F9.0°C 44.8°F7.1°C 88% 12.0 mph W19.3 kmh W 15.0 mph24.1 kmh 30.24 in1024.0 mb 0.00 in0.0 mm 0.00 in0.0 mm 0.02 in0.5 mm
12:16 PM 48.2°F9.0°C 44.8°F7.1°C 88% 12.0 mph WSW19.3 kmh WSW 14.0 mph22.5 kmh 30.24 in1024.0 mb 0.00 in0.0 mm 0.00 in0.0 mm 0.02 in0.5 mm
12:17 PM 48.3°F9.1°C 44.9°F7.2°C 88% 12.0 mph W19.3 kmh W 13.0 mph20.9 kmh 30.24 in1024.0 mb 0.00 in0.0 mm 0.00 in0.0 mm 0.02 in0.5 mm
12:18 PM 48.3°F9.1°C 44.9°F7.2°C 88% 11.0 mph W17.7 kmh W 12.0 mph19.3 kmh 30.24 in1024.0 mb 0.00 in0.0 mm 0.00 in0.0 mm 0.02 in0.5 mm
12:19 PM 48.2°F9.0°C 44.5°F6.9°C 87% 11.0 mph W17.7 kmh W 14.0 mph22.5 kmh 30.24 in1024.0 mb 0.00 in0.0 mm 0.00 in0.0 mm 0.02 in0.5 mm
12:20 PM 48.3°F9.1°C 44.9°F7.2°C 88% 13.0 mph W20.9 kmh W 15.0 mph24.1 kmh 30.24 in1024.0 mb 0.00 in0.0 mm 0.00 in0.0 mm 0.02 in0.5 mm
12:21 PM 48.3°F9.1°C 44.6°F7.0°C 87% 15.0 mph W24.1 kmh W 18.0 mph29.0 kmh 30.24 in1024.0 mb 0.00 in0.0 mm 0.00 in0.0 mm 0.02 in0.5 mm
12:22 PM 48.4°F9.1°C 44.7°F7.1°C 87% 15.0 mph W24.1 kmh W 17.0 mph27.4 kmh 30.24 in1024.0 mb 0.00 in0.0 mm 0.00 in0.0 mm 0.02 in0.5 mm
12:23 PM 48.6°F9.2°C 44.6°F7.0°C 86% 18.0 mph WNW29.0 kmh WNW 20.0 mph32.2 kmh 30.24 in1024.0 mb 0.00 in0.0 mm 0.00 in0.0 mm 0.02 in0.5 mm
12:24 PM 48.7°F9.3°C 44.1°F6.7°C 84% 17.0 mph WNW27.4 kmh WNW 18.0 mph29.0 kmh 30.24 in1024.0 mb 0.00 in0.0 mm 0.00 in0.0 mm 0.02 in0.5 mm
12:25 PM 48.7°F9.3°C 43.8°F6.6°C 83% 18.0 mph W29.0 kmh W 19.0 mph30.6 kmh 30.24 in1024.0 mb 0.00 in0.0 mm 0.00 in0.0 mm 0.02 in0.5 mm
12:26 PM 49.0°F9.4°C 44.1°F6.7°C 83% 16.0 mph W25.7 kmh W 18.0 mph29.0 kmh 30.24 in1024.0 mb 0.00 in0.0 mm 0.00 in0.0 mm 0.02 in0.5 mm
12:27 PM 49.1°F9.5°C 44.2°F6.8°C 83% 15.0 mph WNW24.1 kmh WNW 18.0 mph29.0 kmh 30.24 in1024.0 mb 0.00 in0.0 mm 0.00 in0.0 mm 0.02 in0.5 mm
12:28 PM 49.0°F9.4°C 44.1°F6.7°C 83% 17.0 mph WNW27.4 kmh WNW 19.0 mph30.6 kmh 30.24 in1024.0 mb 0.00 in0.0 mm 0.00 in0.0 mm 0.02 in0.5 mm
12:29 PM 49.1°F9.5°C 43.8°F6.6°C 82% 17.0 mph W27.4 kmh W 19.0 mph30.6 kmh 30.24 in1024.0 mb 0.00 in0.0 mm 0.00 in0.0 mm 0.02 in0.5 mm
12:30 PM 49.1°F9.5°C 43.8°F6.6°C 82% 15.0 mph W24.1 kmh W 17.0 mph27.4 kmh 30.24 in1024.0 mb 0.00 in0.0 mm 0.00 in0.0 mm 0.02 in0.5 mm
12:31 PM 49.1°F9.5°C 43.8°F6.6°C 82% 13.0 mph WNW20.9 kmh WNW 15.0 mph24.1 kmh 30.24 in1024.0 mb 0.00 in0.0 mm 0.00 in0.0 mm 0.02 in0.5 mm
12:32 PM 49.1°F9.5°C 43.5°F6.4°C 81% 15.0 mph W24.1 kmh W 17.0 mph27.4 kmh 30.24 in1024.0 mb 0.00 in0.0 mm 0.00 in0.0 mm 0.02 in0.5 mm
12:33 PM 49.1°F9.5°C 43.5°F6.4°C 81% 16.0 mph W25.7 kmh W 18.0 mph29.0 kmh 30.24 in1024.0 mb 0.00 in0.0 mm 0.00 in0.0 mm 0.02 in0.5 mm
12:34 PM 49.1°F9.5°C 43.5°F6.4°C 81% 15.0 mph WNW24.1 kmh WNW 16.0 mph25.7 kmh 30.24 in1024.0 mb 0.00 in0.0 mm 0.00 in0.0 mm 0.02 in0.5 mm
12:35 PM 49.1°F9.5°C 43.5°F6.4°C 81% 15.0 mph WNW24.1 kmh WNW 17.0 mph27.4 kmh 30.24 in1024.0 mb 0.00 in0.0 mm 0.00 in0.0 mm 0.02 in0.5 mm
12:36 PM 49.1°F9.5°C 43.2°F6.2°C 80% 16.0 mph WNW25.7 kmh WNW 19.0 mph30.6 kmh 30.24 in1024.0 mb 0.00 in0.0 mm 0.00 in0.0 mm 0.02 in0.5 mm
12:37 PM 49.2°F9.6°C 43.0°F6.1°C 79% 19.0 mph WNW30.6 kmh WNW 21.0 mph33.8 kmh 30.24 in1024.0 mb 0.01 in0.3 mm 0.60 in15.2 mm 0.02 in0.5 mm
12:38 PM 49.2°F9.6°C 42.6°F5.9°C 78% 18.0 mph WNW29.0 kmh WNW 22.0 mph35.4 kmh 30.24 in1024.0 mb 0.01 in0.3 mm 0.00 in0.0 mm 0.02 in0.5 mm
12:39 PM 49.4°F9.7°C 42.8°F6.0°C 78% 16.0 mph W25.7 kmh W 20.0 mph32.2 kmh 30.24 in1024.0 mb 0.01 in0.3 mm 0.00 in0.0 mm 0.02 in0.5 mm
12:40 PM 49.4°F9.7°C 42.8°F6.0°C 78% 17.0 mph W27.4 kmh W 19.0 mph30.6 kmh 30.25 in1024.4 mb 0.01 in0.3 mm 0.00 in0.0 mm 0.02 in0.5 mm
12:41 PM 49.4°F9.7°C 42.8°F6.0°C 78% 17.0 mph WNW27.4 kmh WNW 19.0 mph30.6 kmh 30.25 in1024.4 mb 0.01 in0.3 mm 0.00 in0.0 mm 0.02 in0.5 mm
12:42 PM 49.5°F9.7°C 42.9°F6.1°C 78% 16.0 mph WNW25.7 kmh WNW 18.0 mph29.0 kmh 30.25 in1024.4 mb 0.01 in0.3 mm 0.00 in0.0 mm 0.02 in0.5 mm
12:43 PM 49.4°F9.7°C 42.8°F6.0°C 78% 16.0 mph WNW25.7 kmh WNW 17.0 mph27.4 kmh 30.25 in1024.4 mb 0.01 in0.3 mm 0.00 in0.0 mm 0.02 in0.5 mm
12:44 PM 49.4°F9.7°C 43.2°F6.2°C 79% 14.0 mph W22.5 kmh W 17.0 mph27.4 kmh 30.25 in1024.4 mb 0.01 in0.3 mm 0.00 in0.0 mm 0.02 in0.5 mm
12:45 PM 49.4°F9.7°C 42.8°F6.0°C 78% 17.0 mph W27.4 kmh W 20.0 mph32.2 kmh 30.25 in1024.4 mb 0.01 in0.3 mm 0.00 in0.0 mm 0.02 in0.5 mm
12:46 PM 49.4°F9.7°C 42.8°F6.0°C 78% 16.0 mph WNW25.7 kmh WNW 19.0 mph30.6 kmh 30.25 in1024.4 mb 0.01 in0.3 mm 0.00 in0.0 mm 0.02 in0.5 mm
12:47 PM 49.5°F9.7°C 42.9°F6.1°C 78% 15.0 mph WNW24.1 kmh WNW 17.0 mph27.4 kmh 30.25 in1024.4 mb 0.01 in0.3 mm 0.00 in0.0 mm 0.02 in0.5 mm
12:48 PM 49.4°F9.7°C 42.8°F6.0°C 78% 12.0 mph WNW19.3 kmh WNW 15.0 mph24.1 kmh 30.25 in1024.4 mb 0.01 in0.3 mm 0.00 in0.0 mm 0.02 in0.5 mm
12:49 PM 49.4°F9.7°C 42.8°F6.0°C 78% 14.0 mph WNW22.5 kmh WNW 16.0 mph25.7 kmh 30.25 in1024.4 mb 0.01 in0.3 mm 0.00 in0.0 mm 0.02 in0.5 mm
12:50 PM 49.3°F9.6°C 42.7°F5.9°C 78% 12.0 mph WNW19.3 kmh WNW 13.0 mph20.9 kmh 30.25 in1024.4 mb 0.01 in0.3 mm 0.00 in0.0 mm 0.02 in0.5 mm
12:51 PM 49.3°F9.6°C 42.7°F5.9°C 78% 12.0 mph WNW19.3 kmh WNW 14.0 mph22.5 kmh 30.25 in1024.4 mb 0.01 in0.3 mm 0.00 in0.0 mm 0.02 in0.5 mm
12:52 PM 49.3°F9.6°C 43.1°F6.2°C 79% 11.0 mph WNW17.7 kmh WNW 12.0 mph19.3 kmh 30.25 in1024.4 mb 0.01 in0.3 mm 0.00 in0.0 mm 0.02 in0.5 mm
12:53 PM 49.2°F9.6°C 43.0°F6.1°C 79% 13.0 mph WNW20.9 kmh WNW 14.0 mph22.5 kmh 30.25 in1024.4 mb 0.01 in0.3 mm 0.00 in0.0 mm 0.02 in0.5 mm
12:54 PM 49.2°F9.6°C 42.6°F5.9°C 78% 16.0 mph WNW25.7 kmh WNW 19.0 mph30.6 kmh 30.25 in1024.4 mb 0.01 in0.3 mm 0.00 in0.0 mm 0.02 in0.5 mm
12:55 PM 49.2°F9.6°C 42.6°F5.9°C 78% 18.0 mph WNW29.0 kmh WNW 19.0 mph30.6 kmh 30.25 in1024.4 mb 0.01 in0.3 mm 0.00 in0.0 mm 0.02 in0.5 mm
12:56 PM 49.3°F9.6°C 42.7°F5.9°C 78% 16.0 mph WNW25.7 kmh WNW 19.0 mph30.6 kmh 30.25 in1024.4 mb 0.01 in0.3 mm 0.00 in0.0 mm 0.02 in0.5 mm
12:57 PM 49.4°F9.7°C 42.8°F6.0°C 78% 14.0 mph WNW22.5 kmh WNW 16.0 mph25.7 kmh 30.25 in1024.4 mb 0.01 in0.3 mm 0.00 in0.0 mm 0.02 in0.5 mm
12:58 PM 49.3°F9.6°C 42.4°F5.8°C 77% 14.0 mph WNW22.5 kmh WNW 16.0 mph25.7 kmh 30.25 in1024.4 mb 0.01 in0.3 mm 0.00 in0.0 mm 0.02 in0.5 mm
12:59 PM 49.3°F9.6°C 42.4°F5.8°C 77% 13.0 mph WNW20.9 kmh WNW 15.0 mph24.1 kmh 30.25 in1024.4 mb 0.01 in0.3 mm 0.00 in0.0 mm 0.02 in0.5 mm
01:00 PM 49.3°F9.6°C 42.4°F5.8°C 77% 12.0 mph WNW19.3 kmh WNW 14.0 mph22.5 kmh 30.25 in1024.4 mb 0.01 in0.3 mm 0.00 in0.0 mm 0.02 in0.5 mm
01:01 PM 49.3°F9.6°C 42.7°F5.9°C 78% 13.0 mph WNW20.9 kmh WNW 15.0 mph24.1 kmh 30.25 in1024.4 mb 0.01 in0.3 mm 0.00 in0.0 mm 0.02 in0.5 mm
01:02 PM 49.3°F9.6°C 42.7°F5.9°C 78% 12.0 mph W19.3 kmh W 14.0 mph22.5 kmh 30.25 in1024.4 mb 0.01 in0.3 mm 0.00 in0.0 mm 0.02 in0.5 mm
01:03 PM 49.3°F9.6°C 42.7°F5.9°C 78% 12.0 mph WNW19.3 kmh WNW 13.0 mph20.9 kmh 30.25 in1024.4 mb 0.01 in0.3 mm 0.00 in0.0 mm 0.02 in0.5 mm
01:04 PM 49.4°F9.7°C 42.8°F6.0°C 78% 14.0 mph WNW22.5 kmh WNW 17.0 mph27.4 kmh 30.25 in1024.4 mb 0.01 in0.3 mm 0.00 in0.0 mm 0.02 in0.5 mm
01:05 PM 49.4°F9.7°C 42.8°F6.0°C 78% 16.0 mph WNW25.7 kmh WNW 19.0 mph30.6 kmh 30.25 in1024.4 mb 0.01 in0.3 mm 0.00 in0.0 mm 0.02 in0.5 mm
01:06 PM 49.5°F9.7°C 42.3°F5.7°C 76% 19.0 mph WNW30.6 kmh WNW 23.0 mph37.0 kmh 30.25 in1024.4 mb 0.01 in0.3 mm 0.00 in0.0 mm 0.02 in0.5 mm
01:07 PM 49.6°F9.8°C 42.0°F5.6°C 75% 18.0 mph WNW29.0 kmh WNW 20.0 mph32.2 kmh 30.25 in1024.4 mb 0.01 in0.3 mm 0.00 in0.0 mm 0.02 in0.5 mm
01:08 PM 49.6°F9.8°C 41.7°F5.4°C 74% 17.0 mph WNW27.4 kmh WNW 20.0 mph32.2 kmh 30.25 in1024.4 mb 0.01 in0.3 mm 0.00 in0.0 mm 0.02 in0.5 mm
01:09 PM 49.6°F9.8°C 42.0°F5.6°C 75% 17.0 mph WNW27.4 kmh WNW 19.0 mph30.6 kmh 30.25 in1024.4 mb 0.01 in0.3 mm 0.00 in0.0 mm 0.02 in0.5 mm
01:10 PM 49.6°F9.8°C 42.0°F5.6°C 75% 16.0 mph WNW25.7 kmh WNW 20.0 mph32.2 kmh 30.25 in1024.4 mb 0.01 in0.3 mm 0.00 in0.0 mm 0.02 in0.5 mm
01:11 PM 49.7°F9.8°C 41.8°F5.4°C 74% 20.0 mph WNW32.2 kmh WNW 23.0 mph37.0 kmh 30.25 in1024.4 mb 0.01 in0.3 mm 0.00 in0.0 mm 0.02 in0.5 mm
01:12 PM 49.9°F9.9°C 41.6°F5.3°C 73% 18.0 mph WNW29.0 kmh WNW 20.0 mph32.2 kmh 30.26 in1024.7 mb 0.01 in0.3 mm 0.00 in0.0 mm 0.02 in0.5 mm
01:13 PM 49.9°F9.9°C 41.6°F5.3°C 73% 21.0 mph WNW33.8 kmh WNW 25.0 mph40.2 kmh 30.26 in1024.7 mb 0.01 in0.3 mm 0.00 in0.0 mm 0.02 in0.5 mm
01:14 PM 50.0°F10.0°C 41.7°F5.4°C 73% 19.0 mph WNW30.6 kmh WNW 25.0 mph40.2 kmh 30.26 in1024.7 mb 0.01 in0.3 mm 0.00 in0.0 mm 0.02 in0.5 mm
01:15 PM 49.9°F9.9°C 41.6°F5.3°C 73% 18.0 mph WNW29.0 kmh WNW 20.0 mph32.2 kmh 30.26 in1024.7 mb 0.01 in0.3 mm 0.00 in0.0 mm 0.02 in0.5 mm
01:16 PM 49.9°F9.9°C 41.6°F5.3°C 73% 21.0 mph WNW33.8 kmh WNW 25.0 mph40.2 kmh 30.26 in1024.7 mb 0.01 in0.3 mm 0.00 in0.0 mm 0.02 in0.5 mm
01:17 PM 50.0°F10.0°C 41.7°F5.4°C 73% 21.0 mph WNW33.8 kmh WNW 23.0 mph37.0 kmh 30.26 in1024.7 mb 0.01 in0.3 mm 0.00 in0.0 mm 0.02 in0.5 mm
01:18 PM 50.1°F10.1°C 41.4°F5.2°C 72% 19.0 mph WNW30.6 kmh WNW 22.0 mph35.4 kmh 30.26 in1024.7 mb 0.01 in0.3 mm 0.00 in0.0 mm 0.02 in0.5 mm
01:19 PM 50.1°F10.1°C 41.4°F5.2°C 72% 20.0 mph WNW32.2 kmh WNW 23.0 mph37.0 kmh 30.26 in1024.7 mb 0.01 in0.3 mm 0.00 in0.0 mm 0.02 in0.5 mm
01:20 PM 50.2°F10.1°C 41.5°F5.3°C 72% 19.0 mph WNW30.6 kmh WNW 21.0 mph33.8 kmh 30.26 in1024.7 mb 0.01 in0.3 mm 0.00 in0.0 mm 0.02 in0.5 mm
01:21 PM 50.2°F10.1°C 41.5°F5.3°C 72% 18.0 mph WNW29.0 kmh WNW 22.0 mph35.4 kmh 30.26 in1024.7 mb 0.01 in0.3 mm 0.00 in0.0 mm 0.02 in0.5 mm
01:22 PM 50.2°F10.1°C 41.5°F5.3°C 72% 19.0 mph WNW30.6 kmh WNW 22.0 mph35.4 kmh 30.26 in1024.7 mb 0.01 in0.3 mm 0.00 in0.0 mm 0.02 in0.5 mm
01:23 PM 50.1°F10.1°C 41.4°F5.2°C 72% 17.0 mph WNW27.4 kmh WNW 22.0 mph35.4 kmh 30.26 in1024.7 mb 0.01 in0.3 mm 0.00 in0.0 mm 0.02 in0.5 mm
01:24 PM 50.1°F10.1°C 41.8°F5.4°C 73% 17.0 mph WNW27.4 kmh WNW 19.0 mph30.6 kmh 30.26 in1024.7 mb 0.01 in0.3 mm 0.00 in0.0 mm 0.02 in0.5 mm
01:25 PM 50.1°F10.1°C 41.8°F5.4°C 73% 16.0 mph WNW25.7 kmh WNW 20.0 mph32.2 kmh 30.26 in1024.7 mb 0.01 in0.3 mm 0.00 in0.0 mm 0.02 in0.5 mm
01:26 PM 50.0°F10.0°C 41.7°F5.4°C 73% 15.0 mph WNW24.1 kmh WNW 20.0 mph32.2 kmh 30.26 in1024.7 mb 0.01 in0.3 mm 0.00 in0.0 mm 0.02 in0.5 mm
01:27 PM 50.0°F10.0°C 41.7°F5.4°C 73% 18.0 mph WNW29.0 kmh WNW 20.0 mph32.2 kmh 30.26 in1024.7 mb 0.01 in0.3 mm 0.00 in0.0 mm 0.02 in0.5 mm
01:28 PM 50.1°F10.1°C 41.4°F5.2°C 72% 16.0 mph WNW25.7 kmh WNW 20.0 mph32.2 kmh 30.27 in1025.1 mb 0.01 in0.3 mm 0.00 in0.0 mm 0.02 in0.5 mm
01:29 PM 50.2°F10.1°C 41.5°F5.3°C 72% 19.0 mph WNW30.6 kmh WNW 22.0 mph35.4 kmh 30.26 in1024.7 mb 0.01 in0.3 mm 0.00 in0.0 mm 0.02 in0.5 mm
01:30 PM 50.2°F10.1°C 41.5°F5.3°C 72% 18.0 mph WNW29.0 kmh WNW 22.0 mph35.4 kmh 30.26 in1024.7 mb 0.01 in0.3 mm 0.00 in0.0 mm 0.02 in0.5 mm
01:31 PM 50.2°F10.1°C 41.5°F5.3°C 72% 19.0 mph WNW30.6 kmh WNW 22.0 mph35.4 kmh 30.27 in1025.1 mb 0.01 in0.3 mm 0.00 in0.0 mm 0.02 in0.5 mm
01:32 PM 50.3°F10.2°C 41.6°F5.3°C 72% 20.0 mph WNW32.2 kmh WNW 23.0 mph37.0 kmh 30.27 in1025.1 mb 0.01 in0.3 mm 0.00 in0.0 mm 0.02 in0.5 mm
01:33 PM 50.3°F10.2°C 41.6°F5.3°C 72% 18.0 mph WNW29.0 kmh WNW 22.0 mph35.4 kmh 30.27 in1025.1 mb 0.01 in0.3 mm 0.00 in0.0 mm 0.02 in0.5 mm
01:34 PM 50.3°F10.2°C 41.6°F5.3°C 72% 15.0 mph WNW24.1 kmh WNW 18.0 mph29.0 kmh 30.27 in1025.1 mb 0.01 in0.3 mm 0.00 in0.0 mm 0.02 in0.5 mm
01:35 PM 50.3°F10.2°C 42.0°F5.6°C 73% 17.0 mph WNW27.4 kmh WNW 20.0 mph32.2 kmh 30.27 in1025.1 mb 0.01 in0.3 mm 0.00 in0.0 mm 0.02 in0.5 mm
01:36 PM 50.2°F10.1°C 41.9°F5.5°C 73% 15.0 mph WNW24.1 kmh WNW 17.0 mph27.4 kmh 30.27 in1025.1 mb 0.01 in0.3 mm 0.00 in0.0 mm 0.02 in0.5 mm
01:37 PM 50.2°F10.1°C 42.2°F5.7°C 74% 19.0 mph WNW30.6 kmh WNW 23.0 mph37.0 kmh 30.27 in1025.1 mb 0.00 in0.0 mm 0.00 in0.0 mm 0.02 in0.5 mm
01:38 PM 50.2°F10.1°C 41.9°F5.5°C 73% 19.0 mph WNW30.6 kmh WNW 22.0 mph35.4 kmh 30.26 in1024.7 mb 0.00 in0.0 mm 0.00 in0.0 mm 0.02 in0.5 mm
01:39 PM 50.0°F10.0°C 41.3°F5.2°C 72% 20.0 mph WNW32.2 kmh WNW 23.0 mph37.0 kmh 30.26 in1024.7 mb 0.00 in0.0 mm 0.00 in0.0 mm 0.02 in0.5 mm
01:40 PM 49.9°F9.9°C 41.6°F5.3°C 73% 22.0 mph WNW35.4 kmh WNW 24.0 mph38.6 kmh 30.26 in1024.7 mb 0.00 in0.0 mm 0.00 in0.0 mm 0.02 in0.5 mm
01:41 PM 49.9°F9.9°C 41.2°F5.1°C 72% 22.0 mph NW35.4 kmh NW 24.0 mph38.6 kmh 30.26 in1024.7 mb 0.00 in0.0 mm 0.00 in0.0 mm 0.02 in0.5 mm
01:42 PM 50.0°F10.0°C 41.7°F5.4°C 73% 19.0 mph WNW30.6 kmh WNW 22.0 mph35.4 kmh 30.26 in1024.7 mb 0.00 in0.0 mm 0.00 in0.0 mm 0.02 in0.5 mm
01:43 PM 49.9°F9.9°C 41.2°F5.1°C 72% 21.0 mph WNW33.8 kmh WNW 24.0 mph38.6 kmh 30.26 in1024.7 mb 0.00 in0.0 mm 0.00 in0.0 mm 0.02 in0.5 mm
01:44 PM 49.9°F9.9°C 41.2°F5.1°C 72% 19.0 mph WNW30.6 kmh WNW 22.0 mph35.4 kmh 30.26 in1024.7 mb 0.00 in0.0 mm 0.00 in0.0 mm 0.02 in0.5 mm
01:45 PM 49.8°F9.9°C 41.5°F5.3°C 73% 15.0 mph WNW24.1 kmh WNW 17.0 mph27.4 kmh 30.26 in1024.7 mb 0.00 in0.0 mm 0.00 in0.0 mm 0.02 in0.5 mm
01:46 PM 49.8°F9.9°C 41.5°F5.3°C 73% 18.0 mph WNW29.0 kmh WNW 20.0 mph32.2 kmh 30.26 in1024.7 mb 0.00 in0.0 mm 0.00 in0.0 mm 0.02 in0.5 mm
01:47 PM 49.8°F9.9°C 41.5°F5.3°C 73% 16.0 mph WNW25.7 kmh WNW 19.0 mph30.6 kmh 30.26 in1024.7 mb 0.00 in0.0 mm 0.00 in0.0 mm 0.02 in0.5 mm
01:48 PM 49.8°F9.9°C 41.5°F5.3°C 73% 14.0 mph WNW22.5 kmh WNW 16.0 mph25.7 kmh 30.26 in1024.7 mb 0.00 in0.0 mm 0.00 in0.0 mm 0.02 in0.5 mm
01:49 PM 49.8°F9.9°C 41.5°F5.3°C 73% 17.0 mph WNW27.4 kmh WNW 21.0 mph33.8 kmh 30.26 in1024.7 mb 0.00 in0.0 mm 0.00 in0.0 mm 0.02 in0.5 mm
01:50 PM 49.8°F9.9°C 41.1°F5.1°C 72% 18.0 mph WNW29.0 kmh WNW 20.0 mph32.2 kmh 30.26 in1024.7 mb 0.00 in0.0 mm 0.00 in0.0 mm 0.02 in0.5 mm
01:51 PM 49.9°F9.9°C 41.2°F5.1°C 72% 17.0 mph WNW27.4 kmh WNW 19.0 mph30.6 kmh 30.26 in1024.7 mb 0.00 in0.0 mm 0.00 in0.0 mm 0.02 in0.5 mm
01:52 PM 49.8°F9.9°C 41.5°F5.3°C 73% 15.0 mph WNW24.1 kmh WNW 16.0 mph25.7 kmh 30.26 in1024.7 mb 0.00 in0.0 mm 0.00 in0.0 mm 0.02 in0.5 mm
01:53 PM 49.7°F9.8°C 41.4°F5.2°C 73% 17.0 mph WNW27.4 kmh WNW 20.0 mph32.2 kmh 30.26 in1024.7 mb 0.00 in0.0 mm 0.00 in0.0 mm 0.02 in0.5 mm
01:54 PM 49.9°F9.9°C 41.6°F5.3°C 73% 18.0 mph WNW29.0 kmh WNW 20.0 mph32.2 kmh 30.26 in1024.7 mb 0.00 in0.0 mm 0.00 in0.0 mm 0.02 in0.5 mm
01:55 PM 49.9°F9.9°C 41.2°F5.1°C 72% 17.0 mph WNW27.4 kmh WNW 19.0 mph30.6 kmh 30.26 in1024.7 mb 0.00 in0.0 mm 0.00 in0.0 mm 0.02 in0.5 mm
01:56 PM 49.9°F9.9°C 41.2°F5.1°C 72% 17.0 mph WNW27.4 kmh WNW 20.0 mph32.2 kmh 30.27 in1025.1 mb 0.00 in0.0 mm 0.00 in0.0 mm 0.02 in0.5 mm
01:57 PM 49.9°F9.9°C 41.2°F5.1°C 72% 19.0 mph WNW30.6 kmh WNW 21.0 mph33.8 kmh 30.27 in1025.1 mb 0.00 in0.0 mm 0.00 in0.0 mm 0.02 in0.5 mm
01:58 PM 50.0°F10.0°C 41.0°F5.0°C 71% 18.0 mph WNW29.0 kmh WNW 21.0 mph33.8 kmh 30.27 in1025.1 mb 0.00 in0.0 mm 0.00 in0.0 mm 0.02 in0.5 mm
01:59 PM 50.1°F10.1°C 41.1°F5.1°C 71% 17.0 mph WNW27.4 kmh WNW 19.0 mph30.6 kmh 30.27 in1025.1 mb 0.00 in0.0 mm 0.00 in0.0 mm 0.02 in0.5 mm
02:00 PM 49.9°F9.9°C 40.5°F4.7°C 70% 21.0 mph WNW33.8 kmh WNW 25.0 mph40.2 kmh 30.27 in1025.1 mb 0.00 in0.0 mm 0.00 in0.0 mm 0.02 in0.5 mm
02:01 PM 50.1°F10.1°C 40.7°F4.8°C 70% 23.0 mph WNW37.0 kmh WNW 28.0 mph45.1 kmh 30.27 in1025.1 mb 0.00 in0.0 mm 0.00 in0.0 mm 0.02 in0.5 mm
02:02 PM 50.1°F10.1°C 40.7°F4.8°C 70% 21.0 mph WNW33.8 kmh WNW 28.0 mph45.1 kmh 30.27 in1025.1 mb 0.00 in0.0 mm 0.00 in0.0 mm 0.02 in0.5 mm
02:03 PM 50.0°F10.0°C 40.6°F4.8°C 70% 20.0 mph WNW32.2 kmh WNW 22.0 mph35.4 kmh 30.27 in1025.1 mb 0.00 in0.0 mm 0.00 in0.0 mm 0.02 in0.5 mm
02:04 PM 49.9°F9.9°C 40.9°F4.9°C 71% 21.0 mph WNW33.8 kmh WNW 23.0 mph37.0 kmh 30.27 in1025.1 mb 0.00 in0.0 mm 0.00 in0.0 mm 0.02 in0.5 mm
02:05 PM 50.1°F10.1°C 41.1°F5.1°C 71% 19.0 mph WNW30.6 kmh WNW 21.0 mph33.8 kmh 30.27 in1025.1 mb 0.00 in0.0 mm 0.00 in0.0 mm 0.02 in0.5 mm
02:06 PM 50.1°F10.1°C 41.1°F5.1°C 71% 19.0 mph WNW30.6 kmh WNW 21.0 mph33.8 kmh 30.27 in1025.1 mb 0.00 in0.0 mm 0.00 in0.0 mm 0.02 in0.5 mm
02:07 PM 50.1°F10.1°C 41.1°F5.1°C 71% 19.0 mph WNW30.6 kmh WNW 24.0 mph38.6 kmh 30.27 in1025.1 mb 0.00 in0.0 mm 0.00 in0.0 mm 0.02 in0.5 mm
02:08 PM 50.1°F10.1°C 41.1°F5.1°C 71% 20.0 mph WNW32.2 kmh WNW 23.0 mph37.0 kmh 30.27 in1025.1 mb 0.00 in0.0 mm 0.00 in0.0 mm 0.02 in0.5 mm
02:09 PM 50.1°F10.1°C 41.1°F5.1°C 71% 18.0 mph WNW29.0 kmh WNW 20.0 mph32.2 kmh 30.27 in1025.1 mb 0.00 in0.0 mm 0.00 in0.0 mm 0.02 in0.5 mm
02:10 PM 50.1°F10.1°C 41.4°F5.2°C 72% 18.0 mph WNW29.0 kmh WNW 21.0 mph33.8 kmh 30.27 in1025.1 mb 0.00 in0.0 mm 0.00 in0.0 mm 0.02 in0.5 mm
02:11 PM 50.1°F10.1°C 41.1°F5.1°C 71% 18.0 mph WNW29.0 kmh WNW 21.0 mph33.8 kmh 30.27 in1025.1 mb 0.00 in0.0 mm 0.00 in0.0 mm 0.02 in0.5 mm
02:12 PM 50.1°F10.1°C 41.1°F5.1°C 71% 15.0 mph WNW24.1 kmh WNW 18.0 mph29.0 kmh 30.27 in1025.1 mb 0.00 in0.0 mm 0.00 in0.0 mm 0.02 in0.5 mm
02:13 PM 49.9°F9.9°C 40.9°F4.9°C 71% 16.0 mph WNW25.7 kmh WNW 19.0 mph30.6 kmh 30.27 in1025.1 mb 0.00 in0.0 mm 0.00 in0.0 mm 0.02 in0.5 mm
02:14 PM 49.8°F9.9°C 41.1°F5.1°C 72% 15.0 mph NW24.1 kmh NW 17.0 mph27.4 kmh 30.27 in1025.1 mb 0.00 in0.0 mm 0.00 in0.0 mm 0.02 in0.5 mm
02:15 PM 49.6°F9.8°C 40.9°F4.9°C 72% 14.0 mph NW22.5 kmh NW 16.0 mph25.7 kmh 30.27 in1025.1 mb 0.00 in0.0 mm 0.00 in0.0 mm 0.02 in0.5 mm
02:16 PM 49.5°F9.7°C 41.2°F5.1°C 73% 12.0 mph NW19.3 kmh NW 13.0 mph20.9 kmh 30.27 in1025.1 mb 0.00 in0.0 mm 0.00 in0.0 mm 0.02 in0.5 mm
02:17 PM 49.3°F9.6°C 41.0°F5.0°C 73% 15.0 mph NW24.1 kmh NW 21.0 mph33.8 kmh 30.27 in1025.1 mb 0.00 in0.0 mm 0.00 in0.0 mm 0.02 in0.5 mm
02:18 PM 49.4°F9.7°C 41.1°F5.1°C 73% 17.0 mph NW27.4 kmh NW 20.0 mph32.2 kmh 30.27 in1025.1 mb 0.00 in0.0 mm 0.00 in0.0 mm 0.02 in0.5 mm
02:19 PM 49.4°F9.7°C 41.1°F5.1°C 73% 17.0 mph NW27.4 kmh NW 18.0 mph29.0 kmh 30.27 in1025.1 mb 0.00 in0.0 mm 0.00 in0.0 mm 0.02 in0.5 mm
02:20 PM 49.3°F9.6°C 41.0°F5.0°C 73% 16.0 mph NW25.7 kmh NW 18.0 mph29.0 kmh 30.27 in1025.1 mb 0.00 in0.0 mm 0.00 in0.0 mm 0.02 in0.5 mm
02:21 PM 49.2°F9.6°C 40.9°F4.9°C 73% 16.0 mph NW25.7 kmh NW 18.0 mph29.0 kmh 30.27 in1025.1 mb 0.00 in0.0 mm 0.00 in0.0 mm 0.02 in0.5 mm
02:22 PM 49.2°F9.6°C 40.9°F4.9°C 73% 17.0 mph WNW27.4 kmh WNW 19.0 mph30.6 kmh 30.27 in1025.1 mb 0.00 in0.0 mm 0.00 in0.0 mm 0.02 in0.5 mm
02:23 PM 49.3°F9.6°C 41.0°F5.0°C 73% 20.0 mph NW32.2 kmh NW 22.0 mph35.4 kmh 30.27 in1025.1 mb 0.00 in0.0 mm 0.00 in0.0 mm 0.02 in0.5 mm
02:24 PM 49.3°F9.6°C 41.0°F5.0°C 73% 18.0 mph NW29.0 kmh NW 20.0 mph32.2 kmh 30.27 in1025.1 mb 0.00 in0.0 mm 0.00 in0.0 mm 0.02 in0.5 mm
02:25 PM 49.4°F9.7°C 40.8°F4.9°C 72% 20.0 mph NW32.2 kmh NW 22.0 mph35.4 kmh 30.27 in1025.1 mb 0.00 in0.0 mm 0.00 in0.0 mm 0.02 in0.5 mm
02:26 PM 49.5°F9.7°C 40.9°F4.9°C 72% 19.0 mph NW30.6 kmh NW 21.0 mph33.8 kmh 30.27 in1025.1 mb 0.00 in0.0 mm 0.00 in0.0 mm 0.02 in0.5 mm
02:27 PM 49.5°F9.7°C 40.9°F4.9°C 72% 18.0 mph WNW29.0 kmh WNW 20.0 mph32.2 kmh 30.27 in1025.1 mb 0.00 in0.0 mm 0.00 in0.0 mm 0.02 in0.5 mm
02:28 PM 49.5°F9.7°C 40.9°F4.9°C 72% 17.0 mph WNW27.4 kmh WNW 19.0 mph30.6 kmh 30.27 in1025.1 mb 0.00 in0.0 mm 0.00 in0.0 mm 0.02 in0.5 mm
02:29 PM 49.4°F9.7°C 41.1°F5.1°C 73% 16.0 mph WNW25.7 kmh WNW 19.0 mph30.6 kmh 30.27 in1025.1 mb 0.00 in0.0 mm 0.00 in0.0 mm 0.02 in0.5 mm
02:30 PM 49.5°F9.7°C 40.9°F4.9°C 72% 18.0 mph WNW29.0 kmh WNW 20.0 mph32.2 kmh 30.27 in1025.1 mb 0.00 in0.0 mm 0.00 in0.0 mm 0.02 in0.5 mm
02:31 PM 49.5°F9.7°C 41.2°F5.1°C 73% 16.0 mph WNW25.7 kmh WNW 18.0 mph29.0 kmh 30.27 in1025.1 mb 0.00 in0.0 mm 0.00 in0.0 mm 0.02 in0.5 mm
02:32 PM 49.4°F9.7°C 41.1°F5.1°C 73% 17.0 mph WNW27.4 kmh WNW 20.0 mph32.2 kmh 30.27 in1025.1 mb 0.00 in0.0 mm 0.00 in0.0 mm 0.02 in0.5 mm
02:33 PM 49.6°F9.8°C 40.9°F4.9°C 72% 17.0 mph NW27.4 kmh NW 19.0 mph30.6 kmh 30.27 in1025.1 mb 0.00 in0.0 mm 0.00 in0.0 mm 0.02 in0.5 mm
02:34 PM 49.5°F9.7°C 40.9°F4.9°C 72% 19.0 mph WNW30.6 kmh WNW 21.0 mph33.8 kmh 30.27 in1025.1 mb 0.00 in0.0 mm 0.00 in0.0 mm 0.02 in0.5 mm
02:35 PM 49.6°F9.8°C 40.9°F4.9°C 72% 19.0 mph NW30.6 kmh NW 21.0 mph33.8 kmh 30.27 in1025.1 mb 0.00 in0.0 mm 0.00 in0.0 mm 0.02 in0.5 mm
02:36 PM 49.6°F9.8°C 40.9°F4.9°C 72% 17.0 mph NW27.4 kmh NW 21.0 mph33.8 kmh 30.27 in1025.1 mb 0.00 in0.0 mm 0.00 in0.0 mm 0.02 in0.5 mm
02:37 PM 49.6°F9.8°C 40.6°F4.8°C 71% 19.0 mph NW30.6 kmh NW 20.0 mph32.2 kmh 30.27 in1025.1 mb 0.00 in0.0 mm 0.00 in0.0 mm 0.02 in0.5 mm
02:38 PM 49.5°F9.7°C 40.9°F4.9°C 72% 19.0 mph NW30.6 kmh NW 21.0 mph33.8 kmh 30.27 in1025.1 mb 0.00 in0.0 mm 0.00 in0.0 mm 0.02 in0.5 mm
02:39 PM 49.5°F9.7°C 40.9°F4.9°C 72% 20.0 mph NW32.2 kmh NW 22.0 mph35.4 kmh 30.27 in1025.1 mb 0.00 in0.0 mm 0.00 in0.0 mm 0.02 in0.5 mm
02:40 PM 49.5°F9.7°C 40.9°F4.9°C 72% 20.0 mph NW32.2 kmh NW 21.0 mph33.8 kmh 30.27 in1025.1 mb 0.00 in0.0 mm 0.00 in0.0 mm 0.02 in0.5 mm
02:41 PM 49.3°F9.6°C 40.7°F4.8°C 72% 20.0 mph NW32.2 kmh NW 22.0 mph35.4 kmh 30.27 in1025.1 mb 0.00 in0.0 mm 0.00 in0.0 mm 0.02 in0.5 mm
02:42 PM 49.4°F9.7°C 40.8°F4.9°C 72% 21.0 mph NW33.8 kmh NW 23.0 mph37.0 kmh 30.27 in1025.1 mb 0.00 in0.0 mm 0.00 in0.0 mm 0.02 in0.5 mm
02:43 PM 49.4°F9.7°C 40.4°F4.7°C 71% 21.0 mph NW33.8 kmh NW 22.0 mph35.4 kmh 30.27 in1025.1 mb 0.00 in0.0 mm 0.00 in0.0 mm 0.02 in0.5 mm
02:44 PM 49.3°F9.6°C 40.7°F4.8°C 72% 20.0 mph NW32.2 kmh NW 22.0 mph35.4 kmh 30.27 in1025.1 mb 0.00 in0.0 mm 0.00 in0.0 mm 0.02 in0.5 mm
02:45 PM 49.4°F9.7°C 40.8°F4.9°C 72% 19.0 mph NW30.6 kmh NW 21.0 mph33.8 kmh 30.27 in1025.1 mb 0.00 in0.0 mm 0.00 in0.0 mm 0.02 in0.5 mm
02:46 PM 49.4°F9.7°C 40.8°F4.9°C 72% 18.0 mph NW29.0 kmh NW 19.0 mph30.6 kmh 30.27 in1025.1 mb 0.00 in0.0 mm 0.00 in0.0 mm 0.02 in0.5 mm
02:47 PM 49.3°F9.6°C 40.7°F4.8°C 72% 19.0 mph NW30.6 kmh NW 21.0 mph33.8 kmh 30.27 in1025.1 mb 0.00 in0.0 mm 0.00 in0.0 mm 0.02 in0.5 mm
02:48 PM 49.5°F9.7°C 40.5°F4.7°C 71% 20.0 mph WNW32.2 kmh WNW 21.0 mph33.8 kmh 30.27 in1025.1 mb 0.00 in0.0 mm 0.00 in0.0 mm 0.02 in0.5 mm
02:49 PM 49.6°F9.8°C 40.6°F4.8°C 71% 18.0 mph NW29.0 kmh NW 20.0 mph32.2 kmh 30.27 in1025.1 mb 0.00 in0.0 mm 0.00 in0.0 mm 0.02 in0.5 mm
02:50 PM 49.5°F9.7°C 40.5°F4.7°C 71% 18.0 mph NW29.0 kmh NW 20.0 mph32.2 kmh 30.27 in1025.1 mb 0.00 in0.0 mm 0.00 in0.0 mm 0.02 in0.5 mm
02:51 PM 49.3°F9.6°C 40.7°F4.8°C 72% 16.0 mph WNW25.7 kmh WNW 18.0 mph29.0 kmh 30.27 in1025.1 mb 0.00 in0.0 mm 0.00 in0.0 mm 0.02 in0.5 mm
02:52 PM 49.1°F9.5°C 40.5°F4.7°C 72% 14.0 mph WNW22.5 kmh WNW 15.0 mph24.1 kmh 30.27 in1025.1 mb 0.00 in0.0 mm 0.00 in0.0 mm 0.02 in0.5 mm
02:53 PM 48.9°F9.4°C 40.6°F4.8°C 73% 14.0 mph WNW22.5 kmh WNW 15.0 mph24.1 kmh 30.27 in1025.1 mb 0.00 in0.0 mm 0.00 in0.0 mm 0.02 in0.5 mm
02:54 PM 49.0°F9.4°C 40.4°F4.7°C 72% 16.0 mph WNW25.7 kmh WNW 20.0 mph32.2 kmh 30.27 in1025.1 mb 0.00 in0.0 mm 0.00 in0.0 mm 0.02 in0.5 mm
02:55 PM 49.2°F9.6°C 40.6°F4.8°C 72% 14.0 mph WNW22.5 kmh WNW 17.0 mph27.4 kmh 30.27 in1025.1 mb 0.00 in0.0 mm 0.00 in0.0 mm 0.02 in0.5 mm
02:56 PM 49.1°F9.5°C 40.5°F4.7°C 72% 13.0 mph WNW20.9 kmh WNW 16.0 mph25.7 kmh 30.27 in1025.1 mb 0.00 in0.0 mm 0.00 in0.0 mm 0.02 in0.5 mm
02:57 PM 49.2°F9.6°C 40.9°F4.9°C 73% 15.0 mph WNW24.1 kmh WNW 18.0 mph29.0 kmh 30.27 in1025.1 mb 0.00 in0.0 mm 0.00 in0.0 mm 0.02 in0.5 mm
02:58 PM 49.3°F9.6°C 40.7°F4.8°C 72% 15.0 mph WNW24.1 kmh WNW 20.0 mph32.2 kmh 30.27 in1025.1 mb 0.00 in0.0 mm 0.00 in0.0 mm 0.02 in0.5 mm
02:59 PM 49.4°F9.7°C 40.4°F4.7°C 71% 18.0 mph WNW29.0 kmh WNW 20.0 mph32.2 kmh 30.27 in1025.1 mb 0.00 in0.0 mm 0.00 in0.0 mm 0.02 in0.5 mm
03:00 PM 49.6°F9.8°C 40.6°F4.8°C 71% 17.0 mph WNW27.4 kmh WNW 20.0 mph32.2 kmh 30.27 in1025.1 mb 0.00 in0.0 mm 0.00 in0.0 mm 0.02 in0.5 mm
03:01 PM 49.7°F9.8°C 40.7°F4.8°C 71% 18.0 mph WNW29.0 kmh WNW 20.0 mph32.2 kmh 30.27 in1025.1 mb 0.00 in0.0 mm 0.00 in0.0 mm 0.02 in0.5 mm
03:02 PM 49.7°F9.8°C 40.7°F4.8°C 71% 17.0 mph WNW27.4 kmh WNW 22.0 mph35.4 kmh 30.28 in1025.4 mb 0.00 in0.0 mm 0.00 in0.0 mm 0.02 in0.5 mm
03:03 PM 49.7°F9.8°C 40.3°F4.6°C 70% 16.0 mph WNW25.7 kmh WNW 19.0 mph30.6 kmh 30.28 in1025.4 mb 0.00 in0.0 mm 0.00 in0.0 mm 0.02 in0.5 mm
03:04 PM 49.6°F9.8°C 40.2°F4.6°C 70% 16.0 mph WNW25.7 kmh WNW 19.0 mph30.6 kmh 30.28 in1025.4 mb 0.00 in0.0 mm 0.00 in0.0 mm 0.02 in0.5 mm
03:05 PM 49.6°F9.8°C 40.2°F4.6°C 70% 17.0 mph WNW27.4 kmh WNW 20.0 mph32.2 kmh 30.28 in1025.4 mb 0.00 in0.0 mm 0.00 in0.0 mm 0.02 in0.5 mm
03:06 PM 49.6°F9.8°C 40.2°F4.6°C 70% 16.0 mph NW25.7 kmh NW 18.0 mph29.0 kmh 30.27 in1025.1 mb 0.00 in0.0 mm 0.00 in0.0 mm 0.02 in0.5 mm
03:07 PM 49.4°F9.7°C 40.0°F4.4°C 70% 18.0 mph WNW29.0 kmh WNW 20.0 mph32.2 kmh 30.27 in1025.1 mb 0.00 in0.0 mm 0.00 in0.0 mm 0.02 in0.5 mm
03:08 PM 49.4°F9.7°C 40.0°F4.4°C 70% 18.0 mph WNW29.0 kmh WNW 20.0 mph32.2 kmh 30.27 in1025.1 mb 0.00 in0.0 mm 0.00 in0.0 mm 0.02 in0.5 mm
03:09 PM 49.5°F9.7°C 40.1°F4.5°C 70% 17.0 mph WNW27.4 kmh WNW 20.0 mph32.2 kmh 30.27 in1025.1 mb 0.00 in0.0 mm 0.00 in0.0 mm 0.02 in0.5 mm
03:10 PM 49.5°F9.7°C 40.1°F4.5°C 70% 19.0 mph WNW30.6 kmh WNW 21.0 mph33.8 kmh 30.27 in1025.1 mb 0.00 in0.0 mm 0.00 in0.0 mm 0.02 in0.5 mm
03:11 PM 49.5°F9.7°C 39.8°F4.3°C 69% 20.0 mph WNW32.2 kmh WNW 22.0 mph35.4 kmh 30.27 in1025.1 mb 0.00 in0.0 mm 0.00 in0.0 mm 0.02 in0.5 mm
03:12 PM 49.5°F9.7°C 39.8°F4.3°C 69% 18.0 mph WNW29.0 kmh WNW 19.0 mph30.6 kmh 30.27 in1025.1 mb 0.00 in0.0 mm 0.00 in0.0 mm 0.02 in0.5 mm
03:13 PM 49.4°F9.7°C 40.0°F4.4°C 70% 16.0 mph WNW25.7 kmh WNW 18.0 mph29.0 kmh 30.27 in1025.1 mb 0.00 in0.0 mm 0.00 in0.0 mm 0.02 in0.5 mm
03:14 PM 49.4°F9.7°C 40.0°F4.4°C 70% 19.0 mph NW30.6 kmh NW 21.0 mph33.8 kmh 30.27 in1025.1 mb 0.00 in0.0 mm 0.00 in0.0 mm 0.02 in0.5 mm
03:15 PM 49.3°F9.6°C 39.6°F4.2°C 69% 18.0 mph WNW29.0 kmh WNW 20.0 mph32.2 kmh 30.27 in1025.1 mb 0.00 in0.0 mm 0.00 in0.0 mm 0.02 in0.5 mm
03:16 PM 49.4°F9.7°C 39.7°F4.3°C 69% 18.0 mph WNW29.0 kmh WNW 21.0 mph33.8 kmh 30.27 in1025.1 mb 0.00 in0.0 mm 0.00 in0.0 mm 0.02 in0.5 mm
03:17 PM 49.4°F9.7°C 39.7°F4.3°C 69% 18.0 mph NW29.0 kmh NW 19.0 mph30.6 kmh 30.27 in1025.1 mb 0.00 in0.0 mm 0.00 in0.0 mm 0.02 in0.5 mm
03:18 PM 49.3°F9.6°C 39.9°F4.4°C 70% 17.0 mph WNW27.4 kmh WNW 19.0 mph30.6 kmh 30.27 in1025.1 mb 0.00 in0.0 mm 0.00 in0.0 mm 0.02 in0.5 mm
03:19 PM 49.3°F9.6°C 39.9°F4.4°C 70% 16.0 mph WNW25.7 kmh WNW 18.0 mph29.0 kmh 30.27 in1025.1 mb 0.00 in0.0 mm 0.00 in0.0 mm 0.02 in0.5 mm
03:20 PM 49.4°F9.7°C 40.0°F4.4°C 70% 15.0 mph WNW24.1 kmh WNW 17.0 mph27.4 kmh 30.27 in1025.1 mb 0.00 in0.0 mm 0.00 in0.0 mm 0.02 in0.5 mm
03:21 PM 49.5°F9.7°C 40.1°F4.5°C 70% 18.0 mph WNW29.0 kmh WNW 22.0 mph35.4 kmh 30.27 in1025.1 mb 0.00 in0.0 mm 0.00 in0.0 mm 0.02 in0.5 mm
03:22 PM 49.5°F9.7°C 39.8°F4.3°C 69% 20.0 mph WNW32.2 kmh WNW 22.0 mph35.4 kmh 30.28 in1025.4 mb 0.00 in0.0 mm 0.00 in0.0 mm 0.02 in0.5 mm
03:23 PM 49.6°F9.8°C 39.9°F4.4°C 69% 19.0 mph WNW30.6 kmh WNW 21.0 mph33.8 kmh 30.28 in1025.4 mb 0.00 in0.0 mm 0.00 in0.0 mm 0.02 in0.5 mm
03:24 PM 49.7°F9.8°C 39.9°F4.4°C 69% 19.0 mph WNW30.6 kmh WNW 21.0 mph33.8 kmh 30.28 in1025.4 mb 0.00 in0.0 mm 0.00 in0.0 mm 0.02 in0.5 mm
03:25 PM 49.8°F9.9°C 39.7°F4.3°C 68% 18.0 mph WNW29.0 kmh WNW 20.0 mph32.2 kmh 30.28 in1025.4 mb 0.00 in0.0 mm 0.00 in0.0 mm 0.02 in0.5 mm
03:26 PM 49.7°F9.8°C 39.9°F4.4°C 69% 18.0 mph WNW29.0 kmh WNW 21.0 mph33.8 kmh 30.28 in1025.4 mb 0.00 in0.0 mm 0.00 in0.0 mm 0.02 in0.5 mm
03:27 PM 49.6°F9.8°C 40.2°F4.6°C 70% 17.0 mph WNW27.4 kmh WNW 18.0 mph29.0 kmh 30.28 in1025.4 mb 0.00 in0.0 mm 0.00 in0.0 mm 0.02 in0.5 mm
03:28 PM 49.6°F9.8°C 40.2°F4.6°C 70% 17.0 mph NW27.4 kmh NW 18.0 mph29.0 kmh 30.28 in1025.4 mb 0.00 in0.0 mm 0.00 in0.0 mm 0.02 in0.5 mm
03:29 PM 49.6°F9.8°C 40.2°F4.6°C 70% 18.0 mph WNW29.0 kmh WNW 19.0 mph30.6 kmh 30.28 in1025.4 mb 0.00 in0.0 mm 0.00 in0.0 mm 0.02 in0.5 mm
03:30 PM 49.6°F9.8°C 40.2°F4.6°C 70% 17.0 mph NW27.4 kmh NW 19.0 mph30.6 kmh 30.28 in1025.4 mb 0.00 in0.0 mm 0.00 in0.0 mm 0.02 in0.5 mm
03:31 PM 49.6°F9.8°C 40.2°F4.6°C 70% 16.0 mph NW25.7 kmh NW 18.0 mph29.0 kmh 30.28 in1025.4 mb 0.00 in0.0 mm 0.00 in0.0 mm 0.02 in0.5 mm
03:32 PM 49.6°F9.8°C 40.6°F4.8°C 71% 15.0 mph WNW24.1 kmh WNW 17.0 mph27.4 kmh 30.28 in1025.4 mb 0.00 in0.0 mm 0.00 in0.0 mm 0.02 in0.5 mm
03:33 PM 49.6°F9.8°C 40.9°F4.9°C 72% 15.0 mph WNW24.1 kmh WNW 17.0 mph27.4 kmh 30.28 in1025.4 mb 0.00 in0.0 mm 0.00 in0.0 mm 0.02 in0.5 mm
03:34 PM 49.7°F9.8°C 40.7°F4.8°C 71% 16.0 mph WNW25.7 kmh WNW 18.0 mph29.0 kmh 30.28 in1025.4 mb 0.00 in0.0 mm 0.00 in0.0 mm 0.02 in0.5 mm
03:35 PM 49.7°F9.8°C 40.7°F4.8°C 71% 14.0 mph WNW22.5 kmh WNW 16.0 mph25.7 kmh 30.28 in1025.4 mb 0.00 in0.0 mm 0.00 in0.0 mm 0.02 in0.5 mm
03:36 PM 49.8°F9.9°C 40.8°F4.9°C 71% 14.0 mph WNW22.5 kmh WNW 16.0 mph25.7 kmh 30.28 in1025.4 mb 0.00 in0.0 mm 0.00 in0.0 mm 0.02 in0.5 mm
03:37 PM 49.8°F9.9°C 40.8°F4.9°C 71% 14.0 mph WNW22.5 kmh WNW 17.0 mph27.4 kmh 30.28 in1025.4 mb 0.00 in0.0 mm 0.00 in0.0 mm 0.02 in0.5 mm
03:38 PM 49.7°F9.8°C 40.7°F4.8°C 71% 14.0 mph WNW22.5 kmh WNW 17.0 mph27.4 kmh 30.28 in1025.4 mb 0.00 in0.0 mm 0.00 in0.0 mm 0.02 in0.5 mm
03:39 PM 49.7°F9.8°C 40.7°F4.8°C 71% 15.0 mph WNW24.1 kmh WNW 17.0 mph27.4 kmh 30.28 in1025.4 mb 0.00 in0.0 mm 0.00 in0.0 mm 0.02 in0.5 mm
03:40 PM 49.8°F9.9°C 40.8°F4.9°C 71% 16.0 mph WNW25.7 kmh WNW 18.0 mph29.0 kmh 30.28 in1025.4 mb 0.00 in0.0 mm 0.00 in0.0 mm 0.02 in0.5 mm
03:41 PM 49.9°F9.9°C 40.9°F4.9°C 71% 15.0 mph W24.1 kmh W 18.0 mph29.0 kmh 30.28 in1025.4 mb 0.00 in0.0 mm 0.00 in0.0 mm 0.02 in0.5 mm
03:42 PM 49.9°F9.9°C 40.5°F4.7°C 70% 16.0 mph WNW25.7 kmh WNW 20.0 mph32.2 kmh 30.28 in1025.4 mb 0.00 in0.0 mm 0.00 in0.0 mm 0.02 in0.5 mm
03:43 PM 49.9°F9.9°C 40.1°F4.5°C 69% 18.0 mph W29.0 kmh W 22.0 mph35.4 kmh 30.28 in1025.4 mb 0.00 in0.0 mm 0.00 in0.0 mm 0.02 in0.5 mm
03:44 PM 50.0°F10.0°C 40.2°F4.6°C 69% 17.0 mph WNW27.4 kmh WNW 20.0 mph32.2 kmh 30.28 in1025.4 mb 0.00 in0.0 mm 0.00 in0.0 mm 0.02 in0.5 mm
03:45 PM 50.0°F10.0°C 39.9°F4.4°C 68% 15.0 mph WNW24.1 kmh WNW 17.0 mph27.4 kmh 30.28 in1025.4 mb 0.00 in0.0 mm 0.00 in0.0 mm 0.02 in0.5 mm
03:46 PM 50.0°F10.0°C 39.9°F4.4°C 68% 17.0 mph WNW27.4 kmh WNW 20.0 mph32.2 kmh 30.28 in1025.4 mb 0.00 in0.0 mm 0.00 in0.0 mm 0.02 in0.5 mm
03:47 PM 50.1°F10.1°C 40.0°F4.4°C 68% 16.0 mph WNW25.7 kmh WNW 19.0 mph30.6 kmh 30.28 in1025.4 mb 0.00 in0.0 mm 0.00 in0.0 mm 0.02 in0.5 mm
03:48 PM 50.1°F10.1°C 40.0°F4.4°C 68% 17.0 mph WNW27.4 kmh WNW 20.0 mph32.2 kmh 30.29 in1025.7 mb 0.00 in0.0 mm 0.00 in0.0 mm 0.02 in0.5 mm
03:49 PM 50.1°F10.1°C 40.0°F4.4°C 68% 16.0 mph WNW25.7 kmh WNW 18.0 mph29.0 kmh 30.28 in1025.4 mb 0.00 in0.0 mm 0.00 in0.0 mm 0.02 in0.5 mm
03:50 PM 50.1°F10.1°C 40.0°F4.4°C 68% 17.0 mph WNW27.4 kmh WNW 19.0 mph30.6 kmh 30.28 in1025.4 mb 0.00 in0.0 mm 0.00 in0.0 mm 0.02 in0.5 mm
03:51 PM 50.0°F10.0°C 39.9°F4.4°C 68% 17.0 mph WNW27.4 kmh WNW 18.0 mph29.0 kmh 30.28 in1025.4 mb 0.00 in0.0 mm 0.00 in0.0 mm 0.02 in0.5 mm
03:52 PM 49.9°F9.9°C 40.1°F4.5°C 69% 17.0 mph WNW27.4 kmh WNW 18.0 mph29.0 kmh 30.28 in1025.4 mb 0.00 in0.0 mm 0.00 in0.0 mm 0.02 in0.5 mm
03:53 PM 49.9°F9.9°C 40.1°F4.5°C 69% 14.0 mph WNW22.5 kmh WNW 17.0 mph27.4 kmh 30.28 in1025.4 mb 0.00 in0.0 mm 0.00 in0.0 mm 0.02 in0.5 mm
03:54 PM 49.8°F9.9°C 40.0°F4.4°C 69% 12.0 mph WNW19.3 kmh WNW 14.0 mph22.5 kmh 30.28 in1025.4 mb 0.00 in0.0 mm 0.00 in0.0 mm 0.02 in0.5 mm
03:55 PM 49.8°F9.9°C 40.4°F4.7°C 70% 13.0 mph WNW20.9 kmh WNW 15.0 mph24.1 kmh 30.29 in1025.7 mb 0.00 in0.0 mm 0.00 in0.0 mm 0.02 in0.5 mm
03:56 PM 49.9°F9.9°C 40.5°F4.7°C 70% 13.0 mph WNW20.9 kmh WNW 14.0 mph22.5 kmh 30.29 in1025.7 mb 0.00 in0.0 mm 0.00 in0.0 mm 0.02 in0.5 mm
03:57 PM 49.9°F9.9°C 40.1°F4.5°C 69% 13.0 mph W20.9 kmh W 15.0 mph24.1 kmh 30.28 in1025.4 mb 0.00 in0.0 mm 0.00 in0.0 mm 0.02 in0.5 mm
03:58 PM 50.0°F10.0°C 40.2°F4.6°C 69% 12.0 mph WNW19.3 kmh WNW 14.0 mph22.5 kmh 30.28 in1025.4 mb 0.00 in0.0 mm 0.00 in0.0 mm 0.02 in0.5 mm
03:59 PM 50.0°F10.0°C 40.2°F4.6°C 69% 15.0 mph W24.1 kmh W 18.0 mph29.0 kmh 30.28 in1025.4 mb 0.00 in0.0 mm 0.00 in0.0 mm 0.02 in0.5 mm
04:00 PM 50.1°F10.1°C 40.3°F4.6°C 69% 12.0 mph WNW19.3 kmh WNW 15.0 mph24.1 kmh 30.28 in1025.4 mb 0.00 in0.0 mm 0.00 in0.0 mm 0.02 in0.5 mm
04:01 PM 50.0°F10.0°C 40.2°F4.6°C 69% 14.0 mph W22.5 kmh W 16.0 mph25.7 kmh 30.28 in1025.4 mb 0.00 in0.0 mm 0.00 in0.0 mm 0.02 in0.5 mm
04:02 PM 50.1°F10.1°C 40.3°F4.6°C 69% 16.0 mph WNW25.7 kmh WNW 19.0 mph30.6 kmh 30.28 in1025.4 mb 0.00 in0.0 mm 0.00 in0.0 mm 0.02 in0.5 mm
04:03 PM 50.1°F10.1°C 40.0°F4.4°C 68% 17.0 mph WNW27.4 kmh WNW 19.0 mph30.6 kmh 30.28 in1025.4 mb 0.00 in0.0 mm 0.00 in0.0 mm 0.02 in0.5 mm
04:04 PM 50.1°F10.1°C 40.0°F4.4°C 68% 16.0 mph WNW25.7 kmh WNW 18.0 mph29.0 kmh 30.28 in1025.4 mb 0.00 in0.0 mm 0.00 in0.0 mm 0.02 in0.5 mm
04:05 PM 50.1°F10.1°C 40.0°F4.4°C 68% 19.0 mph WNW30.6 kmh WNW 21.0 mph33.8 kmh 30.28 in1025.4 mb 0.00 in0.0 mm 0.00 in0.0 mm 0.02 in0.5 mm
04:06 PM 50.2°F10.1°C 39.7°F4.3°C 67% 16.0 mph WNW25.7 kmh WNW 18.0 mph29.0 kmh 30.28 in1025.4 mb 0.00 in0.0 mm 0.00 in0.0 mm 0.02 in0.5 mm
04:07 PM 50.3°F10.2°C 39.8°F4.3°C 67% 16.0 mph WNW25.7 kmh WNW 18.0 mph29.0 kmh 30.28 in1025.4 mb 0.00 in0.0 mm 0.00 in0.0 mm 0.02 in0.5 mm
04:08 PM 50.3°F10.2°C 39.8°F4.3°C 67% 16.0 mph WNW25.7 kmh WNW 19.0 mph30.6 kmh 30.28 in1025.4 mb 0.00 in0.0 mm 0.00 in0.0 mm 0.02 in0.5 mm
04:09 PM 50.2°F10.1°C 39.7°F4.3°C 67% 15.0 mph WNW24.1 kmh WNW 17.0 mph27.4 kmh 30.28 in1025.4 mb 0.00 in0.0 mm 0.00 in0.0 mm 0.02 in0.5 mm
04:10 PM 50.1°F10.1°C 40.0°F4.4°C 68% 14.0 mph WNW22.5 kmh WNW 16.0 mph25.7 kmh 30.28 in1025.4 mb 0.00 in0.0 mm 0.00 in0.0 mm 0.02 in0.5 mm
04:11 PM 50.0°F10.0°C 39.9°F4.4°C 68% 14.0 mph WNW22.5 kmh WNW 15.0 mph24.1 kmh 30.28 in1025.4 mb 0.00 in0.0 mm 0.00 in0.0 mm 0.02 in0.5 mm
04:12 PM 50.0°F10.0°C 39.9°F4.4°C 68% 15.0 mph WNW24.1 kmh WNW 16.0 mph25.7 kmh 30.28 in1025.4 mb 0.00 in0.0 mm 0.00 in0.0 mm 0.02 in0.5 mm
04:13 PM 49.9°F9.9°C 40.1°F4.5°C 69% 15.0 mph WNW24.1 kmh WNW 17.0 mph27.4 kmh 30.28 in1025.4 mb 0.00 in0.0 mm 0.00 in0.0 mm 0.02 in0.5 mm
04:14 PM 49.9°F9.9°C 39.8°F4.3°C 68% 16.0 mph WNW25.7 kmh WNW 17.0 mph27.4 kmh 30.28 in1025.4 mb 0.00 in0.0 mm 0.00 in0.0 mm 0.02 in0.5 mm
04:15 PM 50.0°F10.0°C 39.9°F4.4°C 68% 15.0 mph WNW24.1 kmh WNW 18.0 mph29.0 kmh 30.28 in1025.4 mb 0.00 in0.0 mm 0.00 in0.0 mm 0.02 in0.5 mm
04:16 PM 50.1°F10.1°C 40.0°F4.4°C 68% 13.0 mph W20.9 kmh W 15.0 mph24.1 kmh 30.28 in1025.4 mb 0.00 in0.0 mm 0.00 in0.0 mm 0.02 in0.5 mm
04:17 PM 50.0°F10.0°C 40.2°F4.6°C 69% 13.0 mph WNW20.9 kmh WNW 16.0 mph25.7 kmh 30.28 in1025.4 mb 0.00 in0.0 mm 0.00 in0.0 mm 0.02 in0.5 mm
04:18 PM 49.9°F9.9°C 40.1°F4.5°C 69% 11.0 mph W17.7 kmh W 13.0 mph20.9 kmh 30.28 in1025.4 mb 0.00 in0.0 mm 0.00 in0.0 mm 0.02 in0.5 mm
04:19 PM 49.9°F9.9°C 40.1°F4.5°C 69% 12.0 mph WNW19.3 kmh WNW 14.0 mph22.5 kmh 30.28 in1025.4 mb 0.00 in0.0 mm 0.00 in0.0 mm 0.02 in0.5 mm
04:20 PM 49.8°F9.9°C 40.4°F4.7°C 70% 11.0 mph W17.7 kmh W 13.0 mph20.9 kmh 30.28 in1025.4 mb 0.00 in0.0 mm 0.00 in0.0 mm 0.02 in0.5 mm
04:21 PM 49.7°F9.8°C 40.3°F4.6°C 70% 11.0 mph WNW17.7 kmh WNW 12.0 mph19.3 kmh 30.28 in1025.4 mb 0.00 in0.0 mm 0.00 in0.0 mm 0.02 in0.5 mm
04:22 PM 49.6°F9.8°C 40.2°F4.6°C 70% 11.0 mph W17.7 kmh W 12.0 mph19.3 kmh 30.29 in1025.7 mb 0.00 in0.0 mm 0.00 in0.0 mm 0.02 in0.5 mm
04:23 PM 49.5°F9.7°C 40.1°F4.5°C 70% 11.0 mph W17.7 kmh W 12.0 mph19.3 kmh 30.29 in1025.7 mb 0.00 in0.0 mm 0.00 in0.0 mm 0.02 in0.5 mm
04:24 PM 49.4°F9.7°C 40.4°F4.7°C 71% 11.0 mph W17.7 kmh W 12.0 mph19.3 kmh 30.29 in1025.7 mb 0.00 in0.0 mm 0.00 in0.0 mm 0.02 in0.5 mm
04:25 PM 49.4°F9.7°C 40.0°F4.4°C 70% 13.0 mph W20.9 kmh W 17.0 mph27.4 kmh 30.29 in1025.7 mb 0.00 in0.0 mm 0.00 in0.0 mm 0.02 in0.5 mm
04:26 PM 49.4°F9.7°C 39.7°F4.3°C 69% 13.0 mph W20.9 kmh W 15.0 mph24.1 kmh 30.29 in1025.7 mb 0.00 in0.0 mm 0.00 in0.0 mm 0.02 in0.5 mm
04:27 PM 49.5°F9.7°C 39.8°F4.3°C 69% 16.0 mph W25.7 kmh W 19.0 mph30.6 kmh 30.29 in1025.7 mb 0.00 in0.0 mm 0.00 in0.0 mm 0.02 in0.5 mm
04:28 PM 49.6°F9.8°C 39.5°F4.2°C 68% 15.0 mph W24.1 kmh W 18.0 mph29.0 kmh 30.29 in1025.7 mb 0.00 in0.0 mm 0.00 in0.0 mm 0.02 in0.5 mm
04:29 PM 49.6°F9.8°C 39.5°F4.2°C 68% 18.0 mph W29.0 kmh W 20.0 mph32.2 kmh 30.29 in1025.7 mb 0.00 in0.0 mm 0.00 in0.0 mm 0.02 in0.5 mm
04:30 PM 49.7°F9.8°C 39.6°F4.2°C 68% 18.0 mph W29.0 kmh W 20.0 mph32.2 kmh 30.28 in1025.4 mb 0.00 in0.0 mm 0.00 in0.0 mm 0.02 in0.5 mm
04:31 PM 49.7°F9.8°C 39.6°F4.2°C 68% 17.0 mph W27.4 kmh W 19.0 mph30.6 kmh 30.29 in1025.7 mb 0.00 in0.0 mm 0.00 in0.0 mm 0.02 in0.5 mm
04:32 PM 49.7°F9.8°C 39.6°F4.2°C 68% 15.0 mph W24.1 kmh W 18.0 mph29.0 kmh 30.29 in1025.7 mb 0.00 in0.0 mm 0.00 in0.0 mm 0.02 in0.5 mm
04:33 PM 49.6°F9.8°C 39.9°F4.4°C 69% 16.0 mph W25.7 kmh W 19.0 mph30.6 kmh 30.28 in1025.4 mb 0.00 in0.0 mm 0.00 in0.0 mm 0.02 in0.5 mm
04:34 PM 49.7°F9.8°C 39.9°F4.4°C 69% 15.0 mph W24.1 kmh W 16.0 mph25.7 kmh 30.29 in1025.7 mb 0.00 in0.0 mm 0.00 in0.0 mm 0.02 in0.5 mm
04:35 PM 49.6°F9.8°C 39.9°F4.4°C 69% 14.0 mph W22.5 kmh W 16.0 mph25.7 kmh 30.29 in1025.7 mb 0.00 in0.0 mm 0.00 in0.0 mm 0.02 in0.5 mm
04:36 PM 49.6°F9.8°C 39.9°F4.4°C 69% 13.0 mph W20.9 kmh W 15.0 mph24.1 kmh 30.29 in1025.7 mb 0.00 in0.0 mm 0.00 in0.0 mm 0.02 in0.5 mm
04:37 PM 49.5°F9.7°C 40.1°F4.5°C 70% 15.0 mph W24.1 kmh W 18.0 mph29.0 kmh 30.28 in1025.4 mb 0.00 in0.0 mm 0.00 in0.0 mm 0.02 in0.5 mm
04:38 PM 49.6°F9.8°C 39.9°F4.4°C 69% 18.0 mph W29.0 kmh W 19.0 mph30.6 kmh 30.29 in1025.7 mb 0.00 in0.0 mm 0.00 in0.0 mm 0.02 in0.5 mm
04:39 PM 49.6°F9.8°C 39.9°F4.4°C 69% 15.0 mph W24.1 kmh W 17.0 mph27.4 kmh 30.28 in1025.4 mb 0.00 in0.0 mm 0.00 in0.0 mm 0.02 in0.5 mm
04:40 PM 49.6°F9.8°C 39.9°F4.4°C 69% 15.0 mph W24.1 kmh W 18.0 mph29.0 kmh 30.28 in1025.4 mb 0.00 in0.0 mm 0.00 in0.0 mm 0.02 in0.5 mm
04:41 PM 49.6°F9.8°C 40.2°F4.6°C 70% 14.0 mph W22.5 kmh W 17.0 mph27.4 kmh 30.28 in1025.4 mb 0.00 in0.0 mm 0.00 in0.0 mm 0.02 in0.5 mm
04:42 PM 49.5°F9.7°C 40.1°F4.5°C 70% 13.0 mph W20.9 kmh W 15.0 mph24.1 kmh 30.28 in1025.4 mb 0.00 in0.0 mm 0.00 in0.0 mm 0.02 in0.5 mm
04:43 PM 49.5°F9.7°C 40.1°F4.5°C 70% 16.0 mph W25.7 kmh W 18.0 mph29.0 kmh 30.28 in1025.4 mb 0.00 in0.0 mm 0.00 in0.0 mm 0.02 in0.5 mm
04:44 PM 49.5°F9.7°C 40.1°F4.5°C 70% 16.0 mph W25.7 kmh W 18.0 mph29.0 kmh 30.28 in1025.4 mb 0.00 in0.0 mm 0.00 in0.0 mm 0.02 in0.5 mm
04:45 PM 49.5°F9.7°C 40.1°F4.5°C 70% 14.0 mph W22.5 kmh W 17.0 mph27.4 kmh 30.28 in1025.4 mb 0.00 in0.0 mm 0.00 in0.0 mm 0.02 in0.5 mm
04:46 PM 49.3°F9.6°C 39.9°F4.4°C 70% 13.0 mph W20.9 kmh W 15.0 mph24.1 kmh 30.28 in1025.4 mb 0.00 in0.0 mm 0.00 in0.0 mm 0.02 in0.5 mm
04:47 PM 49.3°F9.6°C 40.3°F4.6°C 71% 15.0 mph W24.1 kmh W 17.0 mph27.4 kmh 30.28 in1025.4 mb 0.00 in0.0 mm 0.00 in0.0 mm 0.02 in0.5 mm
04:48 PM 49.3°F9.6°C 40.3°F4.6°C 71% 15.0 mph W24.1 kmh W 17.0 mph27.4 kmh 30.28 in1025.4 mb 0.00 in0.0 mm 0.00 in0.0 mm 0.02 in0.5 mm
04:49 PM 49.3°F9.6°C 40.3°F4.6°C 71% 16.0 mph W25.7 kmh W 17.0 mph27.4 kmh 30.28 in1025.4 mb 0.00 in0.0 mm 0.00 in0.0 mm 0.02 in0.5 mm
04:50 PM 49.4°F9.7°C 40.4°F4.7°C 71% 13.0 mph W20.9 kmh W 15.0 mph24.1 kmh 30.28 in1025.4 mb 0.00 in0.0 mm 0.00 in0.0 mm 0.02 in0.5 mm
04:51 PM 49.4°F9.7°C 40.4°F4.7°C 71% 15.0 mph W24.1 kmh W 17.0 mph27.4 kmh 30.28 in1025.4 mb 0.00 in0.0 mm 0.00 in0.0 mm 0.02 in0.5 mm
04:52 PM 49.4°F9.7°C 40.4°F4.7°C 71% 13.0 mph W20.9 kmh W 14.0 mph22.5 kmh 30.28 in1025.4 mb 0.00 in0.0 mm 0.00 in0.0 mm 0.02 in0.5 mm
04:53 PM 49.4°F9.7°C 40.4°F4.7°C 71% 14.0 mph W22.5 kmh W 15.0 mph24.1 kmh 30.28 in1025.4 mb 0.00 in0.0 mm 0.00 in0.0 mm 0.02 in0.5 mm
04:54 PM 49.4°F9.7°C 40.8°F4.9°C 72% 12.0 mph W19.3 kmh W 14.0 mph22.5 kmh 30.28 in1025.4 mb 0.00 in0.0 mm 0.00 in0.0 mm 0.02 in0.5 mm
04:55 PM 49.3°F9.6°C 40.7°F4.8°C 72% 12.0 mph W19.3 kmh W 14.0 mph22.5 kmh 30.28 in1025.4 mb 0.00 in0.0 mm 0.00 in0.0 mm 0.02 in0.5 mm
04:56 PM 49.2°F9.6°C 40.6°F4.8°C 72% 12.0 mph WSW19.3 kmh WSW 14.0 mph22.5 kmh 30.28 in1025.4 mb 0.00 in0.0 mm 0.00 in0.0 mm 0.02 in0.5 mm
04:57 PM 49.1°F9.5°C 40.5°F4.7°C 72% 12.0 mph W19.3 kmh W 14.0 mph22.5 kmh 30.28 in1025.4 mb 0.00 in0.0 mm 0.00 in0.0 mm 0.02 in0.5 mm
04:58 PM 49.0°F9.4°C 40.7°F4.8°C 73% 13.0 mph W20.9 kmh W 14.0 mph22.5 kmh 30.29 in1025.7 mb 0.00 in0.0 mm 0.00 in0.0 mm 0.02 in0.5 mm
04:59 PM 48.9°F9.4°C 40.6°F4.8°C 73% 13.0 mph WSW20.9 kmh WSW 14.0 mph22.5 kmh 30.29 in1025.7 mb 0.00 in0.0 mm 0.00 in0.0 mm 0.02 in0.5 mm
05:00 PM 48.9°F9.4°C 41.0°F5.0°C 74% 13.0 mph W20.9 kmh W 14.0 mph22.5 kmh 30.29 in1025.7 mb 0.00 in0.0 mm 0.00 in0.0 mm 0.02 in0.5 mm
05:01 PM 48.8°F9.3°C 40.9°F4.9°C 74% 12.0 mph W19.3 kmh W 14.0 mph22.5 kmh 30.29 in1025.7 mb 0.00 in0.0 mm 0.00 in0.0 mm 0.02 in0.5 mm
05:02 PM 48.7°F9.3°C 40.8°F4.9°C 74% 12.0 mph W19.3 kmh W 13.0 mph20.9 kmh 30.29 in1025.7 mb 0.00 in0.0 mm 0.00 in0.0 mm 0.02 in0.5 mm
05:03 PM 48.6°F9.2°C 40.7°F4.8°C 74% 13.0 mph W20.9 kmh W 15.0 mph24.1 kmh 30.29 in1025.7 mb 0.00 in0.0 mm 0.00 in0.0 mm 0.02 in0.5 mm
05:04 PM 48.6°F9.2°C 40.7°F4.8°C 74% 13.0 mph W20.9 kmh W 14.0 mph22.5 kmh 30.29 in1025.7 mb 0.00 in0.0 mm 0.00 in0.0 mm 0.02 in0.5 mm
05:05 PM 48.6°F9.2°C 40.7°F4.8°C 74% 13.0 mph W20.9 kmh W 15.0 mph24.1 kmh 30.29 in1025.7 mb 0.00 in0.0 mm 0.00 in0.0 mm 0.02 in0.5 mm
05:06 PM 48.5°F9.2°C 40.9°F4.9°C 75% 13.0 mph W20.9 kmh W 14.0 mph22.5 kmh 30.29 in1025.7 mb 0.00 in0.0 mm 0.00 in0.0 mm 0.02 in0.5 mm
05:07 PM 48.5°F9.2°C 40.9°F4.9°C 75% 13.0 mph W20.9 kmh W 14.0 mph22.5 kmh 30.29 in1025.7 mb 0.00 in0.0 mm 0.00 in0.0 mm 0.02 in0.5 mm
05:08 PM 48.6°F9.2°C 41.0°F5.0°C 75% 13.0 mph W20.9 kmh W 14.0 mph22.5 kmh 30.29 in1025.7 mb 0.00 in0.0 mm 0.00 in0.0 mm 0.02 in0.5 mm
05:09 PM 48.7°F9.3°C 40.8°F4.9°C 74% 13.0 mph W20.9 kmh W 14.0 mph22.5 kmh 30.29 in1025.7 mb 0.00 in0.0 mm 0.00 in0.0 mm 0.02 in0.5 mm
05:10 PM 48.6°F9.2°C 40.7°F4.8°C 74% 13.0 mph W20.9 kmh W 14.0 mph22.5 kmh 30.29 in1025.7 mb 0.00 in0.0 mm 0.00 in0.0 mm 0.02 in0.5 mm
05:11 PM 48.6°F9.2°C 41.0°F5.0°C 75% 13.0 mph W20.9 kmh W 14.0 mph22.5 kmh 30.29 in1025.7 mb 0.00 in0.0 mm 0.00 in0.0 mm 0.02 in0.5 mm
05:12 PM 48.6°F9.2°C 41.0°F5.0°C 75% 13.0 mph W20.9 kmh W 15.0 mph24.1 kmh 30.29 in1025.7 mb 0.00 in0.0 mm 0.00 in0.0 mm 0.02 in0.5 mm
05:13 PM 48.6°F9.2°C 41.0°F5.0°C 75% 12.0 mph W19.3 kmh W 14.0 mph22.5 kmh 30.29 in1025.7 mb 0.00 in0.0 mm 0.00 in0.0 mm 0.02 in0.5 mm
05:14 PM 48.6°F9.2°C 41.0°F5.0°C 75% 13.0 mph W20.9 kmh W 13.0 mph20.9 kmh 30.29 in1025.7 mb 0.00 in0.0 mm 0.00 in0.0 mm 0.02 in0.5 mm
05:15 PM 48.6°F9.2°C 41.0°F5.0°C 75% 12.0 mph W19.3 kmh W 15.0 mph24.1 kmh 30.30 in1026.1 mb 0.00 in0.0 mm 0.00 in0.0 mm 0.02 in0.5 mm
05:16 PM 48.6°F9.2°C 41.0°F5.0°C 75% 12.0 mph W19.3 kmh W 14.0 mph22.5 kmh 30.30 in1026.1 mb 0.00 in0.0 mm 0.00 in0.0 mm 0.02 in0.5 mm
05:17 PM 48.7°F9.3°C 41.1°F5.1°C 75% 11.0 mph W17.7 kmh W 12.0 mph19.3 kmh 30.30 in1026.1 mb 0.00 in0.0 mm 0.00 in0.0 mm 0.02 in0.5 mm
05:18 PM 48.6°F9.2°C 41.0°F5.0°C 75% 11.0 mph W17.7 kmh W 13.0 mph20.9 kmh 30.30 in1026.1 mb 0.00 in0.0 mm 0.00 in0.0 mm 0.02 in0.5 mm
05:19 PM 48.5°F9.2°C 40.9°F4.9°C 75% 11.0 mph W17.7 kmh W 13.0 mph20.9 kmh 30.30 in1026.1 mb 0.00 in0.0 mm 0.00 in0.0 mm 0.02 in0.5 mm
05:20 PM 48.4°F9.1°C 40.8°F4.9°C 75% 11.0 mph W17.7 kmh W 12.0 mph19.3 kmh 30.30 in1026.1 mb 0.00 in0.0 mm 0.00 in0.0 mm 0.02 in0.5 mm
05:21 PM 48.4°F9.1°C 40.8°F4.9°C 75% 13.0 mph W20.9 kmh W 14.0 mph22.5 kmh 30.29 in1025.7 mb 0.00 in0.0 mm 0.00 in0.0 mm 0.02 in0.5 mm
05:22 PM 48.3°F9.1°C 40.7°F4.8°C 75% 12.0 mph W19.3 kmh W 13.0 mph20.9 kmh 30.29 in1025.7 mb 0.00 in0.0 mm 0.00 in0.0 mm 0.02 in0.5 mm
05:23 PM 48.3°F9.1°C 40.7°F4.8°C 75% 11.0 mph W17.7 kmh W 12.0 mph19.3 kmh 30.29 in1025.7 mb 0.00 in0.0 mm 0.00 in0.0 mm 0.02 in0.5 mm
05:24 PM 48.4°F9.1°C 40.8°F4.9°C 75% 12.0 mph W19.3 kmh W 13.0 mph20.9 kmh 30.29 in1025.7 mb 0.00 in0.0 mm 0.00 in0.0 mm 0.02 in0.5 mm
05:25 PM 48.4°F9.1°C 40.8°F4.9°C 75% 12.0 mph W19.3 kmh W 13.0 mph20.9 kmh 30.29 in1025.7 mb 0.00 in0.0 mm 0.00 in0.0 mm 0.02 in0.5 mm
05:26 PM 48.3°F9.1°C 40.7°F4.8°C 75% 10.0 mph W16.1 kmh W 12.0 mph19.3 kmh 30.30 in1026.1 mb 0.00 in0.0 mm 0.00 in0.0 mm 0.02 in0.5 mm
05:27 PM 48.2°F9.0°C 40.7°F4.8°C 75% 10.0 mph W16.1 kmh W 11.0 mph17.7 kmh 30.30 in1026.1 mb 0.00 in0.0 mm 0.00 in0.0 mm 0.02 in0.5 mm
05:28 PM 48.2°F9.0°C 40.7°F4.8°C 75% 10.0 mph W16.1 kmh W 11.0 mph17.7 kmh 30.29 in1025.7 mb 0.00 in0.0 mm 0.00 in0.0 mm 0.02 in0.5 mm
05:29 PM 48.1°F8.9°C 40.9°F4.9°C 76% 10.0 mph W16.1 kmh W 11.0 mph17.7 kmh 30.30 in1026.1 mb 0.00 in0.0 mm 0.00 in0.0 mm 0.02 in0.5 mm
05:30 PM 48.1°F8.9°C 40.9°F4.9°C 76% 11.0 mph W17.7 kmh W 12.0 mph19.3 kmh 30.29 in1025.7 mb 0.00 in0.0 mm 0.00 in0.0 mm 0.02 in0.5 mm
05:31 PM 48.0°F8.9°C 40.8°F4.9°C 76% 11.0 mph W17.7 kmh W 13.0 mph20.9 kmh 30.29 in1025.7 mb 0.00 in0.0 mm 0.00 in0.0 mm 0.02 in0.5 mm
05:32 PM 48.1°F8.9°C 40.9°F4.9°C 76% 11.0 mph W17.7 kmh W 13.0 mph20.9 kmh 30.30 in1026.1 mb 0.00 in0.0 mm 0.00 in0.0 mm 0.02 in0.5 mm
05:33 PM 48.0°F8.9°C 40.8°F4.9°C 76% 11.0 mph W17.7 kmh W 12.0 mph19.3 kmh 30.30 in1026.1 mb 0.00 in0.0 mm 0.00 in0.0 mm 0.02 in0.5 mm
05:34 PM 48.1°F8.9°C 40.9°F4.9°C 76% 11.0 mph W17.7 kmh W 12.0 mph19.3 kmh 30.30 in1026.1 mb 0.00 in0.0 mm 0.00 in0.0 mm 0.02 in0.5 mm
05:35 PM 48.0°F8.9°C 40.8°F4.9°C 76% 11.0 mph W17.7 kmh W 12.0 mph19.3 kmh 30.30 in1026.1 mb 0.00 in0.0 mm 0.00 in0.0 mm 0.02 in0.5 mm
05:36 PM 48.0°F8.9°C 40.8°F4.9°C 76% 11.0 mph W17.7 kmh W 12.0 mph19.3 kmh 30.30 in1026.1 mb 0.00 in0.0 mm 0.00 in0.0 mm 0.02 in0.5 mm
05:37 PM 48.0°F8.9°C 40.8°F4.9°C 76% 11.0 mph W17.7 kmh W 13.0 mph20.9 kmh 30.30 in1026.1 mb 0.00 in0.0 mm 0.00 in0.0 mm 0.02 in0.5 mm
05:38 PM 48.0°F8.9°C 40.8°F4.9°C 76% 11.0 mph W17.7 kmh W 12.0 mph19.3 kmh 30.30 in1026.1 mb 0.00 in0.0 mm 0.00 in0.0 mm 0.02 in0.5 mm
05:39 PM 48.0°F8.9°C 41.1°F5.1°C 77% 10.0 mph W16.1 kmh W 11.0 mph17.7 kmh 30.30 in1026.1 mb 0.00 in0.0 mm 0.00 in0.0 mm 0.02 in0.5 mm
05:40 PM 48.0°F8.9°C 41.1°F5.1°C 77% 10.0 mph W16.1 kmh W 12.0 mph19.3 kmh 30.30 in1026.1 mb 0.00 in0.0 mm 0.00 in0.0 mm 0.02 in0.5 mm
05:41 PM 48.1°F8.9°C 40.9°F4.9°C 76% 10.0 mph W16.1 kmh W 12.0 mph19.3 kmh 30.30 in1026.1 mb 0.00 in0.0 mm 0.00 in0.0 mm 0.02 in0.5 mm
05:42 PM 48.0°F8.9°C 40.8°F4.9°C 76% 10.0 mph W16.1 kmh W 12.0 mph19.3 kmh 30.30 in1026.1 mb 0.00 in0.0 mm 0.00 in0.0 mm 0.02 in0.5 mm
05:43 PM 48.1°F8.9°C 41.2°F5.1°C 77% 11.0 mph W17.7 kmh W 13.0 mph20.9 kmh 30.30 in1026.1 mb 0.00 in0.0 mm 0.00 in0.0 mm 0.02 in0.5 mm
05:44 PM 48.1°F8.9°C 41.2°F5.1°C 77% 11.0 mph W17.7 kmh W 12.0 mph19.3 kmh 30.30 in1026.1 mb 0.00 in0.0 mm 0.00 in0.0 mm 0.02 in0.5 mm
05:45 PM 48.1°F8.9°C 41.2°F5.1°C 77% 10.0 mph W16.1 kmh W 12.0 mph19.3 kmh 30.30 in1026.1 mb 0.00 in0.0 mm 0.00 in0.0 mm 0.02 in0.5 mm
05:46 PM 48.1°F8.9°C 41.2°F5.1°C 77% 11.0 mph W17.7 kmh W 13.0 mph20.9 kmh 30.30 in1026.1 mb 0.00 in0.0 mm 0.00 in0.0 mm 0.02 in0.5 mm
05:47 PM 48.1°F8.9°C 41.2°F5.1°C 77% 10.0 mph W16.1 kmh W 11.0 mph17.7 kmh 30.30 in1026.1 mb 0.00 in0.0 mm 0.00 in0.0 mm 0.02 in0.5 mm
05:48 PM 48.1°F8.9°C 41.2°F5.1°C 77% 9.0 mph W14.5 kmh W 10.0 mph16.1 kmh 30.31 in1026.4 mb 0.00 in0.0 mm 0.00 in0.0 mm 0.02 in0.5 mm
05:49 PM 48.1°F8.9°C 41.2°F5.1°C 77% 11.0 mph W17.7 kmh W 12.0 mph19.3 kmh 30.31 in1026.4 mb 0.00 in0.0 mm 0.00 in0.0 mm 0.02 in0.5 mm
05:50 PM 48.0°F8.9°C 41.1°F5.1°C 77% 9.0 mph W14.5 kmh W 11.0 mph17.7 kmh 30.31 in1026.4 mb 0.00 in0.0 mm 0.00 in0.0 mm 0.02 in0.5 mm
05:51 PM 48.0°F8.9°C 41.1°F5.1°C 77% 10.0 mph W16.1 kmh W 10.0 mph16.1 kmh 30.31 in1026.4 mb 0.00 in0.0 mm 0.00 in0.0 mm 0.02 in0.5 mm
05:52 PM 47.9°F8.8°C 41.0°F5.0°C 77% 10.0 mph W16.1 kmh W 12.0 mph19.3 kmh 30.31 in1026.4 mb 0.00 in0.0 mm 0.00 in0.0 mm 0.02 in0.5 mm
05:53 PM 48.0°F8.9°C 41.1°F5.1°C 77% 11.0 mph W17.7 kmh W 12.0 mph19.3 kmh 30.31 in1026.4 mb 0.00 in0.0 mm 0.00 in0.0 mm 0.02 in0.5 mm
05:54 PM 48.0°F8.9°C 41.1°F5.1°C 77% 10.0 mph W16.1 kmh W 11.0 mph17.7 kmh 30.30 in1026.1 mb 0.00 in0.0 mm 0.00 in0.0 mm 0.02 in0.5 mm
05:55 PM 48.0°F8.9°C 41.1°F5.1°C 77% 10.0 mph W16.1 kmh W 11.0 mph17.7 kmh 30.31 in1026.4 mb 0.00 in0.0 mm 0.00 in0.0 mm 0.02 in0.5 mm
05:56 PM 48.0°F8.9°C 41.1°F5.1°C 77% 11.0 mph W17.7 kmh W 13.0 mph20.9 kmh 30.30 in1026.1 mb 0.00 in0.0 mm 0.00 in0.0 mm 0.02 in0.5 mm
05:57 PM 48.0°F8.9°C 41.1°F5.1°C 77% 12.0 mph W19.3 kmh W 13.0 mph20.9 kmh 30.30 in1026.1 mb 0.00 in0.0 mm 0.00 in0.0 mm 0.02 in0.5 mm
05:58 PM 48.0°F8.9°C 41.5°F5.3°C 78% 10.0 mph W16.1 kmh W 11.0 mph17.7 kmh 30.31 in1026.4 mb 0.00 in0.0 mm 0.00 in0.0 mm 0.02 in0.5 mm
05:59 PM 47.9°F8.8°C 41.0°F5.0°C 77% 9.0 mph W14.5 kmh W 11.0 mph17.7 kmh 30.31 in1026.4 mb 0.00 in0.0 mm 0.00 in0.0 mm 0.02 in0.5 mm
06:00 PM 47.8°F8.8°C 40.9°F4.9°C 77% 10.0 mph W16.1 kmh W 10.0 mph16.1 kmh 30.31 in1026.4 mb 0.00 in0.0 mm 0.00 in0.0 mm 0.02 in0.5 mm
06:01 PM 47.7°F8.7°C 41.2°F5.1°C 78% 10.0 mph W16.1 kmh W 10.0 mph16.1 kmh 30.31 in1026.4 mb 0.00 in0.0 mm 0.00 in0.0 mm 0.02 in0.5 mm
06:02 PM 47.6°F8.7°C 41.1°F5.1°C 78% 9.0 mph W14.5 kmh W 11.0 mph17.7 kmh 30.31 in1026.4 mb 0.00 in0.0 mm 0.00 in0.0 mm 0.02 in0.5 mm
06:03 PM 47.6°F8.7°C 41.1°F5.1°C 78% 9.0 mph W14.5 kmh W 10.0 mph16.1 kmh 30.31 in1026.4 mb 0.00 in0.0 mm 0.00 in0.0 mm 0.02 in0.5 mm
06:04 PM 47.5°F8.6°C 41.0°F5.0°C 78% 9.0 mph W14.5 kmh W 10.0 mph16.1 kmh 30.31 in1026.4 mb 0.00 in0.0 mm 0.00 in0.0 mm 0.02 in0.5 mm
06:05 PM 47.5°F8.6°C 41.0°F5.0°C 78% 9.0 mph WSW14.5 kmh WSW 10.0 mph16.1 kmh 30.31 in1026.4 mb 0.00 in0.0 mm 0.00 in0.0 mm 0.02 in0.5 mm
06:06 PM 47.5°F8.6°C 41.0°F5.0°C 78% 10.0 mph W16.1 kmh W 13.0 mph20.9 kmh 30.31 in1026.4 mb 0.00 in0.0 mm 0.00 in0.0 mm 0.02 in0.5 mm
06:07 PM 47.5°F8.6°C 41.3°F5.2°C 79% 9.0 mph WSW14.5 kmh WSW 12.0 mph19.3 kmh 30.31 in1026.4 mb 0.00 in0.0 mm 0.00 in0.0 mm 0.02 in0.5 mm
06:08 PM 47.4°F8.6°C 41.2°F5.1°C 79% 9.0 mph WSW14.5 kmh WSW 10.0 mph16.1 kmh 30.31 in1026.4 mb 0.00 in0.0 mm 0.00 in0.0 mm 0.02 in0.5 mm
06:09 PM 47.4°F8.6°C 41.2°F5.1°C 79% 9.0 mph WSW14.5 kmh WSW 10.0 mph16.1 kmh 30.31 in1026.4 mb 0.00 in0.0 mm 0.00 in0.0 mm 0.02 in0.5 mm
06:10 PM 47.4°F8.6°C 41.2°F5.1°C 79% 10.0 mph WSW16.1 kmh WSW 11.0 mph17.7 kmh 30.31 in1026.4 mb 0.00 in0.0 mm 0.00 in0.0 mm 0.02 in0.5 mm
06:11 PM 47.3°F8.5°C 41.1°F5.1°C 79% 10.0 mph WSW16.1 kmh WSW 10.0 mph16.1 kmh 30.31 in1026.4 mb 0.00 in0.0 mm 0.00 in0.0 mm 0.02 in0.5 mm
06:12 PM 47.3°F8.5°C 41.1°F5.1°C 79% 10.0 mph WSW16.1 kmh WSW 10.0 mph16.1 kmh 30.31 in1026.4 mb 0.00 in0.0 mm 0.00 in0.0 mm 0.02 in0.5 mm
06:13 PM 47.2°F8.4°C 41.0°F5.0°C 79% 9.0 mph WSW14.5 kmh WSW 11.0 mph17.7 kmh 30.31 in1026.4 mb 0.00 in0.0 mm 0.00 in0.0 mm 0.02 in0.5 mm
06:14 PM 47.2°F8.4°C 41.0°F5.0°C 79% 9.0 mph WSW14.5 kmh WSW 11.0 mph17.7 kmh 30.31 in1026.4 mb 0.00 in0.0 mm 0.00 in0.0 mm 0.02 in0.5 mm
06:15 PM 47.1°F8.4°C 41.3°F5.2°C 80% 9.0 mph WSW14.5 kmh WSW 10.0 mph16.1 kmh 30.31 in1026.4 mb 0.00 in0.0 mm 0.00 in0.0 mm 0.02 in0.5 mm
06:16 PM 47.1°F8.4°C 41.3°F5.2°C 80% 10.0 mph WSW16.1 kmh WSW 10.0 mph16.1 kmh 30.31 in1026.4 mb 0.00 in0.0 mm 0.00 in0.0 mm 0.02 in0.5 mm
06:17 PM 47.0°F8.3°C 41.2°F5.1°C 80% 9.0 mph WSW14.5 kmh WSW 10.0 mph16.1 kmh 30.31 in1026.4 mb 0.00 in0.0 mm 0.00 in0.0 mm 0.02 in0.5 mm
06:18 PM 47.0°F8.3°C 41.2°F5.1°C 80% 10.0 mph W16.1 kmh W 11.0 mph17.7 kmh 30.31 in1026.4 mb 0.00 in0.0 mm 0.00 in0.0 mm 0.02 in0.5 mm
06:19 PM 47.0°F8.3°C 41.2°F5.1°C 80% 10.0 mph WSW16.1 kmh WSW 11.0 mph17.7 kmh 30.31 in1026.4 mb 0.00 in0.0 mm 0.00 in0.0 mm 0.02 in0.5 mm
06:20 PM 47.0°F8.3°C 41.2°F5.1°C 80% 10.0 mph W16.1 kmh W 12.0 mph19.3 kmh 30.31 in1026.4 mb 0.00 in0.0 mm 0.00 in0.0 mm 0.02 in0.5 mm
06:21 PM 46.9°F8.3°C 41.4°F5.2°C 81% 10.0 mph W16.1 kmh W 11.0 mph17.7 kmh 30.31 in1026.4 mb 0.00 in0.0 mm 0.00 in0.0 mm 0.02 in0.5 mm
06:22 PM 46.9°F8.3°C 41.4°F5.2°C 81% 10.0 mph W16.1 kmh W 11.0 mph17.7 kmh 30.31 in1026.4 mb 0.00 in0.0 mm 0.00 in0.0 mm 0.02 in0.5 mm
06:23 PM 46.9°F8.3°C 41.4°F5.2°C 81% 10.0 mph W16.1 kmh W 10.0 mph16.1 kmh 30.31 in1026.4 mb 0.00 in0.0 mm 0.00 in0.0 mm 0.02 in0.5 mm
06:24 PM 46.9°F8.3°C 41.4°F5.2°C 81% 9.0 mph WSW14.5 kmh WSW 10.0 mph16.1 kmh 30.31 in1026.4 mb 0.00 in0.0 mm 0.00 in0.0 mm 0.02 in0.5 mm
06:25 PM 46.9°F8.3°C 41.4°F5.2°C 81% 9.0 mph WSW14.5 kmh WSW 10.0 mph16.1 kmh 30.31 in1026.4 mb 0.00 in0.0 mm 0.00 in0.0 mm 0.02 in0.5 mm
06:26 PM 46.8°F8.2°C 41.3°F5.2°C 81% 9.0 mph W14.5 kmh W 9.0 mph14.5 kmh 30.31 in1026.4 mb 0.00 in0.0 mm 0.00 in0.0 mm 0.02 in0.5 mm
06:27 PM 46.8°F8.2°C 41.3°F5.2°C 81% 9.0 mph W14.5 kmh W 10.0 mph16.1 kmh 30.31 in1026.4 mb 0.00 in0.0 mm 0.00 in0.0 mm 0.02 in0.5 mm
06:28 PM 46.7°F8.2°C 41.2°F5.1°C 81% 9.0 mph W14.5 kmh W 9.0 mph14.5 kmh 30.31 in1026.4 mb 0.00 in0.0 mm 0.00 in0.0 mm 0.02 in0.5 mm
06:29 PM 46.7°F8.2°C 41.2°F5.1°C 81% 9.0 mph W14.5 kmh W 9.0 mph14.5 kmh 30.31 in1026.4 mb 0.00 in0.0 mm 0.00 in0.0 mm 0.02 in0.5 mm
06:30 PM 46.8°F8.2°C 41.6°F5.3°C 82% 9.0 mph W14.5 kmh W 11.0 mph17.7 kmh 30.31 in1026.4 mb 0.00 in0.0 mm 0.00 in0.0 mm 0.02 in0.5 mm
06:31 PM 46.7°F8.2°C 41.5°F5.3°C 82% 9.0 mph W14.5 kmh W 10.0 mph16.1 kmh 30.31 in1026.4 mb 0.00 in0.0 mm 0.00 in0.0 mm 0.02 in0.5 mm
06:32 PM 46.7°F8.2°C 41.5°F5.3°C 82% 9.0 mph WSW14.5 kmh WSW 9.0 mph14.5 kmh 30.31 in1026.4 mb 0.00 in0.0 mm 0.00 in0.0 mm 0.02 in0.5 mm
06:33 PM 46.7°F8.2°C 41.5°F5.3°C 82% 9.0 mph WSW14.5 kmh WSW 10.0 mph16.1 kmh 30.31 in1026.4 mb 0.00 in0.0 mm 0.00 in0.0 mm 0.02 in0.5 mm
06:34 PM 46.7°F8.2°C 41.5°F5.3°C 82% 9.0 mph WSW14.5 kmh WSW 11.0 mph17.7 kmh 30.31 in1026.4 mb 0.00 in0.0 mm 0.00 in0.0 mm 0.02 in0.5 mm
06:35 PM 46.7°F8.2°C 41.5°F5.3°C 82% 9.0 mph WSW14.5 kmh WSW 9.0 mph14.5 kmh 30.31 in1026.4 mb 0.00 in0.0 mm 0.00 in0.0 mm 0.02 in0.5 mm
06:36 PM 46.7°F8.2°C 41.5°F5.3°C 82% 9.0 mph WSW14.5 kmh WSW 10.0 mph16.1 kmh 30.31 in1026.4 mb 0.00 in0.0 mm 0.00 in0.0 mm 0.02 in0.5 mm
06:37 PM 46.7°F8.2°C 41.5°F5.3°C 82% 9.0 mph WSW14.5 kmh WSW 10.0 mph16.1 kmh 30.31 in1026.4 mb 0.00 in0.0 mm 0.00 in0.0 mm 0.02 in0.5 mm
06:38 PM 46.7°F8.2°C 41.8°F5.4°C 83% 9.0 mph WSW14.5 kmh WSW 11.0 mph17.7 kmh 30.31 in1026.4 mb 0.00 in0.0 mm 0.00 in0.0 mm 0.02 in0.5 mm
06:39 PM 46.7°F8.2°C 41.8°F5.4°C 83% 9.0 mph WSW14.5 kmh WSW 10.0 mph16.1 kmh 30.31 in1026.4 mb 0.00 in0.0 mm 0.00 in0.0 mm 0.02 in0.5 mm
06:40 PM 46.7°F8.2°C 41.8°F5.4°C 83% 10.0 mph WSW16.1 kmh WSW 12.0 mph19.3 kmh 30.31 in1026.4 mb 0.00 in0.0 mm 0.00 in0.0 mm 0.02 in0.5 mm
06:41 PM 46.7°F8.2°C 41.8°F5.4°C 83% 9.0 mph WSW14.5 kmh WSW 10.0 mph16.1 kmh 30.31 in1026.4 mb 0.00 in0.0 mm 0.00 in0.0 mm 0.02 in0.5 mm
06:42 PM 46.7°F8.2°C 41.8°F5.4°C 83% 9.0 mph WSW14.5 kmh WSW 10.0 mph16.1 kmh 30.32 in1026.8 mb 0.00 in0.0 mm 0.00 in0.0 mm 0.02 in0.5 mm
06:43 PM 46.6°F8.1°C 41.7°F5.4°C 83% 9.0 mph WSW14.5 kmh WSW 10.0 mph16.1 kmh 30.32 in1026.8 mb 0.00 in0.0 mm 0.00 in0.0 mm 0.02 in0.5 mm
06:44 PM 46.6°F8.1°C 41.7°F5.4°C 83% 10.0 mph WSW16.1 kmh WSW 11.0 mph17.7 kmh 30.32 in1026.8 mb 0.00 in0.0 mm 0.00 in0.0 mm 0.02 in0.5 mm
06:45 PM 46.6°F8.1°C 41.7°F5.4°C 83% 10.0 mph WSW16.1 kmh WSW 10.0 mph16.1 kmh 30.32 in1026.8 mb 0.00 in0.0 mm 0.00 in0.0 mm 0.02 in0.5 mm
06:46 PM 46.6°F8.1°C 41.7°F5.4°C 83% 9.0 mph WSW14.5 kmh WSW 10.0 mph16.1 kmh 30.32 in1026.8 mb 0.00 in0.0 mm 0.00 in0.0 mm 0.02 in0.5 mm
06:47 PM 46.6°F8.1°C 41.7°F5.4°C 83% 10.0 mph WSW16.1 kmh WSW 11.0 mph17.7 kmh 30.32 in1026.8 mb 0.00 in0.0 mm 0.00 in0.0 mm 0.02 in0.5 mm
06:48 PM 46.5°F8.1°C 41.6°F5.3°C 83% 11.0 mph WSW17.7 kmh WSW 13.0 mph20.9 kmh 30.32 in1026.8 mb 0.00 in0.0 mm 0.00 in0.0 mm 0.02 in0.5 mm
06:49 PM 46.6°F8.1°C 41.7°F5.4°C 83% 11.0 mph W17.7 kmh W 13.0 mph20.9 kmh 30.32 in1026.8 mb 0.00 in0.0 mm 0.00 in0.0 mm 0.02 in0.5 mm
06:50 PM 46.6°F8.1°C 41.7°F5.4°C 83% 11.0 mph WSW17.7 kmh WSW 13.0 mph20.9 kmh 30.32 in1026.8 mb 0.00 in0.0 mm 0.00 in0.0 mm 0.02 in0.5 mm
06:51 PM 46.6°F8.1°C 41.7°F5.4°C 83% 11.0 mph W17.7 kmh W 12.0 mph19.3 kmh 30.32 in1026.8 mb 0.00 in0.0 mm 0.00 in0.0 mm 0.02 in0.5 mm
06:52 PM 46.6°F8.1°C 41.7°F5.4°C 83% 10.0 mph W16.1 kmh W 12.0 mph19.3 kmh 30.32 in1026.8 mb 0.00 in0.0 mm 0.00 in0.0 mm 0.02 in0.5 mm
06:53 PM 46.7°F8.2°C 41.8°F5.4°C 83% 11.0 mph WSW17.7 kmh WSW 13.0 mph20.9 kmh 30.32 in1026.8 mb 0.00 in0.0 mm 0.00 in0.0 mm 0.02 in0.5 mm
06:54 PM 46.6°F8.1°C 41.7°F5.4°C 83% 12.0 mph W19.3 kmh W 14.0 mph22.5 kmh 30.32 in1026.8 mb 0.00 in0.0 mm 0.00 in0.0 mm 0.02 in0.5 mm
06:55 PM 46.6°F8.1°C 41.7°F5.4°C 83% 12.0 mph W19.3 kmh W 13.0 mph20.9 kmh 30.32 in1026.8 mb 0.00 in0.0 mm 0.00 in0.0 mm 0.02 in0.5 mm
06:56 PM 46.7°F8.2°C 41.8°F5.4°C 83% 13.0 mph W20.9 kmh W 14.0 mph22.5 kmh 30.32 in1026.8 mb 0.00 in0.0 mm 0.00 in0.0 mm 0.02 in0.5 mm
06:57 PM 46.7°F8.2°C 41.8°F5.4°C 83% 12.0 mph W19.3 kmh W 14.0 mph22.5 kmh 30.32 in1026.8 mb 0.00 in0.0 mm 0.00 in0.0 mm 0.02 in0.5 mm
06:58 PM 46.7°F8.2°C 41.8°F5.4°C 83% 12.0 mph W19.3 kmh W 13.0 mph20.9 kmh 30.32 in1026.8 mb 0.00 in0.0 mm 0.00 in0.0 mm 0.02 in0.5 mm
06:59 PM 46.6°F8.1°C 41.7°F5.4°C 83% 12.0 mph W19.3 kmh W 13.0 mph20.9 kmh 30.32 in1026.8 mb 0.00 in0.0 mm 0.00 in0.0 mm 0.02 in0.5 mm
07:00 PM 46.5°F8.1°C 41.6°F5.3°C 83% 11.0 mph W17.7 kmh W 12.0 mph19.3 kmh 30.32 in1026.8 mb 0.00 in0.0 mm 0.00 in0.0 mm 0.02 in0.5 mm
07:01 PM 46.5°F8.1°C 41.6°F5.3°C 83% 9.0 mph WSW14.5 kmh WSW 11.0 mph17.7 kmh 30.32 in1026.8 mb 0.00 in0.0 mm 0.00 in0.0 mm 0.02 in0.5 mm
07:02 PM 46.5°F8.1°C 41.6°F5.3°C 83% 9.0 mph WSW14.5 kmh WSW 10.0 mph16.1 kmh 30.32 in1026.8 mb 0.00 in0.0 mm 0.00 in0.0 mm 0.02 in0.5 mm
07:03 PM 46.3°F7.9°C 41.4°F5.2°C 83% 9.0 mph WSW14.5 kmh WSW 10.0 mph16.1 kmh 30.32 in1026.8 mb 0.00 in0.0 mm 0.00 in0.0 mm 0.02 in0.5 mm
07:04 PM 46.2°F7.9°C 41.3°F5.2°C 83% 9.0 mph WSW14.5 kmh WSW 9.0 mph14.5 kmh 30.32 in1026.8 mb 0.00 in0.0 mm 0.00 in0.0 mm 0.02 in0.5 mm
07:05 PM 46.0°F7.8°C 41.1°F5.1°C 83% 9.0 mph WSW14.5 kmh WSW 11.0 mph17.7 kmh 30.32 in1026.8 mb 0.00 in0.0 mm 0.00 in0.0 mm 0.02 in0.5 mm
07:06 PM 46.0°F7.8°C 41.1°F5.1°C 83% 11.0 mph WSW17.7 kmh WSW 12.0 mph19.3 kmh 30.32 in1026.8 mb 0.00 in0.0 mm 0.00 in0.0 mm 0.02 in0.5 mm
07:07 PM 46.1°F7.8°C 41.5°F5.3°C 84% 10.0 mph WSW16.1 kmh WSW 12.0 mph19.3 kmh 30.32 in1026.8 mb 0.00 in0.0 mm 0.00 in0.0 mm 0.02 in0.5 mm
07:08 PM 46.1°F7.8°C 41.5°F5.3°C 84% 9.0 mph WSW14.5 kmh WSW 11.0 mph17.7 kmh 30.32 in1026.8 mb 0.00 in0.0 mm 0.00 in0.0 mm 0.02 in0.5 mm
07:09 PM 46.0°F7.8°C 41.4°F5.2°C 84% 10.0 mph W16.1 kmh W 12.0 mph19.3 kmh 30.32 in1026.8 mb 0.00 in0.0 mm 0.00 in0.0 mm 0.02 in0.5 mm
07:10 PM 46.0°F7.8°C 41.4°F5.2°C 84% 10.0 mph WSW16.1 kmh WSW 12.0 mph19.3 kmh 30.31 in1026.4 mb 0.00 in0.0 mm 0.00 in0.0 mm 0.02 in0.5 mm
07:11 PM 46.0°F7.8°C 41.4°F5.2°C 84% 11.0 mph WSW17.7 kmh WSW 12.0 mph19.3 kmh 30.31 in1026.4 mb 0.00 in0.0 mm 0.00 in0.0 mm 0.02 in0.5 mm
07:12 PM 45.9°F7.7°C 41.3°F5.2°C 84% 11.0 mph WSW17.7 kmh WSW 12.0 mph19.3 kmh 30.31 in1026.4 mb 0.00 in0.0 mm 0.00 in0.0 mm 0.02 in0.5 mm
07:13 PM 46.0°F7.8°C 41.4°F5.2°C 84% 10.0 mph WSW16.1 kmh WSW 11.0 mph17.7 kmh 30.31 in1026.4 mb 0.00 in0.0 mm 0.00 in0.0 mm 0.02 in0.5 mm
07:14 PM 45.9°F7.7°C 41.3°F5.2°C 84% 9.0 mph WSW14.5 kmh WSW 11.0 mph17.7 kmh 30.31 in1026.4 mb 0.00 in0.0 mm 0.00 in0.0 mm 0.02 in0.5 mm
07:15 PM 45.8°F7.7°C 41.2°F5.1°C 84% 9.0 mph WSW14.5 kmh WSW 11.0 mph17.7 kmh 30.31 in1026.4 mb 0.00 in0.0 mm 0.00 in0.0 mm 0.02 in0.5 mm
07:16 PM 45.8°F7.7°C 41.2°F5.1°C 84% 10.0 mph WSW16.1 kmh WSW 12.0 mph19.3 kmh 30.31 in1026.4 mb 0.00 in0.0 mm 0.00 in0.0 mm 0.02 in0.5 mm
07:17 PM 45.8°F7.7°C 41.6°F5.3°C 85% 10.0 mph WSW16.1 kmh WSW 12.0 mph19.3 kmh 30.31 in1026.4 mb 0.00 in0.0 mm 0.00 in0.0 mm 0.02 in0.5 mm
07:18 PM 45.7°F7.6°C 41.5°F5.3°C 85% 10.0 mph WSW16.1 kmh WSW 11.0 mph17.7 kmh 30.31 in1026.4 mb 0.00 in0.0 mm 0.00 in0.0 mm 0.02 in0.5 mm
07:19 PM 45.7°F7.6°C 41.5°F5.3°C 85% 11.0 mph WSW17.7 kmh WSW 13.0 mph20.9 kmh 30.31 in1026.4 mb 0.00 in0.0 mm 0.00 in0.0 mm 0.02 in0.5 mm
07:20 PM 45.7°F7.6°C 41.5°F5.3°C 85% 11.0 mph WSW17.7 kmh WSW 12.0 mph19.3 kmh 30.31 in1026.4 mb 0.00 in0.0 mm 0.00 in0.0 mm 0.02 in0.5 mm
07:21 PM 45.6°F7.6°C 41.4°F5.2°C 85% 12.0 mph WSW19.3 kmh WSW 13.0 mph20.9 kmh 30.32 in1026.8 mb 0.00 in0.0 mm 0.00 in0.0 mm 0.02 in0.5 mm
07:22 PM 45.6°F7.6°C 41.4°F5.2°C 85% 12.0 mph WSW19.3 kmh WSW 14.0 mph22.5 kmh 30.32 in1026.8 mb 0.00 in0.0 mm 0.00 in0.0 mm 0.02 in0.5 mm
07:23 PM 45.7°F7.6°C 41.5°F5.3°C 85% 12.0 mph W19.3 kmh W 13.0 mph20.9 kmh 30.32 in1026.8 mb 0.00 in0.0 mm 0.00 in0.0 mm 0.02 in0.5 mm
07:24 PM 45.7°F7.6°C 41.5°F5.3°C 85% 11.0 mph WSW17.7 kmh WSW 13.0 mph20.9 kmh 30.32 in1026.8 mb 0.00 in0.0 mm 0.00 in0.0 mm 0.02 in0.5 mm
07:25 PM 45.7°F7.6°C 41.5°F5.3°C 85% 10.0 mph WSW16.1 kmh WSW 11.0 mph17.7 kmh 30.32 in1026.8 mb 0.00 in0.0 mm 0.00 in0.0 mm 0.02 in0.5 mm
07:26 PM 45.6°F7.6°C 41.4°F5.2°C 85% 10.0 mph WSW16.1 kmh WSW 11.0 mph17.7 kmh 30.32 in1026.8 mb 0.00 in0.0 mm 0.00 in0.0 mm 0.02 in0.5 mm
07:27 PM 45.6°F7.6°C 41.4°F5.2°C 85% 10.0 mph WSW16.1 kmh WSW 11.0 mph17.7 kmh 30.31 in1026.4 mb 0.00 in0.0 mm 0.00 in0.0 mm 0.02 in0.5 mm
07:28 PM 45.5°F7.5°C 41.3°F5.2°C 85% 9.0 mph WSW14.5 kmh WSW 10.0 mph16.1 kmh 30.31 in1026.4 mb 0.00 in0.0 mm 0.00 in0.0 mm 0.02 in0.5 mm
07:29 PM 45.5°F7.5°C 41.3°F5.2°C 85% 9.0 mph WSW14.5 kmh WSW 10.0 mph16.1 kmh 30.31 in1026.4 mb 0.00 in0.0 mm 0.00 in0.0 mm 0.02 in0.5 mm
07:30 PM 45.4°F7.4°C 41.2°F5.1°C 85% 9.0 mph WSW14.5 kmh WSW 9.0 mph14.5 kmh 30.32 in1026.8 mb 0.00 in0.0 mm 0.00 in0.0 mm 0.02 in0.5 mm
07:31 PM 45.4°F7.4°C 41.2°F5.1°C 85% 9.0 mph WSW14.5 kmh WSW 10.0 mph16.1 kmh 30.32 in1026.8 mb 0.00 in0.0 mm 0.00 in0.0 mm 0.02 in0.5 mm
07:32 PM 45.3°F7.4°C 41.1°F5.1°C 85% 8.0 mph WSW12.9 kmh WSW 9.0 mph14.5 kmh 30.32 in1026.8 mb 0.00 in0.0 mm 0.00 in0.0 mm 0.02 in0.5 mm
07:33 PM 45.2°F7.3°C 41.0°F5.0°C 85% 8.0